Provisional Data: Driftwood Branch Sinnemahoning Creek


Please select a monitoring station.
Please select start date.
Please select start date.

Toggle Unit: C/F Toggle Unit: C/F
Sample Time Temperature (C) Temperature (F) Specific Conductivity (mS/cm) pH   Turbidity (NTU+) DO (mg/L)
12/4/2020 12:00:00 AM 2.99 37.382 0.059 17.63 3.04 13.02
12/4/2020 12:15:00 AM 2.98 37.364 0.059 17.63 3.12 13.02
12/4/2020 12:30:00 AM 2.99 37.382 0.058 17.63 3.13 13.02
12/4/2020 12:45:00 AM 2.99 37.382 0.058 17.63 3.04 13.02
12/4/2020 1:00:00 AM 2.99 37.382 0.058 17.63 3.1 13.02
12/4/2020 1:15:00 AM 3 37.4 0.059 17.63 3.16 13.02
12/4/2020 1:30:00 AM 3 37.4 0.058 17.63 3.21 13.02
12/4/2020 1:45:00 AM 3.01 37.418 0.058 17.63 3.13 13.02
12/4/2020 2:00:00 AM 3.01 37.418 0.058 17.63 3.07 13.01
12/4/2020 2:15:00 AM 3.01 37.418 0.058 17.63 3.1 13.02
12/4/2020 2:30:00 AM 2.99 37.382 0.058 17.63 3.12 13.01
12/4/2020 2:45:00 AM 2.98 37.364 0.058 17.63 3.08 13.01
12/4/2020 3:00:00 AM 2.96 37.328 0.058 17.63 2.96 13.01
12/4/2020 3:15:00 AM 2.95 37.31 0.058 17.63 3.04 13.02
12/4/2020 3:30:00 AM 2.94 37.292 0.059 17.63 3.05 13.02
12/4/2020 3:45:00 AM 2.94 37.292 0.058 17.63 3.08 13.02
12/4/2020 4:00:00 AM 2.93 37.274 0.059 17.63 3 13.03
12/4/2020 4:15:00 AM 2.92 37.256 0.058 17.63 3.06 13.03
12/4/2020 4:30:00 AM 2.92 37.256 0.058 17.63 3 13.03
12/4/2020 4:45:00 AM 2.91 37.238 0.058 17.63 3.07 13.03
12/4/2020 5:00:00 AM 2.9 37.22 0.058 17.63 2.95 13.03
12/4/2020 5:15:00 AM 2.9 37.22 0.058 17.63 3.05 13.04
12/4/2020 5:30:00 AM 2.91 37.238 0.058 17.63 3.08 13.04
12/4/2020 5:45:00 AM 2.92 37.256 0.058 17.63 3 13.03
12/4/2020 6:00:00 AM 2.92 37.256 0.058 17.63 3.05 13.03
12/4/2020 6:15:00 AM 2.93 37.274 0.058 17.63 2.98 13.03
12/4/2020 6:30:00 AM 2.93 37.274 0.058 17.63 2.94 13.02
12/4/2020 6:45:00 AM 2.94 37.292 0.058 17.63 2.98 13.02
12/4/2020 7:00:00 AM 2.94 37.292 0.058 17.63 2.98 13.03
12/4/2020 7:15:00 AM 2.95 37.31 0.058 17.63 2.87 13.02
12/4/2020 7:30:00 AM 2.96 37.328 0.058 17.63 2.92 13.03
12/4/2020 7:45:00 AM 2.97 37.346 0.058 17.63 3.28 13.03
12/4/2020 8:00:00 AM 2.98 37.364 0.058 17.63 2.97 13.06
12/4/2020 8:15:00 AM 2.99 37.382 0.058 17.63 2.88 13.11
12/4/2020 8:30:00 AM 3 37.4 0.058 17.63 2.86 13.17
12/4/2020 8:45:00 AM 3.02 37.436 0.058 17.63 2.91 13.25
12/4/2020 9:00:00 AM 3.03 37.454 0.058 17.63 2.92 13.31
12/4/2020 9:15:00 AM 3.05 37.49 0.057 17.63 2.86 13.36
12/4/2020 9:30:00 AM 3.06 37.508 0.057 17.63 2.88 13.4
12/4/2020 9:45:00 AM 3.12 37.616 0.057 17.63 2.87 13.45
12/4/2020 10:00:00 AM 3.2 37.76 0.057 17.62 2.8 13.48
12/4/2020 10:15:00 AM 3.28 37.904 0.057 17.62 2.8 13.5
12/4/2020 10:30:00 AM 3.36 38.048 0.057 17.62 2.84 13.51
12/4/2020 10:45:00 AM 3.48 38.264 0.057 17.61 2.86 13.51
12/4/2020 11:00:00 AM 3.63 38.534 0.057 17.61 2.84 13.5
12/4/2020 11:15:00 AM 3.76 38.768 0.057 17.6 2.82 13.49
12/4/2020 11:30:00 AM 3.89 39.002 0.057 17.6 2.8 13.47
12/4/2020 11:45:00 AM 4.01 39.218 0.057 17.59 2.73 13.45
12/4/2020 12:00:00 PM 4.09 39.362 0.056 17.59 2.83 13.42
12/4/2020 12:15:00 PM 4.16 39.488 0.056 17.59 2.85 13.4
12/4/2020 12:30:00 PM 4.22 39.596 0.056 17.58 2.71 13.37
12/4/2020 12:45:00 PM 4.25 39.65 0.056 17.58 2.76 13.33
12/4/2020 1:00:00 PM 4.29 39.722 0.056 17.58 2.83 13.3
12/4/2020 1:15:00 PM 4.32 39.776 0.056 17.58 2.73 13.26
12/4/2020 1:30:00 PM 4.35 39.83 0.056 17.58 2.78 13.21
12/4/2020 1:45:00 PM 4.37 39.866 0.056 17.58 2.7 13.16
12/4/2020 2:00:00 PM 4.4 39.92 0.056 17.58 2.72 13.13
12/4/2020 2:15:00 PM 4.44 39.992 0.056 17.58 2.76 13.12
12/4/2020 2:30:00 PM 4.48 40.064 0.056 17.57 2.66 13.12
12/4/2020 2:45:00 PM 4.52 40.136 0.056 17.57 2.72 13.12
12/4/2020 3:00:00 PM 4.56 40.208 0.056 17.57 2.71 13.11
12/4/2020 3:15:00 PM 4.6 40.28 0.056 17.57 2.73 13.1
12/4/2020 3:30:00 PM 4.63 40.334 0.056 17.57 2.71 13.07
12/4/2020 3:45:00 PM 4.63 40.334 0.056 17.57 2.76 13.02
12/4/2020 4:00:00 PM 4.62 40.316 0.056 17.57 2.73 12.95
12/4/2020 4:15:00 PM 4.6 40.28 0.056 17.57 2.8 12.88
12/4/2020 4:30:00 PM 4.57 40.226 0.056 17.57 2.77 12.81
12/4/2020 4:45:00 PM 4.53 40.154 0.056 17.57 2.81 12.74
12/4/2020 5:00:00 PM 4.49 40.082 0.056 17.57 2.89 12.67
12/4/2020 5:15:00 PM 4.45 40.01 0.056 17.58 2.94 12.61
12/4/2020 5:30:00 PM 4.4 39.92 0.056 17.58 2.76 12.57
12/4/2020 5:45:00 PM 4.36 39.848 0.057 17.58 2.91 12.54
12/4/2020 6:00:00 PM 4.32 39.776 0.057 17.58 2.97 12.52
12/4/2020 6:15:00 PM 4.28 39.704 0.057 17.58 2.9 12.51
12/4/2020 6:30:00 PM 4.23 39.614 0.057 17.58 2.91 12.51
12/4/2020 6:45:00 PM 4.2 39.56 0.057 17.59 2.95 12.5
12/4/2020 7:00:00 PM 4.17 39.506 0.057 17.59 2.95 12.51
12/4/2020 7:15:00 PM 4.14 39.452 0.057 17.59 2.96 12.51
12/4/2020 7:30:00 PM 4.11 39.398 0.057 17.59 2.93 12.52
12/4/2020 7:45:00 PM 4.1 39.38 0.057 17.59 2.96 12.52
12/4/2020 8:00:00 PM 4.09 39.362 0.057 17.59 3.08 12.53
12/4/2020 8:15:00 PM 4.08 39.344 0.057 17.59 3 12.53
12/4/2020 8:30:00 PM 4.07 39.326 0.057 17.59 2.97 12.54
12/4/2020 8:45:00 PM 4.06 39.308 0.057 17.59 3.02 12.55
12/4/2020 9:00:00 PM 4.04 39.272 0.057 17.59 3.04 12.56
12/4/2020 9:15:00 PM 4.03 39.254 0.057 17.59 2.95 12.56
12/4/2020 9:30:00 PM 4.03 39.254 0.057 17.59 3.03 12.56
12/4/2020 9:45:00 PM 4.02 39.236 0.057 17.59 3.04 12.57
12/4/2020 10:00:00 PM 4.01 39.218 0.057 17.59 3.04 12.57
12/4/2020 10:15:00 PM 3.99 39.182 0.057 17.59 2.96 12.57
12/4/2020 10:30:00 PM 3.98 39.164 0.057 17.59 2.96 12.58
12/4/2020 10:45:00 PM 3.96 39.128 0.057 17.59 2.99 12.58
12/4/2020 11:00:00 PM 3.94 39.092 0.057 17.59 3.04 12.59
12/4/2020 11:15:00 PM 3.94 39.092 0.057 17.6 3.12 12.59
12/4/2020 11:30:00 PM 3.93 39.074 0.057 17.6 3.05 12.59
12/4/2020 11:45:00 PM 3.92 39.056 0.057 17.6 3.08 12.6
12/5/2020 12:00:00 AM 3.91 39.038 0.057 17.6 2.99 12.6
12/5/2020 12:15:00 AM 3.91 39.038 0.057 17.6 3.09 12.6
12/5/2020 12:30:00 AM 3.9 39.02 0.057 17.6 3.12 12.6
12/5/2020 12:45:00 AM 3.9 39.02 0.057 17.6 3.03 12.6
12/5/2020 1:00:00 AM 3.89 39.002 0.057 17.6 3.11 12.61
12/5/2020 1:15:00 AM 3.89 39.002 0.057 17.6 3.25 12.6
12/5/2020 1:30:00 AM 3.89 39.002 0.057 17.6 3.12 12.61
12/5/2020 1:45:00 AM 3.89 39.002 0.057 17.6 3.09 12.61
12/5/2020 2:00:00 AM 3.89 39.002 0.057 17.6 3.18 12.6
12/5/2020 2:15:00 AM 3.88 38.984 0.057 17.6 3.15 12.61
12/5/2020 2:30:00 AM 3.88 38.984 0.057 17.6 3.09 12.6
12/5/2020 2:45:00 AM 3.88 38.984 0.057 17.6 3.15 12.6
12/5/2020 3:00:00 AM 3.88 38.984 0.057 17.6 3.12 12.6
12/5/2020 3:15:00 AM 3.88 38.984 0.057 17.6 3.24 12.6
12/5/2020 3:30:00 AM 3.88 38.984 0.057 17.6 3.25 12.6
12/5/2020 3:45:00 AM 3.88 38.984 0.057 17.6 3.36 12.59
12/5/2020 4:00:00 AM 3.89 39.002 0.057 17.6 3.35 12.59
12/5/2020 4:15:00 AM 3.89 39.002 0.057 17.6 3.27 12.59
12/5/2020 4:30:00 AM 3.9 39.02 0.057 17.6 3.33 12.59
12/5/2020 4:45:00 AM 3.9 39.02 0.057 17.6 3.35 12.59
12/5/2020 5:00:00 AM 3.91 39.038 0.057 17.6 3.35 12.59
12/5/2020 5:15:00 AM 3.91 39.038 0.057 17.6 3.26 12.59
12/5/2020 5:30:00 AM 3.91 39.038 0.057 17.6 3.31 12.59
12/5/2020 5:45:00 AM 3.91 39.038 0.057 17.6 3.26 12.59
12/5/2020 6:00:00 AM 3.91 39.038 0.057 17.6 3.22 12.59
12/5/2020 6:15:00 AM 3.92 39.056 0.057 17.6 3.34 12.59
12/5/2020 6:30:00 AM 3.92 39.056 0.057 17.6 3.13 12.59
12/5/2020 6:45:00 AM 3.92 39.056 0.057 17.6 3.3 12.59
12/5/2020 7:00:00 AM 3.92 39.056 0.057 17.6 3.22 12.59
12/5/2020 7:15:00 AM 3.92 39.056 0.057 17.6 3.2 12.59
12/5/2020 7:30:00 AM 3.92 39.056 0.057 17.6 3.1 12.6
12/5/2020 7:45:00 AM 3.92 39.056 0.057 17.6 3.06 12.62
12/5/2020 8:00:00 AM 3.92 39.056 0.057 17.6 3.04 12.65
12/5/2020 8:15:00 AM 3.93 39.074 0.057 17.6 3.07 12.7
12/5/2020 8:30:00 AM 3.94 39.092 0.057 17.6 2.98 12.74
12/5/2020 8:45:00 AM 3.96 39.128 0.057 17.59 3.13 12.79
12/5/2020 9:00:00 AM 3.97 39.146 0.057 17.59 3.08 12.84
12/5/2020 9:15:00 AM 3.99 39.182 0.057 17.59 2.94 12.89
12/5/2020 9:30:00 AM 4.02 39.236 0.056 17.59 2.99 12.95
12/5/2020 9:45:00 AM 4.05 39.29 0.056 17.59 3.05 13
12/5/2020 10:00:00 AM 4.08 39.344 0.056 17.59 3 13.04
12/5/2020 10:15:00 AM 4.1 39.38 0.056 17.59 2.99 13.05
12/5/2020 10:30:00 AM 4.12 39.416 0.056 17.59 3.01 13.07
12/5/2020 10:45:00 AM 4.14 39.452 0.056 17.59 3.03 13.06
12/5/2020 11:00:00 AM 4.17 39.506 0.056 17.59 3.01 13.07
12/5/2020 11:15:00 AM 4.2 39.56 0.056 17.59 2.88 13.1
12/5/2020 11:30:00 AM 4.23 39.614 0.056 17.58 2.79 13.12
12/5/2020 11:45:00 AM 4.28 39.704 0.056 17.58 2.86 13.15
12/5/2020 12:00:00 PM 4.31 39.758 0.056 17.58 2.88 13.15
12/5/2020 12:15:00 PM 4.32 39.776 0.056 17.58 2.94 13.13
12/5/2020 12:30:00 PM 4.34 39.812 0.056 17.58 2.88 13.13
12/5/2020 12:45:00 PM 4.35 39.83 0.056 17.58 2.93 13.11
12/5/2020 1:00:00 PM 4.38 39.884 0.056 17.58 2.85 13.09
12/5/2020 1:15:00 PM 4.4 39.92 0.056 17.58 2.76 13.1
12/5/2020 1:30:00 PM 4.41 39.938 0.056 17.58 2.87 13.07
12/5/2020 1:45:00 PM 4.41 39.938 0.055 17.58 2.85 13.04
12/5/2020 2:00:00 PM 4.43 39.974 0.055 17.58 2.83 13.04
12/5/2020 2:15:00 PM 4.44 39.992 0.056 17.58 2.9 13.04
12/5/2020 2:30:00 PM 4.45 40.01 0.056 17.58 2.91 13.03
12/5/2020 2:45:00 PM 4.44 39.992 0.056 17.58 2.85 13
12/5/2020 3:00:00 PM 4.44 39.992 0.055 17.58 2.94 12.94
12/5/2020 3:15:00 PM 4.44 39.992 0.056 17.58 2.86 12.94
12/5/2020 3:30:00 PM 4.45 40.01 0.055 17.58 2.84 12.94
12/5/2020 3:45:00 PM 4.44 39.992 0.056 17.58 2.86 12.89
12/5/2020 4:00:00 PM 4.42 39.956 0.056 17.58 2.84 12.82
12/5/2020 4:15:00 PM 4.41 39.938 0.056 17.58 2.92 12.76
12/5/2020 4:30:00 PM 4.4 39.92 0.056 17.58 2.9 12.71
12/5/2020 4:45:00 PM 4.39 39.902 0.056 17.58 2.86 12.67
12/5/2020 5:00:00 PM 4.37 39.866 0.056 17.58 2.97 12.63
12/5/2020 5:15:00 PM 4.36 39.848 0.056 17.58 2.97 12.59
12/5/2020 5:30:00 PM 4.35 39.83 0.056 17.58 2.92 12.56
12/5/2020 5:45:00 PM 4.33 39.794 0.056 17.58 2.95 12.54
12/5/2020 6:00:00 PM 4.31 39.758 0.056 17.58 2.83 12.52
12/5/2020 6:15:00 PM 4.29 39.722 0.056 17.58 2.91 12.52
12/5/2020 6:30:00 PM 4.27 39.686 0.056 17.58 3.11 12.51
12/5/2020 6:45:00 PM 4.25 39.65 0.056 17.58 3.03 12.5
12/5/2020 7:00:00 PM 4.23 39.614 0.056 17.58 3.09 12.5
12/5/2020 7:15:00 PM 4.22 39.596 0.056 17.58 3.02 12.52
12/5/2020 7:30:00 PM 4.2 39.56 0.056 17.59 3.01 12.51
12/5/2020 7:45:00 PM 4.19 39.542 0.056 17.59 2.95 12.52
12/5/2020 8:00:00 PM 4.17 39.506 0.056 17.59 3.01 12.53
12/5/2020 8:15:00 PM 4.15 39.47 0.056 17.59 3.03 12.53
12/5/2020 8:30:00 PM 4.14 39.452 0.056 17.59 3.02 12.54
12/5/2020 8:45:00 PM 4.12 39.416 0.056 17.59 3.07 12.55
12/5/2020 9:00:00 PM 4.1 39.38 0.056 17.59 2.96 12.55
12/5/2020 9:15:00 PM 4.08 39.344 0.056 17.59 3.06 12.55
12/5/2020 9:30:00 PM 4.07 39.326 0.056 17.59 3.04 12.56
12/5/2020 9:45:00 PM 4.05 39.29 0.056 17.59 3.02 12.55
12/5/2020 10:00:00 PM 4.03 39.254 0.056 17.59 3.05 12.57
12/5/2020 10:15:00 PM 4.02 39.236 0.056 17.59 3.02 12.58
12/5/2020 10:30:00 PM 4 39.2 0.056 17.59 3.03 12.58
12/5/2020 10:45:00 PM 3.98 39.164 0.056 17.59 3.18 12.59
12/5/2020 11:00:00 PM 3.97 39.146 0.056 17.59 2.98 12.6
12/5/2020 11:15:00 PM 3.95 39.11 0.057 17.59 2.98 12.6
12/5/2020 11:30:00 PM 3.93 39.074 0.056 17.6 3.07 12.6
12/5/2020 11:45:00 PM 3.92 39.056 0.056 17.6 3.04 12.61
12/6/2020 12:00:00 AM 3.9 39.02 0.057 17.6 3.08 12.62
12/6/2020 12:15:00 AM 3.88 38.984 0.057 17.6 3.07 12.62
12/6/2020 12:30:00 AM 3.86 38.948 0.057 17.6 3.12 12.63
12/6/2020 12:45:00 AM 3.85 38.93 0.057 17.6 3.12 12.64
12/6/2020 1:00:00 AM 3.83 38.894 0.057 17.6 3.1 12.64
12/6/2020 1:15:00 AM 3.81 38.858 0.057 17.6 3.15 12.65
12/6/2020 1:30:00 AM 3.8 38.84 0.057 17.6 3 12.65
12/6/2020 1:45:00 AM 3.78 38.804 0.057 17.6 3.05 12.66
12/6/2020 2:00:00 AM 3.76 38.768 0.057 17.6 3.02 12.67
12/6/2020 2:15:00 AM 3.74 38.732 0.057 17.6 3 12.68
12/6/2020 2:30:00 AM 3.72 38.696 0.056 17.6 3.03 12.68
12/6/2020 2:45:00 AM 3.7 38.66 0.057 17.6 3.05 12.69
12/6/2020 3:00:00 AM 3.68 38.624 0.057 17.6 3.06 12.7
12/6/2020 3:15:00 AM 3.65 38.57 0.057 17.61 2.95 12.7
12/6/2020 3:30:00 AM 3.63 38.534 0.057 17.61 3.01 12.71
12/6/2020 3:45:00 AM 3.61 38.498 0.057 17.61 2.92 12.72
12/6/2020 4:00:00 AM 3.57 38.426 0.056 17.61 3.2 12.73
12/6/2020 4:15:00 AM 3.55 38.39 0.056 17.61 3.15 12.74
12/6/2020 4:30:00 AM 3.52 38.336 0.057 17.61 3.07 12.76
12/6/2020 4:45:00 AM 3.49 38.282 0.056 17.61 3.11 12.77
12/6/2020 5:00:00 AM 3.46 38.228 0.056 17.61 2.97 12.79
12/6/2020 5:15:00 AM 3.44 38.192 0.056 17.61 2.98 12.79
12/6/2020 5:30:00 AM 3.4 38.12 0.056 17.62 2.94 12.8
12/6/2020 5:45:00 AM 3.37 38.066 0.056 17.62 3.02 12.81
12/6/2020 6:00:00 AM 3.34 38.012 0.056 17.62 2.97 12.83
12/6/2020 6:15:00 AM 3.31 37.958 0.056 17.62 3.05 12.84
12/6/2020 6:30:00 AM 3.29 37.922 0.056 17.62 2.92 12.85
12/6/2020 6:45:00 AM 3.26 37.868 0.056 17.62 2.92 12.86
12/6/2020 7:00:00 AM 3.24 37.832 0.056 17.62 2.9 12.87
12/6/2020 7:15:00 AM 3.21 37.778 0.056 17.62 2.92 12.88
12/6/2020 7:30:00 AM 3.19 37.742 0.056 17.62 2.9 12.9
12/6/2020 7:45:00 AM 3.17 37.706 0.056 17.62 2.88 12.92
12/6/2020 8:00:00 AM 3.15 37.67 0.056 17.63 2.89 12.97
12/6/2020 8:15:00 AM 3.13 37.634 0.056 17.63 2.84 13.04
12/6/2020 8:30:00 AM 3.12 37.616 0.056 17.63 2.85 13.14
12/6/2020 8:45:00 AM 3.12 37.616 0.056 17.63 2.9 13.23
12/6/2020 9:00:00 AM 3.12 37.616 0.056 17.63 2.83 13.32
12/6/2020 9:15:00 AM 3.15 37.67 0.056 17.63 2.77 13.39
12/6/2020 9:30:00 AM 3.16 37.688 0.056 17.62 2.85 13.44
12/6/2020 9:45:00 AM 3.17 37.706 0.056 17.62 2.85 13.48
12/6/2020 10:00:00 AM 3.19 37.742 0.056 17.62 2.72 13.52
12/6/2020 10:15:00 AM 3.22 37.796 0.056 17.62 2.79 13.55
12/6/2020 10:30:00 AM 3.24 37.832 0.056 17.62 2.81 13.57
12/6/2020 10:45:00 AM 3.27 37.886 0.055 17.62 2.77 13.59
12/6/2020 11:00:00 AM 3.3 37.94 0.055 17.62 2.81 13.6
12/6/2020 11:15:00 AM 3.33 37.994 0.055 17.62 2.7 13.61
12/6/2020 11:30:00 AM 3.36 38.048 0.055 17.62 2.8 13.62
12/6/2020 11:45:00 AM 3.41 38.138 0.055 17.62 2.76 13.62
12/6/2020 12:00:00 PM 3.48 38.264 0.055 17.61 2.75 13.62
12/6/2020 12:15:00 PM 3.53 38.354 0.055 17.61 2.72 13.61
12/6/2020 12:30:00 PM 3.57 38.426 0.055 17.61 2.84 13.6
12/6/2020 12:45:00 PM 3.6 38.48 0.055 17.61 2.67 13.59
12/6/2020 1:00:00 PM 3.63 38.534 0.055 17.61 2.68 13.58
12/6/2020 1:15:00 PM 3.64 38.552 0.055 17.61 2.69 13.56
12/6/2020 1:30:00 PM 3.68 38.624 0.055 17.61 2.68 13.55
12/6/2020 1:45:00 PM 3.71 38.678 0.055 17.6 2.73 13.54
12/6/2020 2:00:00 PM 3.74 38.732 0.055 17.6 2.67 13.52
12/6/2020 2:15:00 PM 3.77 38.786 0.055 17.6 2.7 13.51
12/6/2020 2:30:00 PM 3.8 38.84 0.055 17.6 2.71 13.49
12/6/2020 2:45:00 PM 3.82 38.876 0.055 17.6 2.63 13.47
12/6/2020 3:00:00 PM 3.81 38.858 0.055 17.6 2.64 13.44
12/6/2020 3:15:00 PM 3.79 38.822 0.055 17.6 2.72 13.41
12/6/2020 3:30:00 PM 3.77 38.786 0.055 17.6 2.65 13.37
12/6/2020 3:45:00 PM 3.75 38.75 0.055 17.6 2.66 13.35
12/6/2020 4:00:00 PM 3.73 38.714 0.055 17.6 2.68 13.3
12/6/2020 4:15:00 PM 3.7 38.66 0.055 17.6 2.66 13.25
12/6/2020 4:30:00 PM 3.67 38.606 0.055 17.61 2.71 13.18
12/6/2020 4:45:00 PM 3.63 38.534 0.055 17.61 2.73 13.1
12/6/2020 5:00:00 PM 3.59 38.462 0.055 17.61 2.68 13.03
12/6/2020 5:15:00 PM 3.55 38.39 0.055 17.61 2.69 12.97
12/6/2020 5:30:00 PM 3.52 38.336 0.055 17.61 2.68 12.92
12/6/2020 5:45:00 PM 3.48 38.264 0.055 17.61 2.76 12.9
12/6/2020 6:00:00 PM 3.44 38.192 0.055 17.61 2.67 12.88
12/6/2020 6:15:00 PM 3.4 38.12 0.056 17.62 2.75 12.87
12/6/2020 6:30:00 PM 3.37 38.066 0.055 17.62 2.69 12.86
12/6/2020 6:45:00 PM 3.33 37.994 0.056 17.62 2.68 12.87
12/6/2020 7:00:00 PM 3.29 37.922 0.056 17.62 2.72 12.88
12/6/2020 7:15:00 PM 3.25 37.85 0.056 17.62 2.74 12.88
12/6/2020 7:30:00 PM 3.2 37.76 0.056 17.62 2.78 12.9
12/6/2020 7:45:00 PM 3.15 37.67 0.056 17.63 2.67 12.91
12/6/2020 8:00:00 PM 3.11 37.598 0.056 17.63 2.65 12.92
12/6/2020 8:15:00 PM 3.07 37.526 0.056 17.63 2.72 12.94
12/6/2020 8:30:00 PM 3.04 37.472 0.056 17.63 2.74 12.95
12/6/2020 8:45:00 PM 3.01 37.418 0.056 17.63 2.66 12.95
12/6/2020 9:00:00 PM 2.98 37.364 0.056 17.63 2.72 12.97
12/6/2020 9:15:00 PM 2.95 37.31 0.056 17.63 2.73 12.99
12/6/2020 9:30:00 PM 2.92 37.256 0.056 17.63 2.71 13
12/6/2020 9:45:00 PM 2.9 37.22 0.056 17.64 2.74 13.01
12/6/2020 10:00:00 PM 2.87 37.166 0.056 17.64 2.77 13.01
12/6/2020 10:15:00 PM 2.84 37.112 0.056 17.64 2.69 13.02
12/6/2020 10:30:00 PM 2.81 37.058 0.056 17.64 2.76 13.03
12/6/2020 10:45:00 PM 2.78 37.004 0.056 17.64 2.73 13.04
12/6/2020 11:00:00 PM 2.76 36.968 0.056 17.64 2.72 13.05
12/6/2020 11:15:00 PM 2.74 36.932 0.056 17.64 2.74 13.06
12/6/2020 11:30:00 PM 2.72 36.896 0.056 17.64 2.65 13.07
12/6/2020 11:45:00 PM 2.7 36.86 0.056 17.64 2.67 13.07
12/7/2020 12:00:00 AM 2.68 36.824 0.056 17.64 2.77 13.08
12/7/2020 12:15:00 AM 2.66 36.788 0.056 17.64 2.79 13.09
12/7/2020 12:30:00 AM 2.64 36.752 0.056 17.64 2.68 13.09
12/7/2020 12:45:00 AM 2.62 36.716 0.056 17.65 2.68 13.09
12/7/2020 1:00:00 AM 2.61 36.698 0.056 17.65 2.74 13.1
12/7/2020 1:15:00 AM 2.59 36.662 0.056 17.65 2.7 13.11
12/7/2020 1:30:00 AM 2.58 36.644 0.056 17.65 2.87 13.11
12/7/2020 1:45:00 AM 2.56 36.608 0.056 17.65 2.67 13.11
12/7/2020 2:00:00 AM 2.55 36.59 0.056 17.65 2.69 13.12
12/7/2020 2:15:00 AM 2.54 36.572 0.056 17.65 2.73 13.12
12/7/2020 2:30:00 AM 2.52 36.536 0.056 17.65 2.8 13.13
12/7/2020 2:45:00 AM 2.51 36.518 0.056 17.65 2.74 13.13
12/7/2020 3:00:00 AM 2.49 36.482 0.056 17.65 2.77 13.13
12/7/2020 3:15:00 AM 2.48 36.464 0.056 17.65 2.82 13.14
12/7/2020 3:30:00 AM 2.46 36.428 0.056 17.65 2.72 13.14
12/7/2020 3:45:00 AM 2.45 36.41 0.056 17.65 2.79 13.15
12/7/2020 4:00:00 AM 2.44 36.392 0.056 17.65 2.65 13.15
12/7/2020 4:15:00 AM 2.43 36.374 0.056 17.65 2.68 13.16
12/7/2020 4:30:00 AM 2.42 36.356 0.056 17.65 2.69 13.16
12/7/2020 4:45:00 AM 2.4 36.32 0.056 17.65 2.72 13.17
12/7/2020 5:00:00 AM 2.39 36.302 0.056 17.65 2.63 13.17
12/7/2020 5:15:00 AM 2.38 36.284 0.056 17.66 2.73 13.17
12/7/2020 5:30:00 AM 2.36 36.248 0.056 17.66 2.68 13.18
12/7/2020 5:45:00 AM 2.35 36.23 0.056 17.66 2.71 13.19
12/7/2020 6:00:00 AM 2.34 36.212 0.056 17.66 2.66 13.19
12/7/2020 6:15:00 AM 2.34 36.212 0.056 17.66 2.65 13.19
12/7/2020 6:30:00 AM 2.32 36.176 0.056 17.66 2.59 13.2
12/7/2020 6:45:00 AM 2.31 36.158 0.056 17.66 2.65 13.2
12/7/2020 7:00:00 AM 2.3 36.14 0.056 17.66 2.67 13.2
12/7/2020 7:15:00 AM 2.29 36.122 0.056 17.66 2.77 13.2
12/7/2020 7:30:00 AM 2.29 36.122 0.056 17.66 2.65 13.21
12/7/2020 7:45:00 AM 2.28 36.104 0.056 17.66 2.7 13.23
12/7/2020 8:00:00 AM 2.27 36.086 0.056 17.66 2.66 13.26
12/7/2020 8:15:00 AM 2.25 36.05 0.056 17.66 2.64 13.31
12/7/2020 8:30:00 AM 2.25 36.05 0.056 17.66 2.66 13.37
12/7/2020 8:45:00 AM 2.24 36.032 0.056 17.66 2.62 13.42
12/7/2020 9:00:00 AM 2.25 36.05 0.056 17.66 2.57 13.5
12/7/2020 9:15:00 AM 2.27 36.086 0.056 17.66 2.58 13.59
12/7/2020 9:30:00 AM 2.29 36.122 0.056 17.66 2.59 13.68
12/7/2020 9:45:00 AM 2.31 36.158 0.056 17.66 2.62 13.73
12/7/2020 10:00:00 AM 2.34 36.212 0.056 17.66 2.62 13.78
12/7/2020 10:15:00 AM 2.37 36.266 0.056 17.66 2.74 13.82
12/7/2020 10:30:00 AM 2.41 36.338 0.055 17.65 2.64 13.84
12/7/2020 10:45:00 AM 2.46 36.428 0.055 17.65 2.64 13.86
12/7/2020 11:00:00 AM 2.51 36.518 0.055 17.65 2.6 13.86
12/7/2020 11:15:00 AM 2.54 36.572 0.055 17.65 2.56 13.86
12/7/2020 11:30:00 AM 2.59 36.662 0.055 17.65 2.56 13.86
12/7/2020 11:45:00 AM 2.64 36.752 0.055 17.65 2.6 13.85
12/7/2020 12:00:00 PM 2.68 36.824 0.055 17.64 2.56 13.84
12/7/2020 12:15:00 PM 2.73 36.914 0.055 17.64 2.59 13.84
12/7/2020 12:30:00 PM 2.8 37.04 0.055 17.64 2.62 13.83
12/7/2020 12:45:00 PM 2.86 37.148 0.055 17.64 2.58 13.81
12/7/2020 1:00:00 PM 2.9 37.22 0.055 17.64 2.64 13.79
12/7/2020 1:15:00 PM 2.93 37.274 0.055 17.63 2.54 13.78
12/7/2020 1:30:00 PM 2.94 37.292 0.055 17.63 2.51 13.76
12/7/2020 1:45:00 PM 2.95 37.31 0.055 17.63 2.53 13.74
12/7/2020 2:00:00 PM 2.94 37.292 0.055 17.63 2.59 13.73
12/7/2020 2:15:00 PM 2.96 37.328 0.054 17.63 2.59 13.71
12/7/2020 2:30:00 PM 2.99 37.382 0.055 17.63 2.51 13.69
12/7/2020 2:45:00 PM 3.03 37.454 0.055 17.63 2.58 13.68
12/7/2020 3:00:00 PM 3.05 37.49 0.054 17.63 2.54 13.66
12/7/2020 3:15:00 PM 3.02 37.436 0.054 17.63 2.53 13.64
12/7/2020 3:30:00 PM 2.98 37.364 0.054 17.63 2.53 13.62
12/7/2020 3:45:00 PM 2.94 37.292 0.054 17.63 2.53 13.58
12/7/2020 4:00:00 PM 2.89 37.202 0.055 17.64 2.57 13.56
12/7/2020 4:15:00 PM 2.85 37.13 0.055 17.64 2.55 13.51
12/7/2020 4:30:00 PM 2.81 37.058 0.055 17.64 2.59 13.45
12/7/2020 4:45:00 PM 2.78 37.004 0.055 17.64 2.53 13.39
12/7/2020 5:00:00 PM 2.73 36.914 0.055 17.64 2.59 13.32
12/7/2020 5:15:00 PM 2.7 36.86 0.055 17.64 2.62 13.26
12/7/2020 5:30:00 PM 2.67 36.806 0.055 17.64 2.75 13.21
12/7/2020 5:45:00 PM 2.62 36.716 0.055 17.65 2.81 13.18
12/7/2020 6:00:00 PM 2.58 36.644 0.055 17.65 2.87 13.16
12/7/2020 6:15:00 PM 2.52 36.536 0.055 17.65 2.85 13.16
12/7/2020 6:30:00 PM 2.47 36.446 0.055 17.65 2.79 13.16
12/7/2020 6:45:00 PM 2.42 36.356 0.055 17.65 2.66 13.15
12/7/2020 7:00:00 PM 2.38 36.284 0.056 17.66 2.64 13.16
12/7/2020 7:15:00 PM 2.33 36.194 0.056 17.66 2.64 13.17
12/7/2020 7:30:00 PM 2.28 36.104 0.056 17.66 2.63 13.18
12/7/2020 7:45:00 PM 2.22 35.996 0.056 17.66 2.71 13.19
12/7/2020 8:00:00 PM 2.17 35.906 0.056 17.66 2.64 13.21
12/7/2020 8:15:00 PM 2.11 35.798 0.056 17.67 2.63 13.23
12/7/2020 8:30:00 PM 2.06 35.708 0.056 17.67 2.62 13.25
12/7/2020 8:45:00 PM 2 35.6 0.056 17.67 2.59 13.28
12/7/2020 9:00:00 PM 1.94 35.492 0.056 17.67 2.56 13.3
12/7/2020 9:15:00 PM 1.89 35.402 0.056 17.67 2.54 13.32
12/7/2020 9:30:00 PM 1.83 35.294 0.056 17.68 2.57 13.35
12/7/2020 9:45:00 PM 1.78 35.204 0.056 17.68 2.6 13.37
12/7/2020 10:00:00 PM 1.74 35.132 0.056 17.68 2.56 13.38
12/7/2020 10:15:00 PM 1.69 35.042 0.056 17.68 2.62 13.4
12/7/2020 10:30:00 PM 1.65 34.97 0.056 17.68 2.58 13.43
12/7/2020 10:45:00 PM 1.61 34.898 0.056 17.68 2.52 13.44
12/7/2020 11:00:00 PM 1.59 34.862 0.056 17.69 2.6 13.46
12/7/2020 11:15:00 PM 1.57 34.826 0.056 17.69 2.62 13.47
12/7/2020 11:30:00 PM 1.56 34.808 0.056 17.69 2.53 13.49
12/7/2020 11:45:00 PM 1.54 34.772 0.056 17.69 2.55 13.5
12/8/2020 12:00:00 AM 1.53 34.754 0.056 17.69 2.56 13.51
12/8/2020 12:15:00 AM 1.52 34.736 0.056 17.69 2.56 13.52
12/8/2020 12:30:00 AM 1.51 34.718 0.056 17.69 2.68 13.52
12/8/2020 12:45:00 AM 1.51 34.718 0.056 17.69 2.52 13.53
12/8/2020 1:00:00 AM 1.5 34.7 0.056 17.69 2.49 13.53
12/8/2020 1:15:00 AM 1.5 34.7 0.056 17.69 2.63 13.53
12/8/2020 1:30:00 AM 1.49 34.682 0.056 17.69 2.55 13.53
12/8/2020 1:45:00 AM 1.48 34.664 0.056 17.69 2.61 13.54
12/8/2020 2:00:00 AM 1.47 34.646 0.056 17.69 2.64 13.55
12/8/2020 2:15:00 AM 1.47 34.646 0.056 17.69 2.59 13.54
12/8/2020 2:30:00 AM 1.45 34.61 0.056 17.69 2.58 13.55
12/8/2020 2:45:00 AM 1.42 34.556 0.056 17.69 2.71 13.56
12/8/2020 3:00:00 AM 1.4 34.52 0.056 17.69 2.6 13.57
12/8/2020 3:15:00 AM 1.39 34.502 0.056 17.69 2.53 13.57
12/8/2020 3:30:00 AM 1.38 34.484 0.056 17.69 2.59 13.58
12/8/2020 3:45:00 AM 1.37 34.466 0.057 17.69 2.54 13.58
12/8/2020 4:00:00 AM 1.35 34.43 0.057 17.7 2.62 13.59
12/8/2020 4:15:00 AM 1.32 34.376 0.057 17.7 2.72 13.6
12/8/2020 4:30:00 AM 1.3 34.34 0.056 17.7 2.61 13.61
12/8/2020 4:45:00 AM 1.27 34.286 0.056 17.7 2.57 13.62
12/8/2020 5:00:00 AM 1.25 34.25 0.056 17.7 2.94 13.62
12/8/2020 5:15:00 AM 1.23 34.214 0.056 17.7 2.6 13.63
12/8/2020 5:30:00 AM 1.21 34.178 0.056 17.7 2.58 13.64
12/8/2020 5:45:00 AM 1.18 34.124 0.056 17.7 2.66 13.65
12/8/2020 6:00:00 AM 1.16 34.088 0.056 17.7 2.57 13.66
12/8/2020 6:15:00 AM 1.13 34.034 0.056 17.7 2.57 13.67
12/8/2020 6:30:00 AM 1.1 33.98 0.056 17.7 2.58 13.68
12/8/2020 6:45:00 AM 1.07 33.926 0.056 17.71 2.57 13.69
12/8/2020 7:00:00 AM 1.03 33.854 0.056 17.71 2.53 13.7
12/8/2020 7:15:00 AM 1 33.8 0.056 17.71 2.59 13.72
12/8/2020 7:30:00 AM 0.97 33.746 0.056 17.71 2.57 13.74
12/8/2020 7:45:00 AM 0.95 33.71 0.056 17.71 2.54 13.77
12/8/2020 8:00:00 AM 0.92 33.656 0.056 17.71 2.53 13.83
12/8/2020 8:15:00 AM 0.91 33.638 0.056 17.71 2.59 13.91
12/8/2020 8:30:00 AM 0.91 33.638 0.056 17.71 2.55 13.98
12/8/2020 8:45:00 AM 0.92 33.656 0.056 17.71 2.58 14.06
12/8/2020 9:00:00 AM 0.92 33.656 0.056 17.71 2.58 14.13
12/8/2020 9:15:00 AM 0.94 33.692 0.056 17.71 2.58 14.18
12/8/2020 9:30:00 AM 0.96 33.728 0.056 17.71 2.53 14.23
12/8/2020 9:45:00 AM 1.01 33.818 0.056 17.71 2.59 14.27
12/8/2020 10:00:00 AM 1.06 33.908 0.056 17.71 2.56 14.29
12/8/2020 10:15:00 AM 1.12 34.016 0.055 17.7 2.51 14.31
12/8/2020 10:30:00 AM 1.21 34.178 0.055 17.7 2.5 14.31
12/8/2020 10:45:00 AM 1.31 34.358 0.055 17.7 2.52 14.31
12/8/2020 11:00:00 AM 1.4 34.52 0.055 17.69 2.52 14.3
12/8/2020 11:15:00 AM 1.52 34.736 0.055 17.69 2.52 14.29
12/8/2020 11:30:00 AM 1.64 34.952 0.055 17.68 2.54 14.25
12/8/2020 11:45:00 AM 1.76 35.168 0.055 17.68 2.47 14.22
12/8/2020 12:00:00 PM 1.87 35.366 0.055 17.67 2.58 14.2
12/8/2020 12:15:00 PM 1.96 35.528 0.055 17.67 2.49 14.16
12/8/2020 12:30:00 PM 2.05 35.69 0.055 17.67 2.48 14.13
12/8/2020 12:45:00 PM 2.13 35.834 0.055 17.66 2.46 14.1
12/8/2020 1:00:00 PM 2.2 35.96 0.055 17.66 2.4 14.06
12/8/2020 1:15:00 PM 2.25 36.05 0.055 17.66 2.45 14.03
12/8/2020 1:30:00 PM 2.3 36.14 0.055 17.66 2.42 14
12/8/2020 1:45:00 PM 2.33 36.194 0.055 17.66 2.48 13.98
12/8/2020 2:00:00 PM 2.36 36.248 0.055 17.66 2.43 13.94
12/8/2020 2:15:00 PM 2.38 36.284 0.054 17.66 2.47 13.91
12/8/2020 2:30:00 PM 2.38 36.284 0.055 17.66 2.41 13.89
12/8/2020 2:45:00 PM 2.36 36.248 0.054 17.66 2.43 13.86
12/8/2020 3:00:00 PM 2.36 36.248 0.055 17.66 2.41 13.83
12/8/2020 3:15:00 PM 2.33 36.194 0.055 17.66 2.43 13.82
12/8/2020 3:30:00 PM 2.3 36.14 0.055 17.66 2.43 13.8
12/8/2020 3:45:00 PM 2.26 36.068 0.055 17.66 2.41 13.77
12/8/2020 4:00:00 PM 2.21 35.978 0.055 17.66 2.47 13.74
12/8/2020 4:15:00 PM 2.16 35.888 0.055 17.66 2.41 13.72
12/8/2020 4:30:00 PM 2.12 35.816 0.055 17.67 2.54 13.69
12/8/2020 4:45:00 PM 2.09 35.762 0.055 17.67 2.41 13.63
12/8/2020 5:00:00 PM 2.07 35.726 0.055 17.67 2.44 13.57
12/8/2020 5:15:00 PM 2.06 35.708 0.055 17.67 2.47 13.52
12/8/2020 5:30:00 PM 2.06 35.708 0.055 17.67 2.56 13.47
12/8/2020 5:45:00 PM 2.06 35.708 0.055 17.67 2.49 13.44
12/8/2020 6:00:00 PM 2.06 35.708 0.055 17.67 2.49 13.41
12/8/2020 6:15:00 PM 2.06 35.708 0.055 17.67 2.54 13.39
12/8/2020 6:30:00 PM 2.07 35.726 0.055 17.67 2.52 13.38
12/8/2020 6:45:00 PM 2.06 35.708 0.055 17.67 2.51 13.36
12/8/2020 7:00:00 PM 2.05 35.69 0.055 17.67 2.51 13.36
12/8/2020 7:15:00 PM 2.05 35.69 0.055 17.67 2.48 13.35
12/8/2020 7:30:00 PM 2.05 35.69 0.055 17.67 2.49 13.35
12/8/2020 7:45:00 PM 2.04 35.672 0.055 17.67 2.53 13.35
12/8/2020 8:00:00 PM 2.04 35.672 0.055 17.67 2.54 13.35
12/8/2020 8:15:00 PM 2.03 35.654 0.055 17.67 2.46 13.34
12/8/2020 8:30:00 PM 2.02 35.636 0.056 17.67 2.68 13.35
12/8/2020 8:45:00 PM 2.01 35.618 0.056 17.67 2.46 13.36
12/8/2020 9:00:00 PM 1.99 35.582 0.056 17.67 2.48 13.36
12/8/2020 9:15:00 PM 1.98 35.564 0.056 17.67 2.46 13.37
12/8/2020 9:30:00 PM 1.96 35.528 0.056 17.67 2.48 13.38
12/8/2020 9:45:00 PM 1.95 35.51 0.056 17.67 2.48 13.39
12/8/2020 10:00:00 PM 1.92 35.456 0.056 17.67 2.46 13.4
12/8/2020 10:15:00 PM 1.91 35.438 0.056 17.67 2.47 13.4
12/8/2020 10:30:00 PM 1.9 35.42 0.056 17.67 2.45 13.41
12/8/2020 10:45:00 PM 1.89 35.402 0.056 17.67 2.5 13.41
12/8/2020 11:00:00 PM 1.88 35.384 0.056 17.67 2.51 13.41
12/8/2020 11:15:00 PM 1.88 35.384 0.056 17.67 2.46 13.42
12/8/2020 11:30:00 PM 1.88 35.384 0.056 17.67 2.48 13.41
12/8/2020 11:45:00 PM 1.87 35.366 0.056 17.67 2.52 13.42
12/9/2020 12:00:00 AM 1.86 35.348 0.056 17.68 2.61 13.42
12/9/2020 12:15:00 AM 1.85 35.33 0.056 17.68 2.51 13.41
12/9/2020 12:30:00 AM 1.84 35.312 0.056 17.68 2.5 13.42
12/9/2020 12:45:00 AM 1.84 35.312 0.056 17.68 2.57 13.42
12/9/2020 1:00:00 AM 1.83 35.294 0.056 17.68 2.44 13.42
12/9/2020 1:15:00 AM 1.83 35.294 0.056 17.68 2.48 13.42
12/9/2020 1:30:00 AM 1.83 35.294 0.056 17.68 2.5 13.42
12/9/2020 1:45:00 AM 1.83 35.294 0.056 17.68 2.57 13.41
12/9/2020 2:00:00 AM 1.82 35.276 0.056 17.68 2.62 13.41
12/9/2020 2:15:00 AM 1.82 35.276 0.056 17.68 2.46 13.41
12/9/2020 2:30:00 AM 1.82 35.276 0.056 17.68 2.6 13.4
12/9/2020 2:45:00 AM 1.82 35.276 0.056 17.68 2.5 13.4
12/9/2020 3:00:00 AM 1.81 35.258 0.056 17.68 2.52 13.4
12/9/2020 3:15:00 AM 1.81 35.258 0.056 17.68 2.54 13.4
12/9/2020 3:30:00 AM 1.8 35.24 0.056 17.68 2.54 13.4
12/9/2020 3:45:00 AM 1.8 35.24 0.056 17.68 2.59 13.4
12/9/2020 4:00:00 AM 1.8 35.24 0.056 17.68 2.52 13.4
12/9/2020 4:15:00 AM 1.8 35.24 0.056 17.68 2.5 13.39
12/9/2020 4:30:00 AM 1.81 35.258 0.056 17.68 2.53 13.4
12/9/2020 4:45:00 AM 1.81 35.258 0.056 17.68 2.5 13.38
12/9/2020 5:00:00 AM 1.82 35.276 0.056 17.68 2.5 13.38
12/9/2020 5:15:00 AM 1.82 35.276 0.056 17.68 2.51 13.39
12/9/2020 5:30:00 AM 1.82 35.276 0.056 17.68 2.4 13.38
12/9/2020 5:45:00 AM 1.82 35.276 0.056 17.68 2.52 13.38
12/9/2020 6:00:00 AM 1.82 35.276 0.056 17.68 2.47 13.38
12/9/2020 6:15:00 AM 1.82 35.276 0.056 17.68 2.51 13.37
12/9/2020 6:30:00 AM 1.82 35.276 0.056 17.68 2.46 13.37
12/9/2020 6:45:00 AM 1.82 35.276 0.056 17.68 2.55 13.38
12/9/2020 7:00:00 AM 1.81 35.258 0.056 17.68 2.5 13.38
12/9/2020 7:15:00 AM 1.81 35.258 0.056 17.68 2.46 13.37
12/9/2020 7:30:00 AM 1.81 35.258 0.056 17.68 2.41 13.38
12/9/2020 7:45:00 AM 1.81 35.258 0.056 17.68 2.46 13.38
12/9/2020 8:00:00 AM 1.8 35.24 0.056 17.68 2.33 13.4
12/9/2020 8:15:00 AM 1.8 35.24 0.056 17.68 2.43 13.42
12/9/2020 8:30:00 AM 1.81 35.258 0.056 17.68 2.48 13.44
12/9/2020 8:45:00 AM 1.81 35.258 0.056 17.68 2.36 13.47
12/9/2020 9:00:00 AM 1.82 35.276 0.056 17.68 2.4 13.52
12/9/2020 9:15:00 AM 1.84 35.312 0.056 17.68 2.41 13.61
12/9/2020 9:30:00 AM 1.88 35.384 0.056 17.67 2.45 13.69
12/9/2020 9:45:00 AM 1.91 35.438 0.055 17.67 2.37 13.76
12/9/2020 10:00:00 AM 1.93 35.474 0.056 17.67 2.41 13.78
12/9/2020 10:15:00 AM 1.93 35.474 0.055 17.67 2.43 13.77
12/9/2020 10:30:00 AM 1.94 35.492 0.055 17.67 2.47 13.77
12/9/2020 10:45:00 AM 1.95 35.51 0.055 17.67 2.39 13.75
12/9/2020 11:00:00 AM 1.96 35.528 0.055 17.67 2.45 13.76
12/9/2020 11:15:00 AM 1.98 35.564 0.055 17.67 2.36 13.77
12/9/2020 11:30:00 AM 2 35.6 0.055 17.67 2.37 13.77
12/9/2020 11:45:00 AM 2.01 35.618 0.055 17.67 2.48 13.76
12/9/2020 12:00:00 PM 2.03 35.654 0.055 17.67 2.32 13.76
12/9/2020 12:15:00 PM 2.05 35.69 0.055 17.67 2.35 13.76
12/9/2020 12:30:00 PM 2.07 35.726 0.055 17.67 2.4 13.76
12/9/2020 12:45:00 PM 2.08 35.744 0.055 17.67 2.33 13.75
12/9/2020 1:00:00 PM 2.1 35.78 0.055 17.67 2.45 13.74
12/9/2020 1:15:00 PM 2.11 35.798 0.055 17.67 2.31 13.72
12/9/2020 1:30:00 PM 2.13 35.834 0.055 17.66 2.34 13.7
12/9/2020 1:45:00 PM 2.15 35.87 0.055 17.66 2.32 13.69
12/9/2020 2:00:00 PM 2.16 35.888 0.055 17.66 2.34 13.68
12/9/2020 2:15:00 PM 2.18 35.924 0.055 17.66 2.35 13.66
12/9/2020 2:30:00 PM 2.2 35.96 0.055 17.66 2.35 13.64
12/9/2020 2:45:00 PM 2.22 35.996 0.055 17.66 2.36 13.62
12/9/2020 3:00:00 PM 2.23 36.014 0.055 17.66 2.3 13.61
12/9/2020 3:15:00 PM 2.25 36.05 0.055 17.66 2.29 13.58
12/9/2020 3:30:00 PM 2.26 36.068 0.055 17.66 2.31 13.56
12/9/2020 3:45:00 PM 2.28 36.104 0.055 17.66 2.64 13.52
12/9/2020 4:00:00 PM 2.29 36.122 0.055 17.66 2.35 13.48
12/9/2020 4:15:00 PM 2.3 36.14 0.055 17.66 2.31 13.43
12/9/2020 4:30:00 PM 2.31 36.158 0.055 17.66 2.32 13.39
12/9/2020 4:45:00 PM 2.32 36.176 0.055 17.66 2.35 13.35
12/9/2020 5:00:00 PM 2.33 36.194 0.055 17.66 2.29 13.31
12/9/2020 5:15:00 PM 2.34 36.212 0.055 17.66 2.28 13.28
12/9/2020 5:30:00 PM 2.35 36.23 0.055 17.66 2.3 13.25
12/9/2020 5:45:00 PM 2.36 36.248 0.055 17.66 2.37 13.23
12/9/2020 6:00:00 PM 2.37 36.266 0.055 17.66 2.32 13.21
12/9/2020 6:15:00 PM 2.38 36.284 0.055 17.66 2.34 13.2
12/9/2020 6:30:00 PM 2.38 36.284 0.055 17.65 2.34 13.19
12/9/2020 6:45:00 PM 2.39 36.302 0.055 17.65 2.36 13.18
12/9/2020 7:00:00 PM 2.4 36.32 0.055 17.65 2.61 13.17
12/9/2020 7:15:00 PM 2.4 36.32 0.055 17.65 2.85 13.16
12/9/2020 7:30:00 PM 2.41 36.338 0.055 17.65 2.35 13.16
12/9/2020 7:45:00 PM 2.42 36.356 0.055 17.65 2.39 13.15
12/9/2020 8:00:00 PM 2.43 36.374 0.055 17.65 2.4 13.15
12/9/2020 8:15:00 PM 2.44 36.392 0.056 17.65 2.43 13.15
12/9/2020 8:30:00 PM 2.44 36.392 0.055 17.65 2.4 13.15
12/9/2020 8:45:00 PM 2.46 36.428 0.056 17.65 2.44 13.15
12/9/2020 9:00:00 PM 2.46 36.428 0.056 17.65 2.37 13.14
12/9/2020 9:15:00 PM 2.47 36.446 0.056 17.65 2.43 13.14
12/9/2020 9:30:00 PM 2.48 36.464 0.056 17.65 2.41 13.14
12/9/2020 9:45:00 PM 2.49 36.482 0.056 17.65 2.44 13.14
12/9/2020 10:00:00 PM 2.5 36.5 0.056 17.65 2.38 13.13
12/9/2020 10:15:00 PM 2.51 36.518 0.056 17.65 2.4 13.13
12/9/2020 10:30:00 PM 2.52 36.536 0.056 17.65 2.34 13.13
12/9/2020 10:45:00 PM 2.53 36.554 0.056 17.65 2.43 13.13
12/9/2020 11:00:00 PM 2.54 36.572 0.056 17.65 2.39 13.13
12/9/2020 11:15:00 PM 2.55 36.59 0.056 17.65 2.43 13.12
12/9/2020 11:30:00 PM 2.56 36.608 0.056 17.65 2.46 13.12
12/9/2020 11:45:00 PM 2.57 36.626 0.056 17.65 2.34 13.12
12/10/2020 12:00:00 AM 2.57 36.626 0.056 17.65 2.4 13.12
12/10/2020 12:15:00 AM 2.56 36.608 0.056 17.65 2.41 13.11
12/10/2020 12:30:00 AM 2.57 36.626 0.056 17.65 2.4 13.12
12/10/2020 12:45:00 AM 2.58 36.644 0.056 17.65 2.47 13.11
12/10/2020 1:00:00 AM 2.59 36.662 0.056 17.65 2.36 13.11
12/10/2020 1:15:00 AM 2.6 36.68 0.056 17.65 2.37 13.11
12/10/2020 1:30:00 AM 2.61 36.698 0.056 17.65 2.34 13.11
12/10/2020 1:45:00 AM 2.61 36.698 0.056 17.65 2.37 13.11
12/10/2020 2:00:00 AM 2.61 36.698 0.056 17.65 2.34 13.11
12/10/2020 2:15:00 AM 2.61 36.698 0.056 17.65 2.37 13.11
12/10/2020 2:30:00 AM 2.62 36.716 0.056 17.65 2.42 13.11
12/10/2020 2:45:00 AM 2.62 36.716 0.056 17.65 2.39 13.11
12/10/2020 3:00:00 AM 2.63 36.734 0.056 17.65 2.39 13.11
12/10/2020 3:15:00 AM 2.63 36.734 0.056 17.65 2.39 13.11
12/10/2020 3:30:00 AM 2.64 36.752 0.056 17.65 2.4 13.11
12/10/2020 3:45:00 AM 2.64 36.752 0.056 17.65 2.32 13.11
12/10/2020 4:00:00 AM 2.63 36.734 0.056 17.65 2.36 13.11
12/10/2020 4:15:00 AM 2.63 36.734 0.056 17.65 2.37 13.12
12/10/2020 4:30:00 AM 2.63 36.734 0.056 17.65 2.4 13.13
12/10/2020 4:45:00 AM 2.63 36.734 0.056 17.65 2.33 13.12
12/10/2020 5:00:00 AM 2.64 36.752 0.056 17.65 2.39 13.12
12/10/2020 5:15:00 AM 2.65 36.77 0.056 17.64 2.39 13.12
12/10/2020 5:30:00 AM 2.65 36.77 0.056 17.64 2.47 13.12
12/10/2020 5:45:00 AM 2.66 36.788 0.056 17.64 2.33 13.13
12/10/2020 6:00:00 AM 2.67 36.806 0.056 17.64 2.29 13.12
12/10/2020 6:15:00 AM 2.68 36.824 0.056 17.64 2.41 13.12
12/10/2020 6:30:00 AM 2.69 36.842 0.056 17.64 2.42 13.12
12/10/2020 6:45:00 AM 2.69 36.842 0.056 17.64 2.37 13.12
12/10/2020 7:00:00 AM 2.7 36.86 0.056 17.64 2.56 13.12
12/10/2020 7:15:00 AM 2.71 36.878 0.056 17.64 2.34 13.11
12/10/2020 7:30:00 AM 2.73 36.914 0.056 17.64 2.37 13.12
12/10/2020 7:45:00 AM 2.74 36.932 0.056 17.64 2.29 13.13
12/10/2020 8:00:00 AM 2.75 36.95 0.056 17.64 2.3 13.14
12/10/2020 8:15:00 AM 2.76 36.968 0.056 17.64 2.32 13.19
12/10/2020 8:30:00 AM 2.78 37.004 0.056 17.64 2.33 13.22
12/10/2020 8:45:00 AM 2.8 37.04 0.056 17.64 2.33 13.28
12/10/2020 9:00:00 AM 2.82 37.076 0.055 17.64 2.32 13.34
12/10/2020 9:15:00 AM 2.86 37.148 0.056 17.64 2.38 13.41
12/10/2020 9:30:00 AM 2.89 37.202 0.055 17.64 2.29 13.47
12/10/2020 9:45:00 AM 2.93 37.274 0.055 17.63 2.38 13.53
12/10/2020 10:00:00 AM 2.97 37.346 0.055 17.63 2.34 13.57
12/10/2020 10:15:00 AM 3.01 37.418 0.055 17.63 2.36 13.61
12/10/2020 10:30:00 AM 3.05 37.49 0.055 17.63 2.32 13.64
12/10/2020 10:45:00 AM 3.09 37.562 0.055 17.63 2.31 13.67
12/10/2020 11:00:00 AM 3.13 37.634 0.055 17.63 2.32 13.69
12/10/2020 11:15:00 AM 3.18 37.724 0.055 17.62 2.31 13.7
12/10/2020 11:30:00 AM 3.22 37.796 0.055 17.62 2.37 13.71
12/10/2020 11:45:00 AM 3.27 37.886 0.055 17.62 2.62 13.71
12/10/2020 12:00:00 PM 3.33 37.994 0.054 17.62 2.35 13.72
12/10/2020 12:15:00 PM 3.39 38.102 0.054 17.62 2.28 13.72
12/10/2020 12:30:00 PM 3.45 38.21 0.054 17.61 2.29 13.71
12/10/2020 12:45:00 PM 3.5 38.3 0.054 17.61 2.32 13.7
12/10/2020 1:00:00 PM 3.56 38.408 0.054 17.61 2.32 13.69
12/10/2020 1:15:00 PM 3.62 38.516 0.054 17.61 2.32 13.69
12/10/2020 1:30:00 PM 3.68 38.624 0.054 17.6 2.34 13.68
12/10/2020 1:45:00 PM 3.74 38.732 0.054 17.6 2.45 13.66
12/10/2020 2:00:00 PM 3.8 38.84 0.054 17.6 2.31 13.64
12/10/2020 2:15:00 PM 3.84 38.912 0.054 17.6 2.26 13.62
12/10/2020 2:30:00 PM 3.89 39.002 0.054 17.6 2.34 13.6
12/10/2020 2:45:00 PM 3.91 39.038 0.054 17.6 2.33 13.59
12/10/2020 3:00:00 PM 3.91 39.038 0.054 17.6 2.3 13.56
12/10/2020 3:15:00 PM 3.89 39.002 0.054 17.6 2.29 13.53
12/10/2020 3:30:00 PM 3.86 38.948 0.054 17.6 2.26 13.48
12/10/2020 3:45:00 PM 3.83 38.894 0.054 17.6 2.32 13.44
12/10/2020 4:00:00 PM 3.8 38.84 0.054 17.6 2.33 13.4
12/10/2020 4:15:00 PM 3.76 38.768 0.054 17.6 2.34 13.35
12/10/2020 4:30:00 PM 3.71 38.678 0.054 17.6 2.41 13.28
12/10/2020 4:45:00 PM 3.65 38.57 0.054 17.61 2.3 13.21
12/10/2020 5:00:00 PM 3.59 38.462 0.054 17.61 2.29 13.13
12/10/2020 5:15:00 PM 3.53 38.354 0.055 17.61 2.29 13.08
12/10/2020 5:30:00 PM 3.48 38.264 0.055 17.61 2.37 13.02
12/10/2020 5:45:00 PM 3.43 38.174 0.055 17.61 2.33 12.99
12/10/2020 6:00:00 PM 3.38 38.084 0.055 17.62 2.33 12.97
12/10/2020 6:15:00 PM 3.34 38.012 0.055 17.62 2.59 12.95
12/10/2020 6:30:00 PM 3.3 37.94 0.055 17.62 2.45 12.95
12/10/2020 6:45:00 PM 3.25 37.85 0.055 17.62 2.32 12.95
12/10/2020 7:00:00 PM 3.2 37.76 0.055 17.62 2.42 12.95
12/10/2020 7:15:00 PM 3.14 37.652 0.055 17.63 2.43 12.96
12/10/2020 7:30:00 PM 3.09 37.562 0.055 17.63 2.38 12.97
12/10/2020 7:45:00 PM 3.04 37.472 0.055 17.63 2.39 12.98
12/10/2020 8:00:00 PM 2.99 37.382 0.055 17.63 2.41 12.99
12/10/2020 8:15:00 PM 2.94 37.292 0.055 17.63 2.4 13
12/10/2020 8:30:00 PM 2.89 37.202 0.055 17.64 2.44 13.02
12/10/2020 8:45:00 PM 2.84 37.112 0.055 17.64 2.36 13.04
12/10/2020 9:00:00 PM 2.79 37.022 0.055 17.64 2.52 13.06
12/10/2020 9:15:00 PM 2.74 36.932 0.055 17.64 2.43 13.07
12/10/2020 9:30:00 PM 2.69 36.842 0.055 17.64 2.37 13.09
12/10/2020 9:45:00 PM 2.64 36.752 0.055 17.65 2.43 13.11
12/10/2020 10:00:00 PM 2.59 36.662 0.055 17.65 2.45 13.13
12/10/2020 10:15:00 PM 2.53 36.554 0.055 17.65 2.41 13.15
12/10/2020 10:30:00 PM 2.48 36.464 0.056 17.65 2.45 13.17
12/10/2020 10:45:00 PM 2.43 36.374 0.055 17.65 2.49 13.19
12/10/2020 11:00:00 PM 2.39 36.302 0.055 17.65 2.44 13.21
12/10/2020 11:15:00 PM 2.35 36.23 0.055 17.66 2.46 13.22
12/10/2020 11:30:00 PM 2.33 36.194 0.056 17.66 2.41 13.24
12/10/2020 11:45:00 PM 2.31 36.158 0.055 17.66 2.44 13.26
12/11/2020 12:00:00 AM 2.3 36.14 0.056 17.66 2.4 13.26
12/11/2020 12:15:00 AM 2.29 36.122 0.056 17.66 2.37 13.27
12/11/2020 12:30:00 AM 2.27 36.086 0.056 17.66 2.51 13.28
12/11/2020 12:45:00 AM 2.25 36.05 0.056 17.66 2.33 13.29
12/11/2020 1:00:00 AM 2.23 36.014 0.056 17.66 2.34 13.3
12/11/2020 1:15:00 AM 2.21 35.978 0.056 17.66 2.41 13.31
12/11/2020 1:30:00 AM 2.2 35.96 0.056 17.66 2.43 13.32
12/11/2020 1:45:00 AM 2.18 35.924 0.056 17.66 2.38 13.33
12/11/2020 2:00:00 AM 2.17 35.906 0.056 17.66 2.41 13.33
12/11/2020 2:15:00 AM 2.15 35.87 0.056 17.66 2.39 13.34
12/11/2020 2:30:00 AM 2.14 35.852 0.056 17.66 2.45 13.35
12/11/2020 2:45:00 AM 2.12 35.816 0.056 17.67 2.38 13.35
12/11/2020 3:00:00 AM 2.1 35.78 0.056 17.67 2.46 13.36
12/11/2020 3:15:00 AM 2.09 35.762 0.056 17.67 2.46 13.37
12/11/2020 3:30:00 AM 2.07 35.726 0.056 17.67 2.4 13.37
12/11/2020 3:45:00 AM 2.05 35.69 0.056 17.67 2.44 13.38
12/11/2020 4:00:00 AM 2.02 35.636 0.056 17.67 2.47 13.39
12/11/2020 4:15:00 AM 2 35.6 0.056 17.67 2.45 13.4
12/11/2020 4:30:00 AM 1.98 35.564 0.056 17.67 2.42 13.41
12/11/2020 4:45:00 AM 1.96 35.528 0.056 17.67 2.42 13.42
12/11/2020 5:00:00 AM 1.94 35.492 0.056 17.67 2.39 13.43
12/11/2020 5:15:00 AM 1.92 35.456 0.056 17.67 2.41 13.44
12/11/2020 5:30:00 AM 1.9 35.42 0.056 17.67 2.36 13.45
12/11/2020 5:45:00 AM 1.88 35.384 0.056 17.67 2.42 13.45
12/11/2020 6:00:00 AM 1.85 35.33 0.056 17.68 2.43 13.46
12/11/2020 6:15:00 AM 1.82 35.276 0.056 17.68 2.45 13.48
12/11/2020 6:30:00 AM 1.79 35.222 0.056 17.68 2.39 13.49
12/11/2020 6:45:00 AM 1.76 35.168 0.056 17.68 2.52 13.51
12/11/2020 7:00:00 AM 1.72 35.096 0.056 17.68 2.42 13.52
12/11/2020 7:15:00 AM 1.69 35.042 0.056 17.68 2.51 13.54
12/11/2020 7:30:00 AM 1.65 34.97 0.056 17.68 2.48 13.56
12/11/2020 7:45:00 AM 1.62 34.916 0.056 17.68 2.48 13.6
12/11/2020 8:00:00 AM 1.59 34.862 0.056 17.69 2.5 13.68
12/11/2020 8:15:00 AM 1.57 34.826 0.056 17.69 2.49 13.77
12/11/2020 8:30:00 AM 1.55 34.79 0.056 17.69 2.4 13.87
12/11/2020 8:45:00 AM 1.52 34.736 0.056 17.69 2.42 13.96
12/11/2020 9:00:00 AM 1.52 34.736 0.056 17.69 2.39 14.04
12/11/2020 9:15:00 AM 1.54 34.772 0.056 17.69 2.45 14.12
12/11/2020 9:30:00 AM 1.58 34.844 0.055 17.69 2.35 14.18
12/11/2020 9:45:00 AM 1.61 34.898 0.055 17.68 2.38 14.23
12/11/2020 10:00:00 AM 1.64 34.952 0.055 17.68 2.37 14.26
12/11/2020 10:15:00 AM 1.67 35.006 0.055 17.68 2.46 14.27
12/11/2020 10:30:00 AM 1.7 35.06 0.055 17.68 2.37 14.29
12/11/2020 10:45:00 AM 1.75 35.15 0.055 17.68 2.36 14.29
12/11/2020 11:00:00 AM 1.83 35.294 0.055 17.68 2.3 14.29
12/11/2020 11:15:00 AM 1.93 35.474 0.055 17.67 2.33 14.28
12/11/2020 11:30:00 AM 2.04 35.672 0.055 17.67 2.35 14.27
12/11/2020 11:45:00 AM 2.15 35.87 0.055 17.66 2.31 14.25
12/11/2020 12:00:00 PM 2.25 36.05 0.054 17.66 2.39 14.21
12/11/2020 12:15:00 PM 2.34 36.212 0.054 17.66 2.35 14.19
12/11/2020 12:30:00 PM 2.45 36.41 0.054 17.65 2.35 14.15
12/11/2020 12:45:00 PM 2.55 36.59 0.054 17.65 2.27 14.13
12/11/2020 1:00:00 PM 2.63 36.734 0.054 17.65 2.37 14.09
12/11/2020 1:15:00 PM 2.71 36.878 0.054 17.64 2.33 14.06
12/11/2020 1:30:00 PM 2.78 37.004 0.054 17.64 2.32 14.03
12/11/2020 1:45:00 PM 2.85 37.13 0.054 17.64 2.32 14
12/11/2020 2:00:00 PM 2.88 37.184 0.054 17.64 2.29 13.97
12/11/2020 2:15:00 PM 2.9 37.22 0.054 17.64 2.31 13.93
12/11/2020 2:30:00 PM 2.92 37.256 0.054 17.63 2.31 13.91
12/11/2020 2:45:00 PM 2.94 37.292 0.054 17.63 2.32 13.89
12/11/2020 3:00:00 PM 2.96 37.328 0.054 17.63 2.32 13.85
12/11/2020 3:15:00 PM 2.97 37.346 0.054 17.63 2.33 13.81
12/11/2020 3:30:00 PM 2.99 37.382 0.054 17.63 2.33 13.77
12/11/2020 3:45:00 PM 3.02 37.436 0.054 17.63 2.24 13.74
12/11/2020 4:00:00 PM 3.01 37.418 0.054 17.63 2.27 13.72
12/11/2020 4:15:00 PM 3 37.4 0.054 17.63 2.29 13.67
12/11/2020 4:30:00 PM 2.97 37.346 0.054 17.63 2.28 13.59
12/11/2020 4:45:00 PM 2.93 37.274 0.055 17.63 2.28 13.5
12/11/2020 5:00:00 PM 2.89 37.202 0.055 17.64 2.22 13.41
12/11/2020 5:15:00 PM 2.85 37.13 0.055 17.64 2.28 13.33
12/11/2020 5:30:00 PM 2.81 37.058 0.055 17.64 2.25 13.28
12/11/2020 5:45:00 PM 2.78 37.004 0.055 17.64 2.3 13.24
12/11/2020 6:00:00 PM 2.74 36.932 0.055 17.64 2.34 13.21
12/11/2020 6:15:00 PM 2.72 36.896 0.055 17.64 2.32 13.19
12/11/2020 6:30:00 PM 2.71 36.878 0.055 17.64 2.36 13.17
12/11/2020 6:45:00 PM 2.7 36.86 0.055 17.64 2.33 13.15
12/11/2020 7:00:00 PM 2.69 36.842 0.055 17.64 2.37 13.15
12/11/2020 7:15:00 PM 2.67 36.806 0.055 17.64 2.41 13.14
12/11/2020 7:30:00 PM 2.65 36.77 0.055 17.64 2.39 13.15
12/11/2020 7:45:00 PM 2.62 36.716 0.055 17.65 2.39 13.15
12/11/2020 8:00:00 PM 2.58 36.644 0.056 17.65 2.3 13.15
12/11/2020 8:15:00 PM 2.53 36.554 0.056 17.65 2.32 13.16
12/11/2020 8:30:00 PM 2.49 36.482 0.056 17.65 2.35 13.17
12/11/2020 8:45:00 PM 2.45 36.41 0.055 17.65 2.36 13.18
12/11/2020 9:00:00 PM 2.42 36.356 0.056 17.65 2.32 13.19
12/11/2020 9:15:00 PM 2.38 36.284 0.056 17.66 2.33 13.2
12/11/2020 9:30:00 PM 2.34 36.212 0.056 17.66 2.35 13.22
12/11/2020 9:45:00 PM 2.31 36.158 0.056 17.66 2.32 13.23
12/11/2020 10:00:00 PM 2.27 36.086 0.056 17.66 2.35 13.24
12/11/2020 10:15:00 PM 2.23 36.014 0.056 17.66 2.32 13.25
12/11/2020 10:30:00 PM 2.21 35.978 0.056 17.66 2.32 13.27
12/11/2020 10:45:00 PM 2.18 35.924 0.056 17.66 2.32 13.29
12/11/2020 11:00:00 PM 2.15 35.87 0.056 17.66 2.32 13.29
12/11/2020 11:15:00 PM 2.13 35.834 0.056 17.66 2.3 13.31
12/11/2020 11:30:00 PM 2.11 35.798 0.056 17.67 2.3 13.32
12/11/2020 11:45:00 PM 2.09 35.762 0.056 17.67 2.29 13.33
12/12/2020 12:00:00 AM 2.07 35.726 0.056 17.67 2.39 13.34
12/12/2020 12:15:00 AM 2.04 35.672 0.056 17.67 2.34 13.36
12/12/2020 12:30:00 AM 2.01 35.618 0.056 17.67 2.31 13.37
12/12/2020 12:45:00 AM 1.99 35.582 0.056 17.67 2.27 13.38
12/12/2020 1:00:00 AM 1.96 35.528 0.056 17.67 2.31 13.39
12/12/2020 1:15:00 AM 1.95 35.51 0.056 17.67 2.32 13.4
12/12/2020 1:30:00 AM 1.93 35.474 0.056 17.67 2.27 13.41
12/12/2020 1:45:00 AM 1.91 35.438 0.056 17.67 2.3 13.41
12/12/2020 2:00:00 AM 1.89 35.402 0.056 17.67 2.31 13.42
12/12/2020 2:15:00 AM 1.86 35.348 0.056 17.68 2.32 13.43
12/12/2020 2:30:00 AM 1.84 35.312 0.056 17.68 2.36 13.44
12/12/2020 2:45:00 AM 1.83 35.294 0.056 17.68 2.3 13.45
12/12/2020 3:00:00 AM 1.82 35.276 0.056 17.68 2.31 13.46
12/12/2020 3:15:00 AM 1.8 35.24 0.057 17.68 2.34 13.45
12/12/2020 3:30:00 AM 1.77 35.186 0.057 17.68 2.42 13.47
12/12/2020 3:45:00 AM 1.74 35.132 0.057 17.68 2.36 13.48
12/12/2020 4:00:00 AM 1.72 35.096 0.057 17.68 2.35 13.49
12/12/2020 4:15:00 AM 1.71 35.078 0.057 17.68 2.36 13.49
12/12/2020 4:30:00 AM 1.71 35.078 0.057 17.68 2.35 13.5
12/12/2020 4:45:00 AM 1.71 35.078 0.057 17.68 2.36 13.5
12/12/2020 5:00:00 AM 1.71 35.078 0.057 17.68 2.38 13.5
12/12/2020 5:15:00 AM 1.7 35.06 0.057 17.68 2.31 13.51
12/12/2020 5:30:00 AM 1.69 35.042 0.057 17.68 2.31 13.52
12/12/2020 5:45:00 AM 1.69 35.042 0.057 17.68 2.35 13.51
12/12/2020 6:00:00 AM 1.68 35.024 0.056 17.68 2.36 13.52
12/12/2020 6:15:00 AM 1.68 35.024 0.056 17.68 2.4 13.52
12/12/2020 6:30:00 AM 1.68 35.024 0.056 17.68 2.31 13.53
12/12/2020 6:45:00 AM 1.68 35.024 0.057 17.68 2.35 13.51
12/12/2020 7:00:00 AM 1.68 35.024 0.057 17.68 2.34 13.51
12/12/2020 7:15:00 AM 1.68 35.024 0.056 17.68 2.37 13.52
12/12/2020 7:30:00 AM 1.69 35.042 0.056 17.68 2.37 13.52
12/12/2020 7:45:00 AM 1.7 35.06 0.056 17.68 2.36 13.53
12/12/2020 8:00:00 AM 1.7 35.06 0.056 17.68 2.37 13.55
12/12/2020 8:15:00 AM 1.71 35.078 0.056 17.68 2.35 13.6
12/12/2020 8:30:00 AM 1.73 35.114 0.056 17.68 2.33 13.67
12/12/2020 8:45:00 AM 1.76 35.168 0.056 17.68 2.31 13.74
12/12/2020 9:00:00 AM 1.8 35.24 0.056 17.68 2.28 13.83
12/12/2020 9:15:00 AM 1.85 35.33 0.056 17.68 2.27 13.9
12/12/2020 9:30:00 AM 1.89 35.402 0.056 17.67 2.31 13.95
12/12/2020 9:45:00 AM 1.95 35.51 0.056 17.67 2.31 13.99
12/12/2020 10:00:00 AM 2.02 35.636 0.055 17.67 2.34 14.03
12/12/2020 10:15:00 AM 2.08 35.744 0.056 17.67 2.29 14.05
12/12/2020 10:30:00 AM 2.14 35.852 0.055 17.66 2.31 14.07
12/12/2020 10:45:00 AM 2.21 35.978 0.055 17.66 2.25 14.07
12/12/2020 11:00:00 AM 2.3 36.14 0.055 17.66 2.3 14.07
12/12/2020 11:15:00 AM 2.38 36.284 0.055 17.66 2.36 14.06
12/12/2020 11:30:00 AM 2.47 36.446 0.055 17.65 2.29 14.06
12/12/2020 11:45:00 AM 2.56 36.608 0.055 17.65 2.28 14.04
12/12/2020 12:00:00 PM 2.66 36.788 0.055 17.64 2.29 14.02
12/12/2020 12:15:00 PM 2.77 36.986 0.055 17.64 2.27 14
12/12/2020 12:30:00 PM 2.89 37.202 0.055 17.64 2.29 13.97
12/12/2020 12:45:00 PM 3.01 37.418 0.054 17.63 2.28 13.93
12/12/2020 1:00:00 PM 3.12 37.616 0.054 17.63 2.31 13.87
12/12/2020 1:15:00 PM 3.25 37.85 0.055 17.62 2.27 13.83
12/12/2020 1:30:00 PM 3.35 38.03 0.054 17.62 2.27 13.77
12/12/2020 1:45:00 PM 3.48 38.264 0.054 17.61 2.25 13.72
12/12/2020 2:00:00 PM 3.57 38.426 0.054 17.61 2.29 13.67
12/12/2020 2:15:00 PM 3.62 38.516 0.054 17.61 2.24 13.57
12/12/2020 2:30:00 PM 3.65 38.57 0.054 17.61 2.31 13.52
12/12/2020 2:45:00 PM 3.68 38.624 0.054 17.6 2.33 13.48
12/12/2020 3:00:00 PM 3.71 38.678 0.055 17.6 2.29 13.44
12/12/2020 3:15:00 PM 3.74 38.732 0.054 17.6 2.28 13.41
12/12/2020 3:30:00 PM 3.77 38.786 0.054 17.6 2.26 13.33
12/12/2020 3:45:00 PM 3.78 38.804 0.055 17.6 2.25 13.23
12/12/2020 4:00:00 PM 3.78 38.804 0.054 17.6 2.26 13.15
12/12/2020 4:15:00 PM 3.79 38.822 0.055 17.6 2.29 13.08
12/12/2020 4:30:00 PM 3.79 38.822 0.055 17.6 2.26 13
12/12/2020 4:45:00 PM 3.8 38.84 0.055 17.6 2.27 12.93
12/12/2020 5:00:00 PM 3.81 38.858 0.055 17.6 2.39 12.86
12/12/2020 5:15:00 PM 3.84 38.912 0.055 17.6 2.3 12.8
12/12/2020 5:30:00 PM 3.86 38.948 0.055 17.6 2.35 12.74
12/12/2020 5:45:00 PM 3.89 39.002 0.055 17.6 2.29 12.7
12/12/2020 6:00:00 PM 3.91 39.038 0.055 17.6 2.3 12.66
12/12/2020 6:15:00 PM 3.93 39.074 0.055 17.6 2.33 12.63
12/12/2020 6:30:00 PM 3.94 39.092 0.055 17.59 2.32 12.61
12/12/2020 6:45:00 PM 3.96 39.128 0.056 17.59 2.3 12.59
12/12/2020 7:00:00 PM 3.97 39.146 0.055 17.59 2.34 12.57
12/12/2020 7:15:00 PM 3.97 39.146 0.056 17.59 2.31 12.56
12/12/2020 7:30:00 PM 3.97 39.146 0.056 17.59 2.33 12.55
12/12/2020 7:45:00 PM 3.97 39.146 0.056 17.59 2.44 12.54
12/12/2020 8:00:00 PM 3.97 39.146 0.056 17.59 2.34 12.54
12/12/2020 8:15:00 PM 3.98 39.164 0.056 17.59 2.36 12.53
12/12/2020 8:30:00 PM 4 39.2 0.056 17.59 2.34 12.53
12/12/2020 8:45:00 PM 4.01 39.218 0.056 17.59 2.28 12.52
12/12/2020 9:00:00 PM 4.03 39.254 0.056 17.59 2.32 12.51
12/12/2020 9:15:00 PM 4.04 39.272 0.056 17.59 2.33 12.49
12/12/2020 9:30:00 PM 4.06 39.308 0.056 17.59 2.38 12.49
12/12/2020 9:45:00 PM 4.07 39.326 0.056 17.59 2.36 12.5
12/12/2020 10:00:00 PM 4.08 39.344 0.056 17.59 2.39 12.49
12/12/2020 10:15:00 PM 4.09 39.362 0.056 17.59 2.41 12.48
12/12/2020 10:30:00 PM 4.11 39.398 0.056 17.59 2.41 12.48
12/12/2020 10:45:00 PM 4.11 39.398 0.056 17.59 2.32 12.48
12/12/2020 11:00:00 PM 4.12 39.416 0.056 17.59 2.43 12.47
12/12/2020 11:15:00 PM 4.14 39.452 0.056 17.59 2.43 12.47
12/12/2020 11:30:00 PM 4.15 39.47 0.055 17.59 2.38 12.46
12/12/2020 11:45:00 PM 4.17 39.506 0.056 17.59 2.37 12.45
12/13/2020 12:00:00 AM 4.19 39.542 0.056 17.59 2.4 12.44
12/13/2020 12:15:00 AM 4.21 39.578 0.056 17.58 2.6 12.43
12/13/2020 12:30:00 AM 4.24 39.632 0.056 17.58 2.51 12.43
12/13/2020 12:45:00 AM 4.28 39.704 0.056 17.58 2.64 12.42
12/13/2020 1:00:00 AM 4.31 39.758 0.056 17.58 2.66 12.41
12/13/2020 1:15:00 AM 4.34 39.812 0.056 17.58 2.62 12.41
12/13/2020 1:30:00 AM 4.41 39.938 0.055 17.58 2.68 12.39
12/13/2020 1:45:00 AM 4.44 39.992 0.063 17.58 3.86 12.37
12/13/2020 2:00:00 AM 4.46 40.028 0.058 17.58 2.93 12.37
12/13/2020 2:15:00 AM 4.47 40.046 0.057 17.57 2.66 12.36
12/13/2020 2:30:00 AM 4.46 40.028 0.056 17.58 2.61 12.36
12/13/2020 2:45:00 AM 4.45 40.01 0.056 17.58 2.65 12.36
12/13/2020 3:00:00 AM 4.44 39.992 0.056 17.58 2.62 12.35
12/13/2020 3:15:00 AM 4.42 39.956 0.056 17.58 2.59 12.35
12/13/2020 3:30:00 AM 4.41 39.938 0.056 17.58 2.78 12.35
12/13/2020 3:45:00 AM 4.4 39.92 0.056 17.58 2.79 12.36
12/13/2020 4:00:00 AM 4.39 39.902 0.056 17.58 2.81 12.36
12/13/2020 4:30:00 AM 4.36 39.848 0.056 17.58 2.75 12.36
12/13/2020 4:45:00 AM 4.36 39.848 0.056 17.58 2.74 12.37
12/13/2020 5:00:00 AM 4.37 39.866 0.056 17.58 2.77 12.38
12/13/2020 5:15:00 AM 4.38 39.884 0.056 17.58 3.01 12.37
12/13/2020 5:30:00 AM 4.39 39.902 0.056 17.58 2.86 12.38
12/13/2020 5:45:00 AM 4.4 39.92 0.056 17.58 2.9 12.38
12/13/2020 6:00:00 AM 4.41 39.938 0.055 17.58 2.87 12.39
12/13/2020 6:15:00 AM 4.41 39.938 0.055 17.58 3.09 12.39
12/13/2020 6:30:00 AM 4.42 39.956 0.056 17.58 3.03 12.39
12/13/2020 6:45:00 AM 4.42 39.956 0.056 17.58 3.16 12.39
12/13/2020 7:00:00 AM 4.43 39.974 0.056 17.58 3.28 12.39
12/13/2020 7:15:00 AM 4.44 39.992 0.055 17.58 3.45 12.39
12/13/2020 7:30:00 AM 4.44 39.992 0.056 17.58 3.19 12.4
12/13/2020 7:45:00 AM 4.45 40.01 0.055 17.58 3.26 12.4
12/13/2020 8:00:00 AM 4.46 40.028 0.055 17.58 3.51 12.41
12/13/2020 8:15:00 AM 4.47 40.046 0.055 17.57 3.76 12.45
12/13/2020 8:30:00 AM 4.48 40.064 0.055 17.57 3.92 12.48
12/13/2020 8:45:00 AM 4.49 40.082 0.055 17.57 3.81 12.51
12/13/2020 9:00:00 AM 4.5 40.1 0.055 17.57 3.84 12.57
12/13/2020 9:15:00 AM 4.51 40.118 0.055 17.57 3.63 12.6
12/13/2020 9:30:00 AM 4.54 40.172 0.055 17.57 3.62 12.68
12/13/2020 9:45:00 AM 4.59 40.262 0.054 17.57 3.52 12.79
12/13/2020 10:00:00 AM 4.62 40.316 0.054 17.57 3.58 12.86
12/13/2020 10:15:00 AM 4.64 40.352 0.054 17.57 3.46 12.87
12/13/2020 10:30:00 AM 4.66 40.388 0.055 17.57 3.37 12.89
12/13/2020 10:45:00 AM 4.69 40.442 0.055 17.57 3.51 12.92
12/13/2020 11:00:00 AM 4.75 40.55 0.055 17.56 3.25 12.98
12/13/2020 11:15:00 AM 4.81 40.658 0.055 17.56 3.39 13.02
12/13/2020 11:30:00 AM 4.84 40.712 0.055 17.56 3.53 13.04
12/13/2020 11:45:00 AM 4.92 40.856 0.055 17.56 3.74 13.06
12/13/2020 12:00:00 PM 5.01 41.018 0.055 17.55 3.73 13.08
12/13/2020 12:15:00 PM 5.1 41.18 0.055 17.55 4 13.1
12/13/2020 12:30:00 PM 5.14 41.252 0.054 17.55 4.09 13.08
12/13/2020 12:45:00 PM 5.17 41.306 0.054 17.55 4.33 13.07
12/13/2020 1:00:00 PM 5.19 41.342 0.054 17.55 4.51 13.07
12/13/2020 1:15:00 PM 5.22 41.396 0.054 17.55 4.5 13.05
12/13/2020 1:30:00 PM 5.23 41.414 0.054 17.55 4.52 13.01
12/13/2020 1:45:00 PM 5.24 41.432 0.054 17.55 4.4 13
12/13/2020 2:00:00 PM 5.25 41.45 0.054 17.55 4.46 12.99
12/13/2020 2:15:00 PM 5.28 41.504 0.054 17.54 4.23 12.98
12/13/2020 2:30:00 PM 5.28 41.504 0.054 17.54 4.07 12.96
12/13/2020 2:45:00 PM 5.26 41.468 0.054 17.54 3.9 12.9
12/13/2020 3:00:00 PM 5.24 41.432 0.054 17.55 3.86 12.85
12/13/2020 3:15:00 PM 5.26 41.468 0.054 17.54 3.92 12.86
12/13/2020 3:30:00 PM 5.27 41.486 0.054 17.54 3.63 12.87
12/13/2020 3:45:00 PM 5.27 41.486 0.054 17.54 3.57 12.82
12/13/2020 4:00:00 PM 5.25 41.45 0.054 17.55 3.49 12.74
12/13/2020 4:15:00 PM 5.22 41.396 0.054 17.55 3.42 12.67
12/13/2020 4:30:00 PM 5.2 41.36 0.054 17.55 3.39 12.61
12/13/2020 4:45:00 PM 5.18 41.324 0.054 17.55 3.31 12.54
12/13/2020 5:00:00 PM 5.16 41.288 0.054 17.55 3.41 12.47
12/13/2020 5:15:00 PM 5.14 41.252 0.054 17.55 3.24 12.42
12/13/2020 5:30:00 PM 5.12 41.216 0.055 17.55 3.18 12.37
12/13/2020 5:45:00 PM 5.1 41.18 0.055 17.55 3.2 12.34
12/13/2020 6:00:00 PM 5.07 41.126 0.055 17.55 3.1 12.32
12/13/2020 6:15:00 PM 5.05 41.09 0.055 17.55 3.16 12.3
12/13/2020 6:30:00 PM 5.03 41.054 0.055 17.55 3.06 12.29
12/13/2020 6:45:00 PM 5 41 0.055 17.55 3.17 12.28
12/13/2020 7:00:00 PM 4.98 40.964 0.054 17.56 3.05 12.28
12/13/2020 7:15:00 PM 4.95 40.91 0.055 17.56 3.05 12.28
12/13/2020 7:30:00 PM 4.93 40.874 0.055 17.56 3.1 12.28
12/13/2020 7:45:00 PM 4.9 40.82 0.055 17.56 3.12 12.28
12/13/2020 8:00:00 PM 4.87 40.766 0.055 17.56 3.06 12.28
12/13/2020 8:15:00 PM 4.85 40.73 0.055 17.56 2.97 12.29
12/13/2020 8:30:00 PM 4.83 40.694 0.055 17.56 2.94 12.29
12/13/2020 8:45:00 PM 4.81 40.658 0.055 17.56 2.96 12.31
12/13/2020 9:00:00 PM 4.78 40.604 0.055 17.56 3 12.31
12/13/2020 9:15:00 PM 4.75 40.55 0.055 17.56 2.94 12.32
12/13/2020 9:30:00 PM 4.73 40.514 0.055 17.56 2.9 12.32
12/13/2020 9:45:00 PM 4.71 40.478 0.055 17.57 2.87 12.33
12/13/2020 10:00:00 PM 4.69 40.442 0.055 17.57 2.85 12.33
12/13/2020 10:15:00 PM 4.67 40.406 0.055 17.57 2.86 12.34
12/13/2020 10:30:00 PM 4.65 40.37 0.055 17.57 2.89 12.34
12/13/2020 10:45:00 PM 4.63 40.334 0.055 17.57 2.81 12.35
12/13/2020 11:00:00 PM 4.6 40.28 0.055 17.57 2.84 12.36
12/13/2020 11:15:00 PM 4.57 40.226 0.055 17.57 2.77 12.37
12/13/2020 11:30:00 PM 4.54 40.172 0.055 17.57 2.82 12.38
12/13/2020 11:45:00 PM 4.51 40.118 0.055 17.57 2.84 12.39
12/14/2020 12:00:00 AM 4.48 40.064 0.055 17.57 2.78 12.4
12/14/2020 12:15:00 AM 4.45 40.01 0.055 17.58 2.73 12.41
12/14/2020 12:30:00 AM 4.42 39.956 0.055 17.58 2.74 12.42
12/14/2020 12:45:00 AM 4.39 39.902 0.055 17.58 2.72 12.43
12/14/2020 1:00:00 AM 4.37 39.866 0.055 17.58 2.73 12.43
12/14/2020 1:15:00 AM 4.34 39.812 0.055 17.58 2.71 12.45
12/14/2020 1:30:00 AM 4.32 39.776 0.055 17.58 2.64 12.46
12/14/2020 1:45:00 AM 4.29 39.722 0.055 17.58 2.68 12.45
12/14/2020 2:00:00 AM 4.27 39.686 0.056 17.58 2.64 12.47
12/14/2020 2:15:00 AM 4.25 39.65 0.055 17.58 2.66 12.47
12/14/2020 2:30:00 AM 4.23 39.614 0.055 17.58 2.63 12.49
12/14/2020 2:45:00 AM 4.2 39.56 0.056 17.58 2.59 12.49
12/14/2020 3:00:00 AM 4.19 39.542 0.056 17.59 2.66 12.5
12/14/2020 3:15:00 AM 4.16 39.488 0.056 17.59 2.55 12.49
12/14/2020 3:30:00 AM 4.15 39.47 0.055 17.59 2.61 12.51
12/14/2020 3:45:00 AM 4.13 39.434 0.056 17.59 2.6 12.52
12/14/2020 4:00:00 AM 4.11 39.398 0.056 17.59 2.61 12.52
12/14/2020 4:15:00 AM 4.09 39.362 0.056 17.59 2.65 12.52
12/14/2020 4:30:00 AM 4.06 39.308 0.056 17.59 2.62 12.54
12/14/2020 4:45:00 AM 4.04 39.272 0.056 17.59 2.64 12.54
12/14/2020 5:00:00 AM 4.01 39.218 0.056 17.59 2.55 12.55
12/14/2020 5:15:00 AM 3.99 39.182 0.056 17.59 2.6 12.55
12/14/2020 5:30:00 AM 3.96 39.128 0.056 17.59 2.58 12.56
12/14/2020 5:45:00 AM 3.94 39.092 0.056 17.6 2.59 12.57
12/14/2020 6:00:00 AM 3.92 39.056 0.056 17.6 2.55 12.57
12/14/2020 6:15:00 AM 3.9 39.02 0.056 17.6 2.59 12.58
12/14/2020 6:30:00 AM 3.88 38.984 0.056 17.6 2.6 12.59
12/14/2020 6:45:00 AM 3.86 38.948 0.056 17.6 2.53 12.6
12/14/2020 7:00:00 AM 3.84 38.912 0.056 17.6 2.56 12.6
12/14/2020 7:15:00 AM 3.8 38.84 0.056 17.6 2.55 12.61
12/14/2020 7:30:00 AM 3.75 38.75 0.056 17.6 2.54 12.61
12/14/2020 7:45:00 AM 3.69 38.642 0.056 17.6 2.54 12.63
12/14/2020 8:00:00 AM 3.65 38.57 0.056 17.61 2.49 12.65
12/14/2020 8:15:00 AM 3.64 38.552 0.058 17.61 2.49 12.71
12/14/2020 8:30:00 AM 3.63 38.534 0.057 17.61 2.52 12.77
12/14/2020 8:45:00 AM 3.64 38.552 0.057 17.61 2.59 12.83
12/14/2020 9:00:00 AM 3.64 38.552 0.056 17.61 2.52 12.91
12/14/2020 9:15:00 AM 3.65 38.57 0.056 17.61 2.46 13.01
12/14/2020 9:30:00 AM 3.65 38.57 0.056 17.61 2.45 13.07
12/14/2020 9:45:00 AM 3.66 38.588 0.055 17.61 2.46 13.11
12/14/2020 10:00:00 AM 3.67 38.606 0.055 17.61 2.43 13.15
12/14/2020 10:15:00 AM 3.67 38.606 0.055 17.61 2.46 13.19
12/14/2020 10:30:00 AM 3.68 38.624 0.055 17.61 2.39 13.23
12/14/2020 10:45:00 AM 3.7 38.66 0.055 17.6 2.39 13.26
12/14/2020 11:00:00 AM 3.73 38.714 0.055 17.6 2.4 13.31
12/14/2020 11:15:00 AM 3.74 38.732 0.055 17.6 2.44 13.34
12/14/2020 11:30:00 AM 3.76 38.768 0.055 17.6 2.34 13.35
12/14/2020 11:45:00 AM 3.79 38.822 0.055 17.6 2.4 13.37
12/14/2020 12:00:00 PM 3.85 38.93 0.055 17.6 2.4 13.4
12/14/2020 12:15:00 PM 3.91 39.038 0.054 17.6 2.38 13.43
12/14/2020 12:30:00 PM 3.97 39.146 0.054 17.59 2.37 13.44
12/14/2020 12:45:00 PM 3.99 39.182 0.054 17.59 2.37 13.43
12/14/2020 1:00:00 PM 3.99 39.182 0.054 17.59 2.35 13.4
12/14/2020 1:15:00 PM 3.99 39.182 0.054 17.59 2.39 13.37
12/14/2020 1:30:00 PM 4.01 39.218 0.054 17.59 2.43 13.36
12/14/2020 1:45:00 PM 4.02 39.236 0.054 17.59 2.49 13.35
12/14/2020 2:00:00 PM 4.02 39.236 0.054 17.59 2.34 13.34
12/14/2020 2:15:00 PM 4.02 39.236 0.054 17.59 2.33 13.32
12/14/2020 2:30:00 PM 4.03 39.254 0.054 17.59 2.34 13.31
12/14/2020 2:45:00 PM 4.02 39.236 0.054 17.59 2.34 13.27
12/14/2020 3:00:00 PM 4 39.2 0.054 17.59 2.33 13.21
12/14/2020 3:15:00 PM 3.99 39.182 0.054 17.59 2.3 13.18
12/14/2020 3:30:00 PM 3.98 39.164 0.054 17.59 2.35 13.16
12/14/2020 3:45:00 PM 3.95 39.11 0.054 17.59 2.28 13.1
12/14/2020 4:00:00 PM 3.93 39.074 0.054 17.6 2.36 13.06
12/14/2020 4:15:00 PM 3.91 39.038 0.054 17.6 2.3 13
12/14/2020 4:30:00 PM 3.86 38.948 0.055 17.6 2.3 12.95
12/14/2020 4:45:00 PM 3.84 38.912 0.054 17.6 2.3 12.9
12/14/2020 5:00:00 PM 3.79 38.822 0.055 17.6 2.31 12.85
12/14/2020 5:15:00 PM 3.76 38.768 0.055 17.6 2.32 12.82
12/14/2020 5:30:00 PM 3.71 38.678 0.055 17.6 2.32 12.79
12/14/2020 5:45:00 PM 3.68 38.624 0.055 17.61 2.34 12.79
12/14/2020 6:00:00 PM 3.63 38.534 0.055 17.61 2.33 12.77
12/14/2020 6:15:00 PM 3.58 38.444 0.055 17.61 2.36 12.77
12/14/2020 6:30:00 PM 3.54 38.372 0.055 17.61 2.32 12.77
12/14/2020 6:45:00 PM 3.49 38.282 0.055 17.61 2.34 12.78
12/14/2020 7:00:00 PM 3.45 38.21 0.055 17.61 2.36 12.79
12/14/2020 7:15:00 PM 3.4 38.12 0.055 17.62 2.41 12.81
12/14/2020 7:30:00 PM 3.36 38.048 0.055 17.62 2.36 12.82
12/14/2020 7:45:00 PM 3.31 37.958 0.055 17.62 2.31 12.85
12/14/2020 8:00:00 PM 3.25 37.85 0.055 17.62 2.36 12.86
12/14/2020 8:15:00 PM 3.21 37.778 0.055 17.62 2.33 12.88
12/14/2020 8:30:00 PM 3.14 37.652 0.055 17.63 2.35 12.91
12/14/2020 8:45:00 PM 3.09 37.562 0.055 17.63 2.35 12.93
12/14/2020 9:00:00 PM 3.04 37.472 0.055 17.63 2.3 12.96
12/14/2020 9:15:00 PM 3 37.4 0.055 17.63 2.36 12.97
12/14/2020 9:30:00 PM 2.96 37.328 0.055 17.63 2.37 12.99
12/14/2020 9:45:00 PM 2.91 37.238 0.055 17.63 2.36 13.01
12/14/2020 10:00:00 PM 2.85 37.13 0.055 17.64 2.35 13.03
12/14/2020 10:15:00 PM 2.8 37.04 0.055 17.64 2.36 13.05
12/14/2020 10:30:00 PM 2.73 36.914 0.056 17.64 2.31 13.08
12/14/2020 10:45:00 PM 2.68 36.824 0.055 17.64 2.36 13.1
12/14/2020 11:00:00 PM 2.64 36.752 0.056 17.65 2.36 13.12
12/14/2020 11:15:00 PM 2.59 36.662 0.056 17.65 2.35 13.14
12/14/2020 11:30:00 PM 2.55 36.59 0.055 17.65 2.37 13.16
12/14/2020 11:45:00 PM 2.52 36.536 0.055 17.65 2.34 13.18
12/15/2020 12:00:00 AM 2.48 36.464 0.056 17.65 2.35 13.2
12/15/2020 12:15:00 AM 2.45 36.41 0.056 17.65 2.33 13.21
12/15/2020 12:30:00 AM 2.41 36.338 0.056 17.65 2.3 13.23
12/15/2020 12:45:00 AM 2.38 36.284 0.056 17.66 2.31 13.25
12/15/2020 1:00:00 AM 2.34 36.212 0.056 17.66 2.31 13.26
12/15/2020 1:15:00 AM 2.3 36.14 0.056 17.66 2.3 13.28
12/15/2020 1:30:00 AM 2.25 36.05 0.056 17.66 2.29 13.3
12/15/2020 1:45:00 AM 2.2 35.96 0.056 17.66 2.29 13.32
12/15/2020 2:00:00 AM 2.16 35.888 0.056 17.66 2.29 13.33
12/15/2020 2:15:00 AM 2.12 35.816 0.056 17.66 2.3 13.35
12/15/2020 2:30:00 AM 2.09 35.762 0.056 17.67 2.28 13.37
12/15/2020 2:45:00 AM 2.06 35.708 0.056 17.67 2.27 13.39
12/15/2020 3:00:00 AM 2.01 35.618 0.056 17.67 2.32 13.4
12/15/2020 3:15:00 AM 1.96 35.528 0.056 17.67 2.28 13.43
12/15/2020 3:30:00 AM 1.91 35.438 0.056 17.67 2.26 13.45
12/15/2020 3:45:00 AM 1.87 35.366 0.056 17.67 2.25 13.46
12/15/2020 4:00:00 AM 1.83 35.294 0.056 17.68 2.26 13.49
12/15/2020 4:15:00 AM 1.8 35.24 0.056 17.68 2.31 13.5
12/15/2020 4:30:00 AM 1.76 35.168 0.056 17.68 2.32 13.53
12/15/2020 4:45:00 AM 1.71 35.078 0.056 17.68 2.31 13.54
12/15/2020 5:00:00 AM 1.69 35.042 0.056 17.68 2.28 13.56
12/15/2020 5:15:00 AM 1.68 35.024 0.056 17.68 2.29 13.57
12/15/2020 5:30:00 AM 1.66 34.988 0.056 17.68 2.3 13.59
12/15/2020 5:45:00 AM 1.65 34.97 0.056 17.68 2.31 13.6
12/15/2020 6:00:00 AM 1.63 34.934 0.056 17.68 2.25 13.6
12/15/2020 6:15:00 AM 1.62 34.916 0.056 17.68 2.29 13.61
12/15/2020 6:30:00 AM 1.61 34.898 0.056 17.68 2.31 13.63
12/15/2020 6:45:00 AM 1.6 34.88 0.056 17.69 2.24 13.64
12/15/2020 7:00:00 AM 1.58 34.844 0.056 17.69 2.31 13.65
12/15/2020 7:15:00 AM 1.55 34.79 0.056 17.69 2.29 13.66
12/15/2020 7:30:00 AM 1.52 34.736 0.056 17.69 2.27 13.68
12/15/2020 7:45:00 AM 1.51 34.718 0.056 17.69 2.26 13.7
12/15/2020 8:00:00 AM 1.5 34.7 0.056 17.69 2.29 13.75
12/15/2020 8:15:00 AM 1.5 34.7 0.056 17.69 2.26 13.8
12/15/2020 8:30:00 AM 1.5 34.7 0.056 17.69 2.23 13.87
12/15/2020 8:45:00 AM 1.5 34.7 0.056 17.69 2.23 13.94
12/15/2020 9:00:00 AM 1.51 34.718 0.056 17.69 2.28 14.02
12/15/2020 9:15:00 AM 1.52 34.736 0.056 17.69 2.21 14.09
12/15/2020 9:30:00 AM 1.55 34.79 0.056 17.69 2.2 14.17
12/15/2020 9:45:00 AM 1.58 34.844 0.056 17.69 2.19 14.23
12/15/2020 10:00:00 AM 1.62 34.916 0.055 17.68 2.24 14.28
12/15/2020 10:15:00 AM 1.67 35.006 0.055 17.68 2.21 14.32
12/15/2020 10:30:00 AM 1.72 35.096 0.055 17.68 2.18 14.35
12/15/2020 10:45:00 AM 1.76 35.168 0.055 17.68 2.21 14.37
12/15/2020 11:00:00 AM 1.78 35.204 0.055 17.68 2.2 14.38
12/15/2020 11:15:00 AM 1.81 35.258 0.054 17.68 2.18 14.38
12/15/2020 11:30:00 AM 1.87 35.366 0.055 17.67 2.17 14.39
12/15/2020 11:45:00 AM 1.91 35.438 0.054 17.67 2.22 14.38
12/15/2020 12:00:00 PM 1.94 35.492 0.054 17.67 2.2 14.38
12/15/2020 12:15:00 PM 2 35.6 0.054 17.67 2.27 14.36
12/15/2020 12:30:00 PM 2.05 35.69 0.054 17.67 2.22 14.36
12/15/2020 12:45:00 PM 2.08 35.744 0.054 17.67 2.18 14.35
12/15/2020 1:00:00 PM 2.12 35.816 0.054 17.66 2.17 14.34
12/15/2020 1:15:00 PM 2.16 35.888 0.054 17.66 2.13 14.32
12/15/2020 1:30:00 PM 2.19 35.942 0.054 17.66 2.18 14.31
12/15/2020 1:45:00 PM 2.22 35.996 0.054 17.66 2.16 14.29
12/15/2020 2:00:00 PM 2.25 36.05 0.054 17.66 2.13 14.27
12/15/2020 2:15:00 PM 2.26 36.068 0.054 17.66 2.16 14.26
12/15/2020 2:30:00 PM 2.26 36.068 0.054 17.66 2.21 14.25
12/15/2020 2:45:00 PM 2.26 36.068 0.054 17.66 2.18 14.23
12/15/2020 3:00:00 PM 2.26 36.068 0.054 17.66 2.23 14.22
12/15/2020 3:15:00 PM 2.23 36.014 0.054 17.66 2.22 14.21
12/15/2020 3:30:00 PM 2.22 35.996 0.054 17.66 2.2 14.19
12/15/2020 3:45:00 PM 2.19 35.942 0.054 17.66 2.16 14.18
12/15/2020 4:00:00 PM 2.15 35.87 0.054 17.66 2.19 14.15
12/15/2020 4:15:00 PM 2.11 35.798 0.054 17.67 2.19 14.11
12/15/2020 4:30:00 PM 2.07 35.726 0.054 17.67 2.15 14.06
12/15/2020 4:45:00 PM 2.02 35.636 0.054 17.67 2.17 13.97
12/15/2020 5:00:00 PM 1.97 35.546 0.054 17.67 2.16 13.89
12/15/2020 5:15:00 PM 1.92 35.456 0.054 17.67 2.16 13.83
12/15/2020 5:30:00 PM 1.87 35.366 0.054 17.67 2.14 13.78
12/15/2020 5:45:00 PM 1.83 35.294 0.054 17.68 2.14 13.74
12/15/2020 6:00:00 PM 1.78 35.204 0.054 17.68 2.16 13.73
12/15/2020 6:15:00 PM 1.73 35.114 0.054 17.68 2.18 13.71
12/15/2020 6:30:00 PM 1.69 35.042 0.055 17.68 2.12 13.7
12/15/2020 6:45:00 PM 1.64 34.952 0.055 17.68 2.15 13.69
12/15/2020 7:00:00 PM 1.59 34.862 0.055 17.69 2.13 13.71
12/15/2020 7:15:00 PM 1.55 34.79 0.055 17.69 2.14 13.71
12/15/2020 7:30:00 PM 1.5 34.7 0.055 17.69 2.15 13.72
12/15/2020 7:45:00 PM 1.46 34.628 0.055 17.69 2.16 13.73
12/15/2020 8:00:00 PM 1.42 34.556 0.055 17.69 2.16 13.74
12/15/2020 8:15:00 PM 1.37 34.466 0.055 17.69 2.16 13.75
12/15/2020 8:30:00 PM 1.32 34.376 0.055 17.7 2.16 13.77
12/15/2020 8:45:00 PM 1.28 34.304 0.055 17.7 2.17 13.78
12/15/2020 9:00:00 PM 1.24 34.232 0.055 17.7 2.21 13.79
12/15/2020 9:15:00 PM 1.19 34.142 0.055 17.7 2.17 13.81
12/15/2020 9:30:00 PM 1.15 34.07 0.055 17.7 2.13 13.83
12/15/2020 9:45:00 PM 1.11 33.998 0.055 17.7 2.19 13.84
12/15/2020 10:00:00 PM 1.07 33.926 0.055 17.71 2.16 13.86
12/15/2020 10:15:00 PM 1.03 33.854 0.055 17.71 2.15 13.87
12/15/2020 10:30:00 PM 0.99 33.782 0.055 17.71 2.17 13.9
12/15/2020 10:45:00 PM 0.95 33.71 0.055 17.71 2.2 13.91
12/15/2020 11:00:00 PM 0.92 33.656 0.055 17.71 2.17 13.93
12/15/2020 11:15:00 PM 0.88 33.584 0.055 17.71 2.13 13.95
12/15/2020 11:30:00 PM 0.83 33.494 0.055 17.72 2.15 13.96
12/15/2020 11:45:00 PM 0.79 33.422 0.055 17.72 2.14 13.98
12/16/2020 12:00:00 AM 0.76 33.368 0.055 17.72 2.17 14
12/16/2020 12:15:00 AM 0.73 33.314 0.055 17.72 2.15 14.01
12/16/2020 12:30:00 AM 0.72 33.296 0.055 17.72 2.15 14.03
12/16/2020 12:45:00 AM 0.7 33.26 0.055 17.72 2.18 14.04
12/16/2020 1:00:00 AM 0.68 33.224 0.055 17.72 2.14 14.06
12/16/2020 1:15:00 AM 0.65 33.17 0.055 17.72 2.13 14.07
12/16/2020 1:30:00 AM 0.62 33.116 0.055 17.72 2.15 14.07
12/16/2020 1:45:00 AM 0.58 33.044 0.055 17.73 2.12 14.09
12/16/2020 2:00:00 AM 0.55 32.99 0.056 17.73 2.2 14.1
12/16/2020 2:15:00 AM 0.52 32.936 0.056 17.73 2.15 14.11
12/16/2020 2:30:00 AM 0.5 32.9 0.055 17.73 2.16 14.13
12/16/2020 2:45:00 AM 0.47 32.846 0.055 17.73 2.16 14.14
12/16/2020 3:00:00 AM 0.43 32.774 0.055 17.73 2.15 14.17
12/16/2020 3:15:00 AM 0.39 32.702 0.055 17.73 2.2 14.17
12/16/2020 3:30:00 AM 0.33 32.594 0.055 17.73 2.17 14.19
12/16/2020 3:45:00 AM 0.3 32.54 0.056 17.74 2.17 14.21
12/16/2020 4:00:00 AM 0.27 32.486 0.056 17.74 2.16 14.24
12/16/2020 4:15:00 AM 0.24 32.432 0.056 17.74 2.16 14.23
12/16/2020 4:30:00 AM 0.22 32.396 0.056 17.74 2.17 14.24
12/16/2020 4:45:00 AM 0.2 32.36 0.056 17.74 2.16 14.25
12/16/2020 5:00:00 AM 0.17 32.306 0.056 17.74 2.15 14.27
12/16/2020 5:15:00 AM 0.14 32.252 0.056 17.74 2.2 14.28
12/16/2020 5:30:00 AM 0.12 32.216 0.056 17.74 2.14 14.29
12/16/2020 5:45:00 AM 0.09 32.162 0.056 17.74 2.15 14.31
12/16/2020 6:00:00 AM 0.07 32.126 0.056 17.75 2.13 14.32
12/16/2020 6:15:00 AM 0.05 32.09 0.056 17.75 2.17 14.33
12/16/2020 6:30:00 AM 0.03 32.054 0.056 17.75 2.17 14.34
12/16/2020 6:45:00 AM 0 32 0.056 17.75 2.14 14.35
12/16/2020 7:00:00 AM -0.02 31.964 0.055 17.75 2.16 14.37
12/16/2020 7:15:00 AM -0.04 31.928 0.056 17.75 2.14 14.38
12/16/2020 7:30:00 AM -0.06 31.892 0.056 17.75 2.18 14.39
12/16/2020 7:45:00 AM -0.06 31.892 0.056 17.75 2.18 14.4
12/16/2020 8:00:00 AM -0.05 31.91 0.056 17.75 2.26 14.44
12/16/2020 8:15:00 AM -0.05 31.91 0.056 17.75 2.35 14.47
12/16/2020 8:30:00 AM -0.04 31.928 0.056 17.75 2.32 14.51
12/16/2020 8:45:00 AM -0.03 31.946 0.055 17.75 2.37 14.59
12/16/2020 9:00:00 AM -0.03 31.946 0.056 17.75 2.34 14.66
12/16/2020 9:15:00 AM -0.02 31.964 0.056 17.75 2.23 14.72
12/16/2020 9:30:00 AM -0.02 31.964 0.056 17.75 2.21 14.77
12/16/2020 9:45:00 AM -0.01 31.982 0.055 17.75 2.19 14.81
12/16/2020 10:00:00 AM 0.02 32.036 0.055 17.75 2.18 14.85
12/16/2020 10:15:00 AM 0.06 32.108 0.055 17.75 2.19 14.88
12/16/2020 10:30:00 AM 0.06 32.108 0.055 17.75 2.17 14.9
12/16/2020 10:45:00 AM 0.05 32.09 0.054 17.75 2.19 14.91
12/16/2020 11:00:00 AM 0.04 32.072 0.054 17.75 2.17 14.92
12/16/2020 11:15:00 AM 0.03 32.054 0.055 17.75 2.28 14.9
12/16/2020 11:30:00 AM 0.01 32.018 0.055 17.75 2.23 14.88
12/16/2020 11:45:00 AM -0.02 31.964 0.054 17.75 2.52 14.87
12/16/2020 12:00:00 PM -0.03 31.946 0.055 17.75 3.96 14.89
12/16/2020 12:15:00 PM -0.03 31.946 0.054 17.75 4.18 14.9
12/16/2020 12:30:00 PM -0.03 31.946 0.054 17.75 4.8 14.91
12/16/2020 12:45:00 PM -0.03 31.946 0.054 17.75 3.8 14.91
12/16/2020 1:00:00 PM -0.03 31.946 0.054 17.75 3.63 14.91
12/16/2020 1:15:00 PM -0.03 31.946 0.054 17.75 3.61 14.91
12/16/2020 1:30:00 PM -0.03 31.946 0.054 17.75 3.6 14.89
12/16/2020 1:45:00 PM -0.03 31.946 0.054 17.75 3.76 14.88
12/16/2020 2:00:00 PM -0.03 31.946 0.054 17.75 3.75 14.85
12/16/2020 2:15:00 PM -0.03 31.946 0.053 17.75 3.78 14.84
12/16/2020 2:30:00 PM -0.03 31.946 0.054 17.75 3.95 14.83
12/16/2020 2:45:00 PM -0.03 31.946 0.054 17.75 3.94 14.82
12/16/2020 3:00:00 PM -0.03 31.946 0.053 17.75 3.97 14.8
12/16/2020 3:15:00 PM -0.03 31.946 0.053 17.75 4.03 14.79
12/16/2020 3:30:00 PM -0.03 31.946 0.054 17.75 4.01 14.77
12/16/2020 3:45:00 PM -0.03 31.946 0.053 17.75 4.06 14.75
12/16/2020 4:00:00 PM -0.03 31.946 0.053 17.75 3.94 14.72
12/16/2020 4:15:00 PM -0.03 31.946 0.053 17.75 3.94 14.68
12/16/2020 4:30:00 PM -0.03 31.946 0.053 17.75 3.98 14.63
12/16/2020 4:45:00 PM -0.03 31.946 0.054 17.75 3.83 14.58
12/16/2020 5:00:00 PM -0.03 31.946 0.054 17.75 3.81 14.53
12/16/2020 5:15:00 PM -0.03 31.946 0.053 17.75 3.99 14.5
12/16/2020 5:30:00 PM -0.03 31.946 0.053 17.75 3.89 14.46
12/16/2020 5:45:00 PM -0.03 31.946 0.053 17.75 4.01 14.43
12/16/2020 6:00:00 PM -0.03 31.946 0.054 17.75 4.09 14.4
12/16/2020 6:15:00 PM -0.03 31.946 0.054 17.75 3.96 14.38
12/16/2020 6:30:00 PM -0.03 31.946 0.054 17.75 3.98 14.36
12/16/2020 6:45:00 PM -0.03 31.946 0.054 17.75 4.09 14.34
12/16/2020 7:00:00 PM -0.03 31.946 0.054 17.75 5.26 14.31
12/16/2020 7:15:00 PM -0.02 31.964 0.054 17.75 4.75 14.29
12/16/2020 7:30:00 PM -0.03 31.946 0.054 17.75 4.6 14.27
12/16/2020 7:45:00 PM -0.03 31.946 0.054 17.75 4.42 14.26
12/16/2020 8:00:00 PM -0.03 31.946 0.054 17.75 4.3 14.24
12/16/2020 8:15:00 PM -0.03 31.946 0.054 17.75 4.3 14.23
12/16/2020 8:30:00 PM -0.03 31.946 0.054 17.75 4.95 14.23
12/16/2020 8:45:00 PM -0.03 31.946 0.054 17.75 4.66 14.21
12/16/2020 9:00:00 PM -0.03 31.946 0.054 17.75 4.63 14.2
12/16/2020 9:15:00 PM -0.03 31.946 0.054 17.75 4.85 14.19
12/16/2020 9:30:00 PM -0.03 31.946 0.054 17.75 4.67 14.19
12/16/2020 9:45:00 PM -0.03 31.946 0.054 17.75 4.9 14.17
12/16/2020 10:00:00 PM -0.03 31.946 0.055 17.75 4.74 14.16
12/16/2020 10:15:00 PM -0.03 31.946 0.055 17.75 4.78 14.13
12/16/2020 10:30:00 PM -0.03 31.946 0.053 17.75 5.29 14.19
12/16/2020 10:45:00 PM -0.03 31.946 0.054 17.75 4.68 14.17
12/16/2020 11:00:00 PM -0.03 31.946 0.054 17.75 5.02 14.15
12/16/2020 11:15:00 PM -0.02 31.964 0.054 17.75 4.83 14.12
12/16/2020 11:30:00 PM -0.02 31.964 0.055 17.75 4.52 14.09
12/16/2020 11:45:00 PM -0.02 31.964 0.055 17.75 4.65 14.08
12/17/2020 12:00:00 AM -0.03 31.946 0.055 17.75 4.7 14.08
12/17/2020 12:15:00 AM -0.03 31.946 0.054 17.75 4.66 14.08
12/17/2020 12:30:00 AM -0.02 31.964 0.054 17.75 4.93 14.08
12/17/2020 12:45:00 AM -0.02 31.964 0.054 17.75 4.57 14.06
12/17/2020 1:00:00 AM -0.02 31.964 0.054 17.75 4.43 14.02
12/17/2020 1:15:00 AM -0.03 31.946 0.054 17.75 4.55 14.05
12/17/2020 1:30:00 AM -0.03 31.946 0.055 17.75 4.31 14.02
12/17/2020 1:45:00 AM -0.03 31.946 0.056 17.75 4.35 13.97
12/17/2020 2:00:00 AM -0.03 31.946 0.057 17.75 4.41 13.95
12/17/2020 2:15:00 AM -0.03 31.946 0.057 17.75 4.64 13.94
12/17/2020 2:30:00 AM -0.03 31.946 0.058 17.75 4.77 13.94
12/17/2020 2:45:00 AM -0.03 31.946 0.058 17.75 5.02 13.92
12/17/2020 3:00:00 AM -0.03 31.946 0.058 17.75 5.29 13.91
12/17/2020 3:15:00 AM -0.03 31.946 0.058 17.75 5.19 13.91
12/17/2020 3:30:00 AM -0.03 31.946 0.058 17.75 5.25 13.9
12/17/2020 3:45:00 AM -0.03 31.946 0.059 17.75 5.24 13.89
12/17/2020 4:00:00 AM -0.03 31.946 0.057 17.75 5.1 13.89
12/17/2020 4:15:00 AM -0.03 31.946 0.056 17.75 5.08 13.88
12/17/2020 4:30:00 AM -0.03 31.946 0.056 17.75 5.01 13.9
12/17/2020 4:45:00 AM -0.03 31.946 0.057 17.75 4.91 13.9
12/17/2020 5:00:00 AM -0.03 31.946 0.057 17.75 4.74 13.89
12/17/2020 5:15:00 AM -0.03 31.946 0.057 17.75 4.74 13.89
12/17/2020 5:30:00 AM -0.03 31.946 0.056 17.75 4.69 13.92
12/17/2020 5:45:00 AM -0.03 31.946 0.056 17.75 4.83 13.92
12/17/2020 6:00:00 AM -0.03 31.946 0.056 17.75 4.97 13.92
12/17/2020 6:15:00 AM -0.03 31.946 0.056 17.75 4.65 13.93
12/17/2020 6:30:00 AM -0.03 31.946 0.056 17.75 4.76 13.93
12/17/2020 6:45:00 AM -0.03 31.946 0.056 17.75 4.62 13.94
12/17/2020 7:00:00 AM -0.03 31.946 0.056 17.75 4.71 13.95
12/17/2020 7:15:00 AM -0.03 31.946 0.055 17.75 4.92 13.95
12/17/2020 7:30:00 AM -0.03 31.946 0.061 17.75 5.01 13.96
12/17/2020 7:45:00 AM -0.03 31.946 0.064 17.75 4.88 13.97
12/17/2020 8:00:00 AM -0.03 31.946 0.067 17.75 4.72 13.99
12/17/2020 8:15:00 AM -0.03 31.946 0.067 17.75 4.81 14.03
12/17/2020 8:30:00 AM -0.03 31.946 0.066 17.75 4.5 14.1
12/17/2020 8:45:00 AM -0.03 31.946 0.067 17.75 4.42 14.16
12/17/2020 9:00:00 AM -0.02 31.964 0.077 17.75 4.35 14.16
12/17/2020 9:15:00 AM -0.02 31.964 0.076 17.75 4.61 14.22
12/17/2020 9:30:00 AM -0.03 31.946 0.074 17.75 4.45 14.27
12/17/2020 9:45:00 AM -0.02 31.964 0.075 17.75 4.65 14.32
12/17/2020 10:00:00 AM -0.02 31.964 0.078 17.75 5.26 14.37
12/17/2020 10:15:00 AM -0.02 31.964 0.078 17.75 4.97 14.42
12/17/2020 10:30:00 AM -0.02 31.964 0.075 17.75 5.03 14.45
12/17/2020 10:45:00 AM -0.02 31.964 0.075 17.75 5.08 14.48
12/17/2020 11:00:00 AM -0.02 31.964 0.07 17.75 5.57 14.51
12/17/2020 11:15:00 AM -0.02 31.964 0.069 17.75 4.31 14.54
12/17/2020 11:30:00 AM -0.02 31.964 0.073 17.75 4.2 14.56
12/17/2020 11:45:00 AM -0.02 31.964 0.071 17.75 4.37 14.59
12/17/2020 12:00:00 PM -0.01 31.982 0.074 17.75 4.28 14.6
12/17/2020 12:15:00 PM -0.01 31.982 0.075 17.75 3.72 14.62
12/17/2020 12:30:00 PM -0.01 31.982 0.079 17.75 4.16 14.63
12/17/2020 12:45:00 PM -0.01 31.982 0.073 17.75 4.15 14.65
12/17/2020 1:00:00 PM 0 32 0.072 17.75 4.46 14.66
12/17/2020 1:15:00 PM 0 32 0.071 17.75 4.3 14.67
12/17/2020 1:30:00 PM 0 32 0.095 17.75 8.23 14.66
12/17/2020 1:45:00 PM 0 32 0.097 17.75 5.37 14.66
12/17/2020 2:00:00 PM 0 32 0.087 17.75 5.14 14.67
12/17/2020 2:15:00 PM 0 32 0.08 17.75 5.35 14.67
12/17/2020 2:30:00 PM 0 32 0.075 17.75 5.27 14.67
12/17/2020 2:45:00 PM -0.01 31.982 0.07 17.75 5.19 14.67
12/17/2020 3:00:00 PM -0.01 31.982 0.065 17.75 5.61 14.68
12/17/2020 3:15:00 PM -0.01 31.982 0.064 17.75 5.47 14.66
12/17/2020 3:30:00 PM -0.01 31.982 0.063 17.75 5.43 14.65
12/17/2020 3:45:00 PM -0.01 31.982 0.06 17.75 5.48 14.65
12/17/2020 4:00:00 PM -0.01 31.982 0.059 17.75 5.1 14.63
12/17/2020 4:15:00 PM -0.02 31.964 0.058 17.75 4.47 14.61
12/17/2020 4:30:00 PM -0.02 31.964 0.056 17.75 4.48 14.57
12/17/2020 4:45:00 PM -0.02 31.964 0.055 17.75 4.25 14.53
12/17/2020 5:00:00 PM -0.02 31.964 0.056 17.75 4.42 14.49
12/17/2020 5:15:00 PM -0.02 31.964 0.056 17.75 4.29 14.44
12/17/2020 5:30:00 PM -0.02 31.964 0.055 17.75 3.94 14.41
12/17/2020 5:45:00 PM -0.02 31.964 0.055 17.75 3.84 14.38
12/17/2020 6:00:00 PM -0.02 31.964 0.055 17.75 3.9 14.36
12/17/2020 6:15:00 PM -0.02 31.964 0.055 17.75 4.02 14.34
12/17/2020 6:30:00 PM -0.02 31.964 0.055 17.75 4.02 14.32
12/17/2020 6:45:00 PM -0.02 31.964 0.055 17.75 3.75 14.31
12/17/2020 7:00:00 PM -0.02 31.964 0.055 17.75 3.71 14.3
12/17/2020 7:15:00 PM -0.02 31.964 0.055 17.75 3.53 14.29
12/17/2020 7:30:00 PM -0.02 31.964 0.055 17.75 3.51 14.29
12/17/2020 7:45:00 PM -0.02 31.964 0.056 17.75 3.47 14.27
12/17/2020 8:00:00 PM -0.02 31.964 0.055 17.75 3.41 14.27
12/17/2020 8:15:00 PM -0.02 31.964 0.055 17.75 3.3 14.26
12/17/2020 8:30:00 PM -0.02 31.964 0.055 17.75 3.32 14.26
12/17/2020 8:45:00 PM -0.02 31.964 0.056 17.75 3.2 14.25
12/17/2020 9:00:00 PM -0.02 31.964 0.055 17.75 3.11 14.25
12/17/2020 9:15:00 PM -0.02 31.964 0.055 17.75 3.21 14.25
12/17/2020 9:30:00 PM -0.02 31.964 0.055 17.75 3.15 14.25
12/17/2020 9:45:00 PM -0.02 31.964 0.055 17.75 2.98 14.25
12/17/2020 10:00:00 PM -0.02 31.964 0.055 17.75 2.98 14.25
12/17/2020 10:15:00 PM -0.02 31.964 0.055 17.75 2.98 14.25
12/17/2020 10:30:00 PM -0.02 31.964 0.055 17.75 2.95 14.25
12/17/2020 10:45:00 PM -0.02 31.964 0.055 17.75 2.93 14.25
12/17/2020 11:00:00 PM -0.02 31.964 0.054 17.75 3.04 14.25
12/17/2020 11:15:00 PM -0.02 31.964 0.055 17.75 3.1 14.24
12/17/2020 11:30:00 PM -0.02 31.964 0.055 17.75 2.85 14.24
12/17/2020 11:45:00 PM -0.02 31.964 0.055 17.75 2.94 14.25
12/18/2020 12:00:00 AM -0.02 31.964 0.055 17.75 2.92 14.25
12/18/2020 12:15:00 AM -0.02 31.964 0.055 17.75 2.8 14.24
12/18/2020 12:30:00 AM -0.02 31.964 0.055 17.75 2.71 14.24
12/18/2020 12:45:00 AM -0.02 31.964 0.055 17.75 2.78 14.24
12/18/2020 1:00:00 AM -0.02 31.964 0.055 17.75 2.67 14.24
12/18/2020 1:15:00 AM -0.02 31.964 0.055 17.75 2.66 14.24
12/18/2020 1:30:00 AM -0.02 31.964 0.055 17.75 2.62 14.24
12/18/2020 1:45:00 AM -0.02 31.964 0.055 17.75 2.69 14.24
12/18/2020 2:00:00 AM -0.02 31.964 0.055 17.75 2.71 14.24
12/18/2020 2:15:00 AM -0.02 31.964 0.055 17.75 2.74 14.25
12/18/2020 2:30:00 AM -0.02 31.964 0.055 17.75 2.62 14.25
12/18/2020 2:45:00 AM -0.02 31.964 0.055 17.75 2.58 14.25
12/18/2020 3:00:00 AM -0.02 31.964 0.055 17.75 2.52 14.25
12/18/2020 3:15:00 AM -0.02 31.964 0.055 17.75 2.56 14.26
12/18/2020 3:30:00 AM -0.02 31.964 0.055 17.75 2.53 14.25
12/18/2020 3:45:00 AM -0.02 31.964 0.055 17.75 2.61 14.26
12/18/2020 4:00:00 AM -0.02 31.964 0.055 17.75 2.47 14.26
12/18/2020 4:15:00 AM -0.02 31.964 0.055 17.75 2.53 14.26
12/18/2020 4:30:00 AM -0.02 31.964 0.055 17.75 2.46 14.26
12/18/2020 4:45:00 AM -0.02 31.964 0.055 17.75 2.46 14.26
12/18/2020 5:00:00 AM -0.02 31.964 0.055 17.75 2.45 14.26
12/18/2020 5:15:00 AM -0.02 31.964 0.055 17.75 2.44 14.26
12/18/2020 5:30:00 AM -0.02 31.964 0.054 17.75 2.51 14.27
12/18/2020 5:45:00 AM -0.02 31.964 0.055 17.75 2.44 14.27
12/18/2020 6:00:00 AM -0.02 31.964 0.055 17.75 2.5 14.27
12/18/2020 6:15:00 AM -0.02 31.964 0.055 17.75 2.42 14.28
12/18/2020 6:30:00 AM -0.02 31.964 0.055 17.75 2.38 14.28
12/18/2020 6:45:00 AM -0.02 31.964 0.055 17.75 2.34 14.28
12/18/2020 7:00:00 AM -0.02 31.964 0.054 17.75 2.35 14.28
12/18/2020 7:15:00 AM -0.02 31.964 0.054 17.75 2.49 14.29
12/18/2020 7:30:00 AM -0.02 31.964 0.054 17.75 2.36 14.29
12/18/2020 7:45:00 AM -0.02 31.964 0.054 17.75 2.38 14.29
12/18/2020 8:00:00 AM -0.02 31.964 0.055 17.75 2.4 14.31
12/18/2020 8:15:00 AM -0.02 31.964 0.055 17.75 2.43 14.33
12/18/2020 8:30:00 AM -0.02 31.964 0.054 17.75 2.32 14.36
12/18/2020 8:45:00 AM -0.02 31.964 0.054 17.75 2.41 14.39
12/18/2020 9:00:00 AM -0.02 31.964 0.054 17.75 2.34 14.43
12/18/2020 9:15:00 AM -0.02 31.964 0.054 17.75 2.28 14.48
12/18/2020 9:30:00 AM -0.02 31.964 0.054 17.75 2.35 14.52
12/18/2020 9:45:00 AM -0.01 31.982 0.054 17.75 2.25 14.57
12/18/2020 10:00:00 AM -0.01 31.982 0.054 17.75 2.3 14.61
12/18/2020 10:15:00 AM -0.01 31.982 0.054 17.75 2.3 14.64
12/18/2020 10:30:00 AM 0 32 0.054 17.75 2.26 14.68
12/18/2020 10:45:00 AM 0 32 0.054 17.75 2.31 14.72
12/18/2020 11:00:00 AM 0 32 0.054 17.75 2.46 14.75
12/18/2020 11:15:00 AM 0 32 0.053 17.75 2.33 14.78
12/18/2020 11:30:00 AM 0 32 0.053 17.75 2.35 14.79
12/18/2020 11:45:00 AM 0 32 0.054 17.75 2.39 14.81
12/18/2020 12:00:00 PM 0 32 0.053 17.75 2.54 14.83
12/18/2020 12:15:00 PM 0 32 0.053 17.75 2.45 14.84
12/18/2020 12:30:00 PM 0 32 0.053 17.75 2.48 14.85
12/18/2020 12:45:00 PM 0 32 0.053 17.75 2.39 14.85
12/18/2020 1:00:00 PM 0 32 0.053 17.75 2.36 14.86
12/18/2020 1:15:00 PM 0 32 0.053 17.75 2.41 14.87
12/18/2020 1:30:00 PM 0 32 0.053 17.75 2.45 14.88
12/18/2020 1:45:00 PM 0.01 32.018 0.053 17.75 2.46 14.88
12/18/2020 2:00:00 PM 0.01 32.018 0.053 17.75 2.42 14.89
12/18/2020 2:15:00 PM 0 32 0.053 17.75 2.5 14.89
12/18/2020 2:30:00 PM 0 32 0.052 17.75 2.42 14.89
12/18/2020 2:45:00 PM 0 32 0.053 17.75 2.5 14.89
12/18/2020 3:00:00 PM 0 32 0.053 17.75 2.52 14.89
12/18/2020 3:15:00 PM 0 32 0.053 17.75 2.42 14.88
12/18/2020 3:30:00 PM 0 32 0.053 17.75 2.45 14.88
12/18/2020 3:45:00 PM -0.01 31.982 0.053 17.75 2.51 14.87
12/18/2020 4:00:00 PM -0.01 31.982 0.053 17.75 2.38 14.85
12/18/2020 4:15:00 PM -0.01 31.982 0.053 17.75 2.41 14.83
12/18/2020 4:30:00 PM -0.02 31.964 0.053 17.75 2.38 14.79
12/18/2020 4:45:00 PM -0.02 31.964 0.052 17.75 2.37 14.74
12/18/2020 5:00:00 PM -0.03 31.946 0.053 17.75 2.27 14.7
12/18/2020 5:15:00 PM -0.03 31.946 0.053 17.75 2.29 14.65
12/18/2020 5:30:00 PM -0.03 31.946 0.053 17.75 2.32 14.61
12/18/2020 5:45:00 PM -0.03 31.946 0.053 17.75 2.33 14.58
12/18/2020 6:00:00 PM -0.03 31.946 0.053 17.75 2.27 14.55
12/18/2020 6:15:00 PM -0.04 31.928 0.053 17.75 2.24 14.53
12/18/2020 6:30:00 PM -0.04 31.928 0.054 17.75 2.21 14.51
12/18/2020 6:45:00 PM -0.04 31.928 0.053 17.75 2.25 14.51
12/18/2020 7:00:00 PM -0.04 31.928 0.053 17.75 2.2 14.5
12/18/2020 7:15:00 PM -0.05 31.91 0.054 17.75 2.18 14.49
12/18/2020 7:30:00 PM -0.05 31.91 0.054 17.75 2.17 14.49
12/18/2020 7:45:00 PM -0.04 31.928 0.054 17.75 2.15 14.49
12/18/2020 8:00:00 PM -0.04 31.928 0.054 17.75 2.17 14.49
12/18/2020 8:15:00 PM -0.04 31.928 0.054 17.75 2.19 14.49
12/18/2020 8:30:00 PM -0.04 31.928 0.054 17.75 2.22 14.49
12/18/2020 8:45:00 PM -0.04 31.928 0.054 17.75 2.16 14.49
12/18/2020 9:00:00 PM -0.04 31.928 0.054 17.75 2.21 14.49
12/18/2020 9:15:00 PM -0.04 31.928 0.054 17.75 2.2 14.49
12/18/2020 9:30:00 PM -0.04 31.928 0.054 17.75 2.25 14.49
12/18/2020 9:45:00 PM -0.04 31.928 0.054 17.75 2.26 14.49
12/18/2020 10:00:00 PM -0.04 31.928 0.054 17.75 2.25 14.49
12/18/2020 10:15:00 PM -0.04 31.928 0.054 17.75 2.2 14.49
12/18/2020 10:30:00 PM -0.04 31.928 0.055 17.75 2.21 14.48
12/18/2020 10:45:00 PM -0.04 31.928 0.054 17.75 2.26 14.49
12/18/2020 11:00:00 PM -0.04 31.928 0.054 17.75 2.29 14.48
12/18/2020 11:15:00 PM -0.04 31.928 0.054 17.75 2.3 14.48
12/18/2020 11:30:00 PM -0.04 31.928 0.054 17.75 2.23 14.48
12/18/2020 11:45:00 PM -0.04 31.928 0.054 17.75 2.28 14.48
12/19/2020 12:00:00 AM -0.04 31.928 0.054 17.75 2.27 14.48
12/19/2020 12:15:00 AM -0.03 31.946 0.054 17.75 2.3 14.47
12/19/2020 12:30:00 AM -0.03 31.946 0.054 17.75 2.27 14.47
12/19/2020 12:45:00 AM -0.03 31.946 0.054 17.75 2.35 14.47
12/19/2020 1:00:00 AM -0.03 31.946 0.055 17.75 2.25 14.47
12/19/2020 1:15:00 AM -0.03 31.946 0.055 17.75 2.39 14.46
12/19/2020 1:30:00 AM -0.03 31.946 0.055 17.75 2.37 14.46
12/19/2020 1:45:00 AM -0.03 31.946 0.056 17.75 2.29 14.45
12/19/2020 2:00:00 AM -0.03 31.946 0.055 17.75 2.29 14.45
12/19/2020 2:15:00 AM -0.03 31.946 0.055 17.75 2.34 14.45
12/19/2020 2:30:00 AM -0.03 31.946 0.056 17.75 2.34 14.44
12/19/2020 2:45:00 AM -0.03 31.946 0.056 17.75 2.36 14.43
12/19/2020 3:00:00 AM -0.03 31.946 0.055 17.75 2.33 14.43
12/19/2020 3:15:00 AM -0.03 31.946 0.055 17.75 2.38 14.43
12/19/2020 3:30:00 AM -0.03 31.946 0.056 17.75 2.38 14.43
12/19/2020 3:45:00 AM -0.03 31.946 0.056 17.75 2.38 14.42
12/19/2020 4:00:00 AM -0.03 31.946 0.056 17.75 2.33 14.42
12/19/2020 4:15:00 AM -0.03 31.946 0.056 17.75 2.35 14.42
12/19/2020 4:30:00 AM -0.03 31.946 0.056 17.75 2.4 14.41
12/19/2020 4:45:00 AM -0.03 31.946 0.056 17.75 2.36 14.41
12/19/2020 5:00:00 AM -0.03 31.946 0.056 17.75 2.37 14.41
12/19/2020 5:15:00 AM -0.03 31.946 0.056 17.75 2.41 14.41
12/19/2020 5:30:00 AM -0.03 31.946 0.056 17.75 2.37 14.4
12/19/2020 5:45:00 AM -0.03 31.946 0.056 17.75 2.43 14.4
12/19/2020 6:00:00 AM -0.03 31.946 0.056 17.75 2.45 14.4
12/19/2020 6:15:00 AM -0.03 31.946 0.056 17.75 2.45 14.39
12/19/2020 6:30:00 AM -0.03 31.946 0.055 17.75 2.5 14.39
12/19/2020 6:45:00 AM -0.03 31.946 0.056 17.75 2.43 14.39
12/19/2020 7:00:00 AM -0.03 31.946 0.056 17.75 2.45 14.39
12/19/2020 7:15:00 AM -0.03 31.946 0.056 17.75 2.46 14.38
12/19/2020 7:30:00 AM -0.03 31.946 0.056 17.75 2.43 14.38
12/19/2020 7:45:00 AM -0.03 31.946 0.056 17.75 2.49 14.38
12/19/2020 8:00:00 AM -0.03 31.946 0.056 17.75 2.45 14.38
12/19/2020 8:15:00 AM -0.03 31.946 0.056 17.75 2.41 14.41
12/19/2020 8:30:00 AM -0.03 31.946 0.056 17.75 2.18 14.43
12/19/2020 8:45:00 AM -0.02 31.964 0.056 17.75 2.35 14.46
12/19/2020 9:00:00 AM -0.02 31.964 0.057 17.75 2.2 14.5
12/19/2020 9:15:00 AM -0.02 31.964 0.056 17.75 2.16 14.54
12/19/2020 9:30:00 AM -0.02 31.964 0.056 17.75 2.22 14.59
12/19/2020 9:45:00 AM -0.02 31.964 0.056 17.75 2.24 14.63
12/19/2020 10:00:00 AM -0.02 31.964 0.056 17.75 2.34 14.67
12/19/2020 10:15:00 AM -0.01 31.982 0.056 17.75 2.25 14.72
12/19/2020 10:30:00 AM -0.01 31.982 0.057 17.75 2.45 14.75
12/19/2020 10:45:00 AM -0.01 31.982 0.056 17.75 2.35 14.78
12/19/2020 11:00:00 AM -0.01 31.982 0.056 17.75 2.45 14.82
12/19/2020 11:15:00 AM 0 32 0.056 17.75 2.29 14.83
12/19/2020 11:30:00 AM 0.01 32.018 0.056 17.75 2.54 14.85
12/19/2020 11:45:00 AM 0 32 0.056 17.75 2.55 14.87
12/19/2020 12:00:00 PM 0 32 0.056 17.75 2.52 14.88
12/19/2020 12:15:00 PM 0 32 0.056 17.75 2.45 14.88
12/19/2020 12:30:00 PM 0 32 0.055 17.75 2.58 14.88
12/19/2020 12:45:00 PM 0.01 32.018 0.056 17.75 2.55 14.88
12/19/2020 1:00:00 PM 0.02 32.036 0.056 17.75 2.62 14.89
12/19/2020 1:15:00 PM 0.03 32.054 0.055 17.75 2.62 14.88
12/19/2020 1:30:00 PM 0.03 32.054 0.055 17.75 2.67 14.88
12/19/2020 1:45:00 PM 0.03 32.054 0.055 17.75 2.79 14.87
12/19/2020 2:00:00 PM 0.04 32.072 0.055 17.75 2.7 14.87
12/19/2020 2:15:00 PM 0.03 32.054 0.056 17.75 2.71 14.87
12/19/2020 2:30:00 PM 0.02 32.036 0.055 17.75 2.85 14.87
12/19/2020 2:45:00 PM 0.02 32.036 0.056 17.75 2.92 14.86
12/19/2020 3:00:00 PM 0.02 32.036 0.056 17.75 2.97 14.85
12/19/2020 3:15:00 PM 0.01 32.018 0.055 17.75 3 14.84
12/19/2020 3:30:00 PM 0.01 32.018 0.055 17.75 3.12 14.83
12/19/2020 3:45:00 PM 0 32 0.055 17.75 3.01 14.81
12/19/2020 4:00:00 PM 0 32 0.055 17.75 3.06 14.78
12/19/2020 4:15:00 PM -0.01 31.982 0.055 17.75 3.01 14.75
12/19/2020 4:30:00 PM -0.01 31.982 0.055 17.75 3.24 14.7
12/19/2020 4:45:00 PM -0.01 31.982 0.055 17.75 4.48 14.66
12/19/2020 5:00:00 PM -0.01 31.982 0.056 17.75 2.67 14.6
12/19/2020 5:15:00 PM -0.02 31.964 0.055 17.75 2.74 14.56
12/19/2020 5:30:00 PM -0.02 31.964 0.055 17.75 2.74 14.51
12/19/2020 5:45:00 PM -0.02 31.964 0.055 17.75 2.66 14.48
12/19/2020 6:00:00 PM -0.02 31.964 0.055 17.75 2.71 14.45
12/19/2020 6:15:00 PM -0.02 31.964 0.055 17.75 2.61 14.42
12/19/2020 6:30:00 PM -0.02 31.964 0.055 17.75 2.59 14.4
12/19/2020 6:45:00 PM -0.01 31.982 0.055 17.75 2.55 14.38
12/19/2020 7:00:00 PM -0.02 31.964 0.055 17.75 2.58 14.37
12/19/2020 7:15:00 PM -0.01 31.982 0.055 17.75 2.54 14.36
12/19/2020 7:30:00 PM -0.01 31.982 0.055 17.75 2.62 14.34
12/19/2020 7:45:00 PM -0.01 31.982 0.055 17.75 2.53 14.33
12/19/2020 8:00:00 PM -0.01 31.982 0.055 17.75 2.5 14.33
12/19/2020 8:15:00 PM -0.01 31.982 0.055 17.75 2.45 14.32
12/19/2020 8:30:00 PM -0.02 31.964 0.055 17.75 2.48 14.31
12/19/2020 8:45:00 PM -0.02 31.964 0.055 17.75 2.42 14.3
12/19/2020 9:00:00 PM -0.02 31.964 0.055 17.75 2.43 14.3
12/19/2020 9:15:00 PM -0.02 31.964 0.056 17.75 2.39 14.29
12/19/2020 9:30:00 PM -0.02 31.964 0.055 17.75 2.41 14.29
12/19/2020 9:45:00 PM -0.01 31.982 0.055 17.75 2.41 14.28
12/19/2020 10:00:00 PM -0.01 31.982 0.055 17.75 2.31 14.28
12/19/2020 10:15:00 PM -0.01 31.982 0.055 17.75 2.3 14.28
12/19/2020 10:30:00 PM -0.01 31.982 0.055 17.75 2.28 14.27
12/19/2020 10:45:00 PM -0.01 31.982 0.055 17.75 2.3 14.27
12/19/2020 11:00:00 PM -0.01 31.982 0.055 17.75 2.27 14.26
12/19/2020 11:15:00 PM -0.01 31.982 0.056 17.75 2.24 14.25
12/19/2020 11:30:00 PM -0.01 31.982 0.055 17.75 2.32 14.26
12/19/2020 11:45:00 PM -0.01 31.982 0.055 17.75 2.31 14.25
12/20/2020 12:00:00 AM -0.01 31.982 0.055 17.75 2.24 14.25
12/20/2020 12:15:00 AM -0.02 31.964 0.055 17.75 2.21 14.25
12/20/2020 12:30:00 AM -0.02 31.964 0.055 17.75 2.22 14.25
12/20/2020 12:45:00 AM -0.02 31.964 0.055 17.75 2.26 14.25
12/20/2020 1:00:00 AM -0.02 31.964 0.055 17.75 2.24 14.25
12/20/2020 1:15:00 AM -0.02 31.964 0.055 17.75 2.23 14.24
12/20/2020 1:30:00 AM -0.02 31.964 0.055 17.75 2.42 14.25
12/20/2020 1:45:00 AM -0.01 31.982 0.055 17.75 2.2 14.24
12/20/2020 2:00:00 AM -0.01 31.982 0.055 17.75 2.17 14.24
12/20/2020 2:15:00 AM -0.01 31.982 0.055 17.75 2.31 14.24
12/20/2020 2:30:00 AM -0.01 31.982 0.055 17.75 2.21 14.24
12/20/2020 2:45:00 AM -0.01 31.982 0.056 17.75 2.17 14.23
12/20/2020 3:00:00 AM -0.01 31.982 0.055 17.75 2.2 14.23
12/20/2020 3:15:00 AM -0.01 31.982 0.055 17.75 2.21 14.23
12/20/2020 3:30:00 AM -0.01 31.982 0.056 17.75 2.23 14.23
12/20/2020 3:45:00 AM -0.02 31.964 0.055 17.75 2.29 14.22
12/20/2020 4:00:00 AM -0.02 31.964 0.055 17.75 2.27 14.23
12/20/2020 4:15:00 AM -0.01 31.982 0.055 17.75 2.17 14.22
12/20/2020 4:30:00 AM -0.02 31.964 0.056 17.75 2.26 14.23
12/20/2020 4:45:00 AM -0.02 31.964 0.055 17.75 2.28 14.22
12/20/2020 5:00:00 AM -0.02 31.964 0.056 17.75 2.37 14.22
12/20/2020 5:15:00 AM -0.02 31.964 0.056 17.75 2.17 14.22
12/20/2020 5:30:00 AM -0.02 31.964 0.056 17.75 2.22 14.22
12/20/2020 5:45:00 AM -0.02 31.964 0.056 17.75 2.25 14.22
12/20/2020 6:00:00 AM -0.02 31.964 0.056 17.75 2.48 14.22
12/20/2020 6:15:00 AM -0.02 31.964 0.055 17.75 2.19 14.21
12/20/2020 6:30:00 AM -0.02 31.964 0.056 17.75 2.16 14.21
12/20/2020 6:45:00 AM -0.01 31.982 0.056 17.75 2.23 14.21
12/20/2020 7:00:00 AM -0.02 31.964 0.056 17.75 2.15 14.21
12/20/2020 7:15:00 AM -0.02 31.964 0.056 17.75 2.22 14.21
12/20/2020 7:30:00 AM -0.02 31.964 0.056 17.75 2.17 14.21
12/20/2020 7:45:00 AM -0.02 31.964 0.056 17.75 2.35 14.22
12/20/2020 8:00:00 AM -0.02 31.964 0.055 17.75 2.18 14.22
12/20/2020 8:15:00 AM -0.02 31.964 0.055 17.75 2.21 14.23
12/20/2020 8:30:00 AM -0.02 31.964 0.056 17.75 2.19 14.25
12/20/2020 8:45:00 AM -0.02 31.964 0.055 17.75 2.16 14.27
12/20/2020 9:00:00 AM -0.01 31.982 0.055 17.75 2.16 14.31
12/20/2020 9:15:00 AM -0.01 31.982 0.056 17.75 2.21 14.34
12/20/2020 9:30:00 AM -0.01 31.982 0.056 17.75 2.15 14.38
12/20/2020 9:45:00 AM 0 32 0.056 17.75 2.14 14.42
12/20/2020 10:00:00 AM 0.01 32.018 0.055 17.75 2.16 14.45
12/20/2020 10:15:00 AM 0.02 32.036 0.055 17.75 2.2 14.49
12/20/2020 10:30:00 AM 0.02 32.036 0.056 17.75 2.15 14.52
12/20/2020 10:45:00 AM 0.03 32.054 0.056 17.75 2.22 14.54
12/20/2020 11:00:00 AM 0.03 32.054 0.06 17.75 2.21 14.56
12/20/2020 11:15:00 AM 0.03 32.054 0.063 17.75 2.23 14.57
12/20/2020 11:30:00 AM 0.03 32.054 0.063 17.75 2.45 14.58
12/20/2020 11:45:00 AM 0.03 32.054 0.062 17.75 2.38 14.58
12/20/2020 12:00:00 PM 0.03 32.054 0.063 17.75 2.36 14.58
12/20/2020 12:15:00 PM 0.03 32.054 0.063 17.75 2.3 14.57
12/20/2020 12:30:00 PM 0.02 32.036 0.063 17.75 2.22 14.57
12/20/2020 12:45:00 PM 0.02 32.036 0.065 17.75 2.28 14.56
12/20/2020 1:00:00 PM 0.02 32.036 0.062 17.75 2.29 14.55
12/20/2020 1:15:00 PM 0.03 32.054 0.061 17.75 2.28 14.55
12/20/2020 1:30:00 PM 0.03 32.054 0.061 17.75 2.3 14.55
12/20/2020 1:45:00 PM 0.03 32.054 0.06 17.75 2.32 14.56
12/20/2020 2:00:00 PM 0.03 32.054 0.061 17.75 2.42 14.56
12/20/2020 2:15:00 PM 0.03 32.054 0.065 17.75 2.32 14.55
12/20/2020 2:30:00 PM 0.02 32.036 0.063 17.75 2.33 14.54
12/20/2020 2:45:00 PM 0.02 32.036 0.065 17.75 2.22 14.52
12/20/2020 3:00:00 PM 0.02 32.036 0.062 17.75 2.27 14.52
12/20/2020 3:15:00 PM 0.02 32.036 0.063 17.75 2.41 14.5
12/20/2020 3:30:00 PM 0.02 32.036 0.064 17.75 2.49 14.49
12/20/2020 3:45:00 PM 0.02 32.036 0.064 17.75 2.35 14.48
12/20/2020 4:00:00 PM 0.01 32.018 0.062 17.75 2.48 14.45
12/20/2020 4:15:00 PM 0.01 32.018 0.061 17.75 2.27 14.42
12/20/2020 4:30:00 PM 0.01 32.018 0.06 17.75 2.36 14.39
12/20/2020 4:45:00 PM 0.01 32.018 0.059 17.75 2.27 14.35
12/20/2020 5:00:00 PM 0 32 0.058 17.75 2.28 14.31
12/20/2020 5:15:00 PM 0 32 0.057 17.75 2.41 14.28
12/20/2020 5:30:00 PM 0 32 0.057 17.75 2.32 14.25
12/20/2020 5:45:00 PM 0 32 0.057 17.75 2.3 14.23
12/20/2020 6:00:00 PM 0 32 0.057 17.75 2.33 14.22
12/20/2020 6:15:00 PM 0.01 32.018 0.057 17.75 2.33 14.2
12/20/2020 6:30:00 PM 0.01 32.018 0.057 17.75 2.25 14.19
12/20/2020 6:45:00 PM 0.01 32.018 0.057 17.75 2.27 14.18
12/20/2020 7:00:00 PM 0.01 32.018 0.057 17.75 2.32 14.17
12/20/2020 7:15:00 PM 0.01 32.018 0.058 17.75 2.29 14.17
12/20/2020 7:30:00 PM 0.01 32.018 0.058 17.75 2.45 14.16
12/20/2020 7:45:00 PM 0.01 32.018 0.056 17.75 2.33 14.15
12/20/2020 8:00:00 PM 0.01 32.018 0.056 17.75 2.31 14.15
12/20/2020 8:15:00 PM 0.01 32.018 0.056 17.75 2.31 14.14
12/20/2020 8:30:00 PM 0.01 32.018 0.056 17.75 2.29 14.14
12/20/2020 8:45:00 PM 0.01 32.018 0.056 17.75 2.32 14.14
12/20/2020 9:00:00 PM 0.01 32.018 0.056 17.75 2.25 14.14
12/20/2020 9:15:00 PM 0.01 32.018 0.056 17.75 2.39 14.14
12/20/2020 9:30:00 PM 0.01 32.018 0.056 17.75 2.35 14.14
12/20/2020 9:45:00 PM 0.01 32.018 0.055 17.75 2.45 14.14
12/20/2020 10:00:00 PM 0.01 32.018 0.055 17.75 2.33 14.13
12/20/2020 10:15:00 PM 0.01 32.018 0.055 17.75 2.34 14.13
12/20/2020 10:30:00 PM 0.01 32.018 0.055 17.75 2.4 14.13
12/20/2020 10:45:00 PM 0.01 32.018 0.056 17.75 2.42 14.12
12/20/2020 11:00:00 PM 0.01 32.018 0.055 17.75 2.45 14.12
12/20/2020 11:15:00 PM 0.01 32.018 0.055 17.75 2.41 14.12
12/20/2020 11:30:00 PM 0.01 32.018 0.055 17.75 2.29 14.12
12/20/2020 11:45:00 PM 0.01 32.018 0.056 17.75 2.46 14.12
12/21/2020 12:00:00 AM 0.01 32.018 0.056 17.75 2.37 14.12
12/21/2020 12:15:00 AM 0.01 32.018 0.055 17.75 2.43 14.13
12/21/2020 12:30:00 AM 0.01 32.018 0.056 17.75 2.31 14.13
12/21/2020 12:45:00 AM 0.01 32.018 0.055 17.75 2.33 14.12
12/21/2020 1:00:00 AM 0.01 32.018 0.056 17.75 2.3 14.12
12/21/2020 1:15:00 AM 0.01 32.018 0.055 17.75 2.37 14.12
12/21/2020 1:30:00 AM 0.02 32.036 0.055 17.75 2.38 14.12
12/21/2020 1:45:00 AM 0.02 32.036 0.055 17.75 2.32 14.11
12/21/2020 2:00:00 AM 0.02 32.036 0.056 17.75 2.36 14.11
12/21/2020 2:15:00 AM 0.02 32.036 0.056 17.75 2.25 14.11
12/21/2020 2:30:00 AM 0.01 32.018 0.056 17.75 2.42 14.11
12/21/2020 2:45:00 AM 0.01 32.018 0.057 17.75 2.3 14.12
12/21/2020 3:00:00 AM 0 32 0.057 17.75 2.37 14.12
12/21/2020 3:15:00 AM 0.01 32.018 0.057 17.75 2.28 14.12
12/21/2020 3:30:00 AM 0.01 32.018 0.057 17.75 2.3 14.12
12/21/2020 3:45:00 AM 0.02 32.036 0.057 17.75 2.37 14.12
12/21/2020 4:00:00 AM 0.02 32.036 0.056 17.75 2.28 14.12
12/21/2020 4:15:00 AM 0.02 32.036 0.055 17.75 2.33 14.11
12/21/2020 4:30:00 AM 0.02 32.036 0.056 17.75 2.35 14.11
12/21/2020 4:45:00 AM 0.03 32.054 0.056 17.75 2.39 14.12
12/21/2020 5:00:00 AM 0.03 32.054 0.056 17.75 2.55 14.11
12/21/2020 5:15:00 AM 0.03 32.054 0.056 17.75 2.53 14.1
12/21/2020 5:30:00 AM 0.03 32.054 0.056 17.75 2.37 14.1
12/21/2020 5:45:00 AM 0.03 32.054 0.056 17.75 2.31 14.11
12/21/2020 6:00:00 AM 0.03 32.054 0.056 17.75 2.42 14.1
12/21/2020 6:15:00 AM 0.03 32.054 0.056 17.75 2.34 14.1
12/21/2020 6:30:00 AM 0.03 32.054 0.056 17.75 2.3 14.1
12/21/2020 6:45:00 AM 0.03 32.054 0.056 17.75 2.29 14.1
12/21/2020 7:00:00 AM 0.03 32.054 0.056 17.75 2.3 14.1
12/21/2020 7:15:00 AM 0.03 32.054 0.056 17.75 2.34 14.1
12/21/2020 7:30:00 AM 0.02 32.036 0.056 17.75 2.38 14.1
12/21/2020 7:45:00 AM 0.02 32.036 0.056 17.75 2.38 14.11
12/21/2020 8:00:00 AM 0.02 32.036 0.056 17.75 2.31 14.13
12/21/2020 8:15:00 AM 0.03 32.054 0.056 17.75 2.26 14.17
12/21/2020 8:30:00 AM 0.05 32.09 0.056 17.75 2.2 14.21
12/21/2020 8:45:00 AM 0.06 32.108 0.056 17.75 2.27 14.27
12/21/2020 9:00:00 AM 0.07 32.126 0.056 17.75 2.32 14.3
12/21/2020 9:15:00 AM 0.08 32.144 0.056 17.74 2.29 14.34
12/21/2020 9:30:00 AM 0.09 32.162 0.055 17.74 2.24 14.38
12/21/2020 9:45:00 AM 0.09 32.162 0.056 17.74 2.27 14.4
12/21/2020 10:00:00 AM 0.1 32.18 0.056 17.74 2.35 14.43
12/21/2020 10:15:00 AM 0.11 32.198 0.056 17.74 2.3 14.44
12/21/2020 10:30:00 AM 0.12 32.216 0.056 17.74 2.37 14.44
12/21/2020 10:45:00 AM 0.13 32.234 0.056 17.74 2.39 14.45
12/21/2020 11:00:00 AM 0.15 32.27 0.056 17.74 2.38 14.45
12/21/2020 11:15:00 AM 0.11 32.198 0.057 6.8 1.96 14.2
12/21/2020 11:30:00 AM 0.13 32.234 0.057 6.67 2.05 14.22
12/21/2020 11:45:00 AM 0.15 32.27 0.058 6.68 2.04 14.23
12/21/2020 12:00:00 PM 0.15 32.27 0.058 6.71 2.19 14.23
12/21/2020 12:15:00 PM 0.15 32.27 0.057 6.68 2.24 14.22
12/21/2020 12:30:00 PM 0.16 32.288 0.058 6.67 2.1 14.21
12/21/2020 12:45:00 PM 0.17 32.306 0.058 6.66 2.08 14.21
12/21/2020 1:00:00 PM 0.18 32.324 0.058 6.66 2.09 14.2
12/21/2020 1:15:00 PM 0.2 32.36 0.058 6.65 2.05 14.2
12/21/2020 1:30:00 PM 0.23 32.414 0.058 6.66 2.09 14.2
12/21/2020 1:45:00 PM 0.25 32.45 0.058 6.68 2.44 14.2
12/21/2020 2:00:00 PM 0.25 32.45 0.058 6.67 2.12 14.18
12/21/2020 2:15:00 PM 0.25 32.45 0.058 6.66 2.03 14.17
12/21/2020 2:30:00 PM 0.25 32.45 0.06 6.67 2.27 14.16
12/21/2020 2:45:00 PM 0.24 32.432 0.06 6.67 2.03 14.14
12/21/2020 3:00:00 PM 0.23 32.414 0.06 6.66 2.03 14.12
12/21/2020 3:15:00 PM 0.23 32.414 0.06 6.65 2.07 14.11
12/21/2020 3:30:00 PM 0.23 32.414 0.059 6.81 1.98 14.1
12/21/2020 3:45:00 PM 0.21 32.378 0.058 6.64 2.32 14.07
12/21/2020 4:00:00 PM 0.21 32.378 0.058 6.63 2.14 14.04
12/21/2020 4:15:00 PM 0.2 32.36 0.058 6.61 2.17 14
12/21/2020 4:30:00 PM 0.2 32.36 0.058 6.61 2.02 13.95
12/21/2020 4:45:00 PM 0.19 32.342 0.058 6.61 2.1 13.91
12/21/2020 5:00:00 PM 0.19 32.342 0.058 6.59 2.06 13.88
12/21/2020 5:15:00 PM 0.18 32.324 0.058 6.59 2.02 13.84
12/21/2020 5:30:00 PM 0.18 32.324 0.057 6.59 2.06 13.82
12/21/2020 5:45:00 PM 0.18 32.324 0.057 6.58 2.08 13.8
12/21/2020 6:00:00 PM 0.18 32.324 0.057 6.58 2.12 13.78
12/21/2020 6:15:00 PM 0.18 32.324 0.057 6.58 2.04 13.77
12/21/2020 6:30:00 PM 0.17 32.306 0.057 6.57 2.03 13.76
12/21/2020 6:45:00 PM 0.17 32.306 0.057 6.57 2.16 13.75
12/21/2020 7:00:00 PM 0.17 32.306 0.057 6.56 2.08 13.74
12/21/2020 7:15:00 PM 0.17 32.306 0.057 6.54 1.99 13.73
12/21/2020 7:30:00 PM 0.17 32.306 0.057 6.56 1.98 13.73
12/21/2020 7:45:00 PM 0.17 32.306 0.057 6.56 2.11 13.73
12/21/2020 8:00:00 PM 0.17 32.306 0.057 6.55 2.03 13.73
12/21/2020 8:15:00 PM 0.17 32.306 0.057 6.54 2.04 13.72
12/21/2020 8:30:00 PM 0.17 32.306 0.057 6.54 2.11 13.72
12/21/2020 8:45:00 PM 0.18 32.324 0.057 6.55 2.01 13.72
12/21/2020 9:00:00 PM 0.18 32.324 0.057 6.55 2.04 13.72
12/21/2020 9:15:00 PM 0.18 32.324 0.057 6.53 2.01 13.71
12/21/2020 9:30:00 PM 0.18 32.324 0.057 6.53 1.99 13.71
12/21/2020 9:45:00 PM 0.18 32.324 0.057 6.53 2.08 13.7
12/21/2020 10:00:00 PM 0.19 32.342 0.058 6.55 2.07 13.7
12/21/2020 10:15:00 PM 0.19 32.342 0.058 6.54 2.05 13.7
12/21/2020 10:30:00 PM 0.19 32.342 0.058 6.54 2.03 13.7
12/21/2020 10:45:00 PM 0.19 32.342 0.058 6.54 1.99 13.7
12/21/2020 11:00:00 PM 0.2 32.36 0.058 6.53 2 13.69
12/21/2020 11:15:00 PM 0.21 32.378 0.058 6.54 2.04 13.69
12/21/2020 11:30:00 PM 0.21 32.378 0.058 6.52 2.09 13.68
12/21/2020 11:45:00 PM 0.22 32.396 0.058 6.53 2.02 13.68
12/22/2020 12:00:00 AM 0.22 32.396 0.058 6.53 2.05 13.68
12/22/2020 12:15:00 AM 0.22 32.396 0.058 6.52 2.08 13.68
12/22/2020 12:30:00 AM 0.22 32.396 0.058 6.53 2.02 13.67
12/22/2020 12:45:00 AM 0.22 32.396 0.059 6.52 2.06 13.66
12/22/2020 1:00:00 AM 0.23 32.414 0.059 6.53 1.99 13.67
12/22/2020 1:15:00 AM 0.23 32.414 0.058 6.52 2.06 13.66
12/22/2020 1:30:00 AM 0.22 32.396 0.059 6.52 2.05 13.66
12/22/2020 1:45:00 AM 0.21 32.378 0.061 6.54 2.15 13.65
12/22/2020 2:00:00 AM 0.21 32.378 0.062 6.53 2.04 13.66
12/22/2020 2:15:00 AM 0.22 32.396 0.062 6.52 2.08 13.66
12/22/2020 2:30:00 AM 0.23 32.414 0.061 6.53 2.03 13.66
12/22/2020 2:45:00 AM 0.24 32.432 0.06 6.53 2.02 13.65
12/22/2020 3:00:00 AM 0.25 32.45 0.06 6.53 2.02 13.65
12/22/2020 3:15:00 AM 0.26 32.468 0.06 6.53 2.05 13.65
12/22/2020 3:30:00 AM 0.26 32.468 0.059 6.54 1.98 13.65
12/22/2020 3:45:00 AM 0.27 32.486 0.059 6.53 2.02 13.65
12/22/2020 4:00:00 AM 0.27 32.486 0.059 6.54 2.12 13.65
12/22/2020 4:15:00 AM 0.28 32.504 0.059 6.53 2.03 13.65
12/22/2020 4:30:00 AM 0.28 32.504 0.059 6.53 2.08 13.65
12/22/2020 4:45:00 AM 0.29 32.522 0.059 6.53 2.04 13.64
12/22/2020 5:00:00 AM 0.3 32.54 0.059 6.53 2.05 13.64
12/22/2020 5:15:00 AM 0.3 32.54 0.059 6.53 2.16 13.65
12/22/2020 5:30:00 AM 0.29 32.522 0.059 6.52 2.05 13.64
12/22/2020 5:45:00 AM 0.3 32.54 0.06 6.54 2.03 13.64
12/22/2020 6:00:00 AM 0.3 32.54 0.06 6.54 2.02 13.64
12/22/2020 6:15:00 AM 0.29 32.522 0.06 6.55 2.06 13.64
12/22/2020 6:30:00 AM 0.28 32.504 0.06 6.53 2.02 13.65
12/22/2020 6:45:00 AM 0.28 32.504 0.061 6.54 2.03 13.65
12/22/2020 7:00:00 AM 0.29 32.522 0.062 6.54 2.07 13.65
12/22/2020 7:15:00 AM 0.31 32.558 0.062 6.56 2.15 13.66
12/22/2020 7:30:00 AM 0.32 32.576 0.061 6.56 2.09 13.65
12/22/2020 7:45:00 AM 0.33 32.594 0.061 6.55 2.12 13.66
12/22/2020 8:00:00 AM 0.33 32.594 0.061 6.54 2.09 13.68
12/22/2020 8:15:00 AM 0.34 32.612 0.061 6.55 2.12 13.71
12/22/2020 8:30:00 AM 0.36 32.648 0.061 6.56 2.11 13.76
12/22/2020 8:45:00 AM 0.39 32.702 0.06 6.58 2.11 13.81
12/22/2020 9:00:00 AM 0.43 32.774 0.06 6.6 2 13.86
12/22/2020 9:15:00 AM 0.45 32.81 0.06 6.6 2.13 13.88
12/22/2020 9:30:00 AM 0.47 32.846 0.06 6.61 2.03 13.91
12/22/2020 9:45:00 AM 0.5 32.9 0.06 6.62 2.1 13.93
12/22/2020 10:00:00 AM 0.54 32.972 0.06 6.63 2.11 13.96
12/22/2020 10:15:00 AM 0.59 33.062 0.061 6.64 2.05 13.99
12/22/2020 10:30:00 AM 0.63 33.134 0.062 6.67 2.06 14
12/22/2020 10:45:00 AM 0.68 33.224 0.063 6.67 2.09 14.01
12/22/2020 11:00:00 AM 0.76 33.368 0.064 6.75 2.05 14.02
12/22/2020 11:15:00 AM 0.85 33.53 0.064 6.71 2.09 14.02
12/22/2020 11:30:00 AM 0.9 33.62 0.064 6.71 2.13 14.03
12/22/2020 11:45:00 AM 0.89 33.602 0.064 6.71 2.14 14.01
12/22/2020 12:00:00 PM 0.92 33.656 0.063 6.71 2.21 14
12/22/2020 12:15:00 PM 0.92 33.656 0.063 6.71 2.21 13.99
12/22/2020 12:30:00 PM 0.96 33.728 0.062 6.7 2.31 13.98
12/22/2020 12:45:00 PM 0.99 33.782 0.062 6.71 2.29 13.98
12/22/2020 1:00:00 PM 0.99 33.782 0.062 6.71 2.35 13.96
12/22/2020 1:15:00 PM 1.01 33.818 0.062 6.71 2.32 13.95
12/22/2020 1:30:00 PM 1.02 33.836 0.061 6.71 2.31 13.94
12/22/2020 1:45:00 PM 1.02 33.836 0.061 6.7 2.39 13.93
12/22/2020 2:00:00 PM 1.01 33.818 0.062 6.72 2.16 13.9
12/22/2020 2:15:00 PM 1.01 33.818 0.062 6.7 2.25 13.89
12/22/2020 2:30:00 PM 1.02 33.836 0.062 6.7 2.25 13.87
12/22/2020 2:45:00 PM 1.02 33.836 0.063 6.7 2.27 13.86
12/22/2020 3:00:00 PM 1.04 33.872 0.062 6.71 2.24 13.87
12/22/2020 3:15:00 PM 1.06 33.908 0.062 6.72 2.19 13.86
12/22/2020 3:30:00 PM 1.06 33.908 0.061 6.69 2.26 13.84
12/22/2020 3:45:00 PM 1.08 33.944 0.062 6.7 2.23 13.83
12/22/2020 4:00:00 PM 1.08 33.944 0.062 6.7 2.3 13.82
12/22/2020 4:15:00 PM 1.07 33.926 0.061 6.69 2.35 13.78
12/22/2020 4:30:00 PM 1.07 33.926 0.061 6.68 2.16 13.75
12/22/2020 4:45:00 PM 1.06 33.908 0.061 6.68 2.17 13.71
12/22/2020 5:00:00 PM 1.05 33.89 0.061 6.65 2.19 13.66
12/22/2020 5:15:00 PM 1.04 33.872 0.061 6.65 2.21 13.62
12/22/2020 5:30:00 PM 1.04 33.872 0.061 6.63 2.15 13.6
12/22/2020 5:45:00 PM 1.05 33.89 0.061 6.64 2.2 13.58
12/22/2020 6:00:00 PM 1.06 33.908 0.061 6.63 2.11 13.56
12/22/2020 6:15:00 PM 1.07 33.926 0.061 6.62 2.14 13.55
12/22/2020 6:30:00 PM 1.07 33.926 0.061 6.62 2.28 13.54
12/22/2020 6:45:00 PM 1.07 33.926 0.061 6.61 2.25 13.53
12/22/2020 7:00:00 PM 1.08 33.944 0.061 6.61 2.21 13.52
12/22/2020 7:15:00 PM 1.09 33.962 0.061 6.61 2.19 13.52
12/22/2020 7:30:00 PM 1.09 33.962 0.061 6.61 2.13 13.52
12/22/2020 7:45:00 PM 1.1 33.98 0.061 6.61 2.28 13.52
12/22/2020 8:00:00 PM 1.11 33.998 0.062 6.6 2.16 13.51
12/22/2020 8:15:00 PM 1.12 34.016 0.062 6.61 2.25 13.52
12/22/2020 8:30:00 PM 1.13 34.034 0.062 6.61 2.2 13.51
12/22/2020 8:45:00 PM 1.15 34.07 0.062 6.6 2.12 13.51
12/22/2020 9:00:00 PM 1.16 34.088 0.062 6.6 2.09 13.51
12/22/2020 9:15:00 PM 1.17 34.106 0.062 6.6 2.21 13.5
12/22/2020 9:30:00 PM 1.19 34.142 0.062 6.6 2.22 13.49
12/22/2020 9:45:00 PM 1.2 34.16 0.062 6.6 2.19 13.5
12/22/2020 10:00:00 PM 1.21 34.178 0.062 6.59 2.17 13.5
12/22/2020 10:15:00 PM 1.22 34.196 0.062 6.61 2.21 13.49
12/22/2020 10:30:00 PM 1.23 34.214 0.062 6.6 2.22 13.48
12/22/2020 10:45:00 PM 1.23 34.214 0.063 6.6 2.24 13.49
12/22/2020 11:00:00 PM 1.23 34.214 0.062 6.6 2.24 13.48
12/22/2020 11:15:00 PM 1.22 34.196 0.063 6.6 2.17 13.47
12/22/2020 11:30:00 PM 1.21 34.178 0.063 6.61 2.21 13.48
12/22/2020 11:45:00 PM 1.22 34.196 0.063 6.61 2.15 13.48
12/23/2020 12:00:00 AM 1.23 34.214 0.063 6.61 2.17 13.48
12/23/2020 12:15:00 AM 1.25 34.25 0.063 6.61 2.15 13.48
12/23/2020 12:30:00 AM 1.26 34.268 0.063 6.61 2.19 13.48
12/23/2020 12:45:00 AM 1.26 34.268 0.063 6.6 2.18 13.48
12/23/2020 1:00:00 AM 1.26 34.268 0.063 6.61 2.16 13.49
12/23/2020 1:15:00 AM 1.27 34.286 0.063 6.6 2.15 13.48
12/23/2020 1:30:00 AM 1.28 34.304 0.063 6.61 2.12 13.48
12/23/2020 1:45:00 AM 1.29 34.322 0.063 6.6 2.15 13.48
12/23/2020 2:00:00 AM 1.29 34.322 0.063 6.61 2.11 13.47
12/23/2020 2:15:00 AM 1.29 34.322 0.063 6.6 2.15 13.47
12/23/2020 2:30:00 AM 1.3 34.34 0.063 6.61 2.19 13.47
12/23/2020 2:45:00 AM 1.3 34.34 0.063 6.6 2.08 13.47
12/23/2020 3:00:00 AM 1.31 34.358 0.063 6.62 2.1 13.47
12/23/2020 3:15:00 AM 1.31 34.358 0.063 6.62 2.1 13.48
12/23/2020 3:30:00 AM 1.31 34.358 0.063 6.61 2.04 13.48
12/23/2020 3:45:00 AM 1.31 34.358 0.063 6.6 2.07 13.47
12/23/2020 4:00:00 AM 1.29 34.322 0.063 6.6 2.11 13.47
12/23/2020 4:15:00 AM 1.28 34.304 0.063 6.6 2.12 13.48
12/23/2020 4:30:00 AM 1.26 34.268 0.063 6.6 2.12 13.48
12/23/2020 4:45:00 AM 1.23 34.214 0.063 6.59 2.14 13.49
12/23/2020 5:00:00 AM 1.2 34.16 0.063 6.61 2.12 13.5
12/23/2020 5:15:00 AM 1.18 34.124 0.063 6.6 2.15 13.51
12/23/2020 5:30:00 AM 1.15 34.07 0.063 6.6 2.06 13.51
12/23/2020 5:45:00 AM 1.12 34.016 0.063 6.6 2.04 13.53
12/23/2020 6:00:00 AM 1.1 33.98 0.063 6.59 2.16 13.54
12/23/2020 6:15:00 AM 1.08 33.944 0.063 6.6 2.06 13.54
12/23/2020 6:30:00 AM 1.06 33.908 0.063 6.59 2.08 13.56
12/23/2020 6:45:00 AM 1.03 33.854 0.063 6.59 2.02 13.57
12/23/2020 7:00:00 AM 1.01 33.818 0.063 6.59 2.05 13.58
12/23/2020 7:15:00 AM 0.99 33.782 0.064 6.6 2.01 13.59
12/23/2020 7:30:00 AM 0.96 33.728 0.063 6.6 2.04 13.61
12/23/2020 7:45:00 AM 0.94 33.692 0.063 6.6 2 13.63
12/23/2020 8:00:00 AM 0.92 33.656 0.063 6.59 2.05 13.66
12/23/2020 8:15:00 AM 0.9 33.62 0.064 6.61 2.01 13.71
12/23/2020 8:30:00 AM 0.9 33.62 0.064 6.62 2.01 13.77
12/23/2020 8:45:00 AM 0.91 33.638 0.063 6.62 1.98 13.83
12/23/2020 9:00:00 AM 0.93 33.674 0.063 6.64 2 13.89
12/23/2020 9:15:00 AM 0.95 33.71 0.063 6.65 1.96 13.94
12/23/2020 9:30:00 AM 1 33.8 0.063 6.68 2.93 13.98
12/23/2020 9:45:00 AM 1.04 33.872 0.063 6.68 1.99 14
12/23/2020 10:00:00 AM 1.08 33.944 0.063 6.7 1.96 14.02
12/23/2020 10:15:00 AM 1.13 34.034 0.063 6.71 2.02 14.04
12/23/2020 10:30:00 AM 1.2 34.16 0.063 6.72 1.91 14.03
12/23/2020 10:45:00 AM 1.29 34.322 0.063 6.73 1.98 14.03
12/23/2020 11:00:00 AM 1.38 34.484 0.063 6.75 1.92 14.03
12/23/2020 11:15:00 AM 1.47 34.646 0.062 6.76 1.91 14.01
12/23/2020 11:30:00 AM 1.58 34.844 0.062 6.77 1.93 14
12/23/2020 11:45:00 AM 1.7 35.06 0.063 6.78 1.92 13.97
12/23/2020 12:00:00 PM 1.8 35.24 0.062 6.78 1.88 13.95
12/23/2020 12:15:00 PM 1.91 35.438 0.063 6.81 1.95 13.92
12/23/2020 12:30:00 PM 2.02 35.636 0.063 6.82 1.91 13.88
12/23/2020 12:45:00 PM 2.11 35.798 0.063 6.8 1.88 13.85
12/23/2020 1:00:00 PM 2.21 35.978 0.063 6.82 1.89 13.81
12/23/2020 1:15:00 PM 2.28 36.104 0.063 6.81 1.83 13.8
12/23/2020 1:30:00 PM 2.35 36.23 0.065 6.81 1.91 13.76
12/23/2020 1:45:00 PM 2.41 36.338 0.073 6.83 1.9 13.73
12/23/2020 2:00:00 PM 2.44 36.392 0.077 6.84 1.95 13.71
12/23/2020 2:15:00 PM 2.49 36.482 0.077 6.84 1.94 13.66
12/23/2020 2:30:00 PM 2.54 36.572 0.075 6.84 1.92 13.65
12/23/2020 2:45:00 PM 2.56 36.608 0.075 6.85 1.97 13.62
12/23/2020 3:00:00 PM 2.56 36.608 0.074 6.83 1.98 13.58
12/23/2020 3:15:00 PM 2.56 36.608 0.073 6.81 2.04 13.55
12/23/2020 3:30:00 PM 2.55 36.59 0.069 6.81 1.99 13.52
12/23/2020 3:45:00 PM 2.52 36.536 0.068 6.8 1.95 13.49
12/23/2020 4:00:00 PM 2.5 36.5 0.067 6.79 1.91 13.46
12/23/2020 4:15:00 PM 2.47 36.446 0.066 6.77 1.93 13.43
12/23/2020 4:30:00 PM 2.44 36.392 0.067 6.77 1.92 13.38
12/23/2020 4:45:00 PM 2.4 36.32 0.066 6.75 1.86 13.34
12/23/2020 5:00:00 PM 2.35 36.23 0.065 6.74 1.89 13.3
12/23/2020 5:15:00 PM 2.32 36.176 0.065 6.73 1.89 13.25
12/23/2020 5:30:00 PM 2.29 36.122 0.065 6.71 1.91 13.2
12/23/2020 5:45:00 PM 2.27 36.086 0.064 6.7 1.96 13.17
12/23/2020 6:00:00 PM 2.26 36.068 0.064 6.7 1.94 13.15
12/23/2020 6:15:00 PM 2.23 36.014 0.064 6.68 2.12 13.13
12/23/2020 6:30:00 PM 2.21 35.978 0.064 6.68 1.93 13.13
12/23/2020 6:45:00 PM 2.19 35.942 0.064 6.68 1.98 13.12
12/23/2020 7:00:00 PM 2.16 35.888 0.064 6.66 1.98 13.11
12/23/2020 7:15:00 PM 2.14 35.852 0.064 6.67 2.01 13.12
12/23/2020 7:30:00 PM 2.11 35.798 0.064 6.66 2.02 13.12
12/23/2020 7:45:00 PM 2.08 35.744 0.064 6.65 2.09 13.12
12/23/2020 8:00:00 PM 2.05 35.69 0.064 6.64 2.15 13.13
12/23/2020 8:15:00 PM 2.03 35.654 0.064 6.65 2.16 13.14
12/23/2020 8:30:00 PM 2.01 35.618 0.064 6.67 2.12 13.13
12/23/2020 8:45:00 PM 2.01 35.618 0.065 6.65 2.06 13.14
12/23/2020 9:00:00 PM 2 35.6 0.064 6.66 2.13 13.15
12/23/2020 9:15:00 PM 1.99 35.582 0.065 6.64 2.05 13.14
12/23/2020 9:30:00 PM 1.98 35.564 0.065 6.65 2.08 13.15
12/23/2020 9:45:00 PM 1.96 35.528 0.065 6.65 2.05 13.16
12/23/2020 10:00:00 PM 1.94 35.492 0.064 6.63 2.03 13.16
12/23/2020 10:15:00 PM 1.91 35.438 0.065 6.64 2.02 13.17
12/23/2020 10:30:00 PM 1.89 35.402 0.064 6.63 2.03 13.17
12/23/2020 10:45:00 PM 1.86 35.348 0.064 6.63 2.09 13.18
12/23/2020 11:00:00 PM 1.84 35.312 0.064 6.62 2.03 13.19
12/23/2020 11:15:00 PM 1.82 35.276 0.064 6.63 2.01 13.2
12/23/2020 11:30:00 PM 1.81 35.258 0.065 6.64 1.97 13.2
12/23/2020 11:45:00 PM 1.79 35.222 0.064 6.62 2.01 13.21
12/24/2020 12:00:00 AM 1.77 35.186 0.064 6.64 2.05 13.21
12/24/2020 12:15:00 AM 1.75 35.15 0.065 6.64 2.03 13.21
12/24/2020 12:30:00 AM 1.74 35.132 0.064 6.62 2.03 13.22
12/24/2020 12:45:00 AM 1.72 35.096 0.064 6.63 2.03 13.23
12/24/2020 1:00:00 AM 1.7 35.06 0.064 6.63 2.09 13.23
12/24/2020 1:15:00 AM 1.69 35.042 0.065 6.64 2.08 13.23
12/24/2020 1:30:00 AM 1.69 35.042 0.065 6.65 2.08 13.24
12/24/2020 1:45:00 AM 1.68 35.024 0.064 6.63 2.06 13.23
12/24/2020 2:00:00 AM 1.67 35.006 0.064 6.65 2.06 13.24
12/24/2020 2:15:00 AM 1.69 35.042 0.065 6.65 1.97 13.24
12/24/2020 2:30:00 AM 1.68 35.024 0.065 6.63 1.97 13.24
12/24/2020 2:45:00 AM 1.66 34.988 0.065 6.65 1.96 13.24
12/24/2020 3:00:00 AM 1.65 34.97 0.065 6.64 2.01 13.24
12/24/2020 3:15:00 AM 1.66 34.988 0.065 6.64 1.91 13.25
12/24/2020 3:30:00 AM 1.66 34.988 0.065 6.64 1.9 13.24
12/24/2020 3:45:00 AM 1.67 35.006 0.065 6.65 1.92 13.24
12/24/2020 4:00:00 AM 1.68 35.024 0.065 6.65 1.96 13.24
12/24/2020 4:15:00 AM 1.67 35.006 0.065 6.64 1.94 13.24
12/24/2020 4:30:00 AM 1.66 34.988 0.065 6.64 1.93 13.24
12/24/2020 4:45:00 AM 1.66 34.988 0.064 6.64 1.97 13.24
12/24/2020 5:00:00 AM 1.65 34.97 0.065 6.64 1.91 13.24
12/24/2020 5:15:00 AM 1.66 34.988 0.065 6.65 1.99 13.24
12/24/2020 5:30:00 AM 1.69 35.042 0.065 6.64 1.92 13.23
12/24/2020 5:45:00 AM 1.71 35.078 0.065 6.65 1.91 13.22
12/24/2020 6:00:00 AM 1.73 35.114 0.065 6.66 1.92 13.21
12/24/2020 6:15:00 AM 1.75 35.15 0.065 6.66 1.94 13.2
12/24/2020 6:30:00 AM 1.77 35.186 0.065 6.66 1.99 13.2
12/24/2020 6:45:00 AM 1.8 35.24 0.064 6.65 1.93 13.19
12/24/2020 7:00:00 AM 1.82 35.276 0.065 6.66 1.94 13.19
12/24/2020 7:15:00 AM 1.85 35.33 0.138 6.76 3.34 13.18
12/24/2020 7:30:00 AM 1.87 35.366 0.149 6.79 5.12 13.17
12/24/2020 7:45:00 AM 1.89 35.402 0.12 6.76 3.93 13.16
12/24/2020 8:00:00 AM 1.92 35.456 0.1 6.73 2.97 13.15
12/24/2020 8:15:00 AM 1.94 35.492 0.125 6.86 3.83 13.15
12/24/2020 8:30:00 AM 1.97 35.546 0.101 6.72 3.16 13.15
12/24/2020 8:45:00 AM 2 35.6 0.089 6.71 2.53 13.15
12/24/2020 9:00:00 AM 2.03 35.654 0.086 6.81 2.8 13.16
12/24/2020 9:15:00 AM 2.06 35.708 0.084 6.72 3.03 13.18
12/24/2020 9:30:00 AM 2.09 35.762 0.078 6.71 2.78 13.2
12/24/2020 9:45:00 AM 2.12 35.816 0.078 6.72 2.63 13.22
12/24/2020 10:00:00 AM 2.16 35.888 0.078 6.71 2.67 13.23
12/24/2020 10:15:00 AM 2.2 35.96 0.086 6.76 5.06 13.25
12/24/2020 10:30:00 AM 2.24 36.032 0.078 6.74 3.68 13.29
12/24/2020 10:45:00 AM 2.28 36.104 0.074 6.72 3.25 13.29
12/24/2020 11:00:00 AM 2.32 36.176 0.079 6.74 3.54 13.29
12/24/2020 11:15:00 AM 2.37 36.266 0.074 6.89 3.55 13.31
12/24/2020 11:30:00 AM 2.41 36.338 0.073 6.77 3.44 13.3
12/24/2020 11:45:00 AM 2.45 36.41 0.071 6.79 3.48 13.31
12/24/2020 12:00:00 PM 2.47 36.446 0.071 6.79 3.8 13.29
12/24/2020 12:15:00 PM 2.49 36.482 0.071 6.8 4.27 13.28
12/24/2020 12:30:00 PM 2.5 36.5 0.071 6.88 4.94 13.25
12/24/2020 12:45:00 PM 2.5 36.5 0.071 6.87 5.71 13.23
12/24/2020 1:00:00 PM 2.5 36.5 0.07 6.86 7.19 13.2
12/24/2020 1:15:00 PM 2.5 36.5 0.071 6.87 10.25 13.17
12/24/2020 1:30:00 PM 2.5 36.5 0.07 6.88 11.01 13.14
12/24/2020 1:45:00 PM 2.49 36.482 0.07 6.85 13.93 13.12
12/24/2020 2:00:00 PM 2.46 36.428 0.071 6.85 22.35 13.08
12/24/2020 2:15:00 PM 2.42 36.356 0.07 6.85 22.35 13.05
12/24/2020 2:30:00 PM 2.39 36.302 0.071 6.83 24.54 13.03
12/24/2020 2:45:00 PM 2.36 36.248 0.071 6.83 28.46 13.01
12/24/2020 3:00:00 PM 2.33 36.194 0.071 6.81 35.7 13
12/24/2020 3:15:00 PM 2.29 36.122 0.071 6.78 38.74 12.97
12/24/2020 3:30:00 PM 2.26 36.068 0.069 6.79 44.28 12.95
12/24/2020 3:45:00 PM 2.23 36.014 0.069 6.79 58.4 12.95
12/24/2020 4:00:00 PM 2.2 35.96 0.07 6.77 65.1 12.94
12/24/2020 4:15:00 PM 2.17 35.906 0.069 6.74 71.47 12.95
12/24/2020 4:30:00 PM 2.15 35.87 0.07 6.74 90.32 12.96
12/24/2020 4:45:00 PM 2.12 35.816 0.071 6.74 89.49 12.95
12/24/2020 5:00:00 PM 2.07 35.726 0.07 6.71 98.43 12.97
12/24/2020 5:15:00 PM 2.03 35.654 0.068 6.69 110.03 12.98
12/24/2020 5:30:00 PM 2.04 35.672 0.068 6.69 131.34 12.97
12/24/2020 5:45:00 PM 2.07 35.726 0.065 6.65 413.96 12.95
12/24/2020 6:00:00 PM 2.1 35.78 0.063 6.62 125.26 12.93
12/24/2020 6:15:00 PM 2.14 35.852 0.062 6.64 139.25 12.92
12/24/2020 6:30:00 PM 2.21 35.978 0.061 6.55 133.98 12.9
12/24/2020 6:45:00 PM 2.28 36.104 0.06 6.54 173.75 12.87
12/24/2020 7:00:00 PM 2.34 36.212 0.059 6.55 123.11 12.83
12/24/2020 7:15:00 PM 2.41 36.338 0.058 6.57 127 12.8
12/24/2020 7:30:00 PM 2.49 36.482 0.058 6.53 145.27 12.76
12/24/2020 7:45:00 PM 2.58 36.644 0.057 6.56 138.66 12.73
12/24/2020 8:00:00 PM 2.69 36.842 0.056 6.53 127.57 12.68
12/24/2020 8:15:00 PM 2.79 37.022 0.056 6.55 110.41 12.65
12/24/2020 8:30:00 PM 2.9 37.22 0.055 6.54 129.39 12.61
12/24/2020 8:45:00 PM 2.99 37.382 0.054 6.48 98.03 12.58
12/24/2020 9:00:00 PM 3.08 37.544 0.053 6.52 112.16 12.55
12/24/2020 9:15:00 PM 3.18 37.724 0.053 6.49 99.99 12.51
12/24/2020 9:30:00 PM 3.28 37.904 0.052 6.31 108.36 12.48
12/24/2020 9:45:00 PM 3.37 38.066 0.042 6.39 84.82 12.44
12/24/2020 10:00:00 PM 3.46 38.228 0.037 6.45 91.98 12.42
12/24/2020 10:15:00 PM 3.55 38.39 0.033 6.47 83.66 12.39
12/24/2020 10:30:00 PM 3.64 38.552 0.029 6.49 86.23 12.36
12/24/2020 10:45:00 PM 3.72 38.696 0.025 6.45 309 12.33
12/24/2020 11:00:00 PM 3.78 38.804 0.022 6.26 99.27 12.31
12/24/2020 11:15:00 PM 3.85 38.93 0.018 6.41 1220.33 12.28
12/24/2020 11:30:00 PM 3.91 39.038 0.015 6.38 81.46 12.25
12/24/2020 11:45:00 PM 3.96 39.128 0.015 6.26 1808.49 12.23
12/25/2020 12:00:00 AM 4.01 39.218 0.03 6.35 1086.14 12.21
12/25/2020 12:15:00 AM 4.05 39.29 0.029 6.26 1066.13 12.18
12/25/2020 12:30:00 AM 4.09 39.362 0.027 6.17 1062.42 12.16
12/25/2020 12:45:00 AM 4.11 39.398 0.026 6.18 1068.48 12.13
12/25/2020 1:00:00 AM 4.13 39.434 0.026 6.16 715.85 12.09
12/25/2020 1:15:00 AM 4.14 39.452 0.024 6.18 576.8 12.09
12/25/2020 1:30:00 AM 4.14 39.452 0.023 6.18 549.24 12.09
12/25/2020 1:45:00 AM 4.15 39.47 0.022 6.31 609.26 12.14
12/25/2020 2:00:00 AM 4.15 39.47 0.022 6.24 569.57 12.14
12/25/2020 2:15:00 AM 4.15 39.47 0.021 6.16 544.02 12.11
12/25/2020 2:30:00 AM 4.14 39.452 0.02 6.17 534.08 12.12
12/25/2020 2:45:00 AM 4.12 39.416 0.02 6.13 510.79 12.1
12/25/2020 3:00:00 AM 4.1 39.38 0.02 6.13 555.79 12.11
12/25/2020 3:15:00 AM 4.1 39.38 0.019 6.11 593.41 12.15
12/25/2020 3:30:00 AM 4.09 39.362 0.019 6.12 665.67 12.15
12/25/2020 3:45:00 AM 4.04 39.272 0.019 6.1 658.94 12.14
12/25/2020 4:00:00 AM 4.04 39.272 0.031 6.12 153.96 12.14
12/25/2020 4:15:00 AM 4.04 39.272 0.031 6.22 145.11 12.16
12/25/2020 4:30:00 AM 4.07 39.326 0.031 6.2 146.73 12.15
12/25/2020 4:45:00 AM 4.1 39.38 0.03 6.2 141.02 12.14
12/25/2020 5:00:00 AM 4.13 39.434 0.03 6.18 130.96 12.12
12/25/2020 5:15:00 AM 4.16 39.488 0.03 6.16 133.72 12.12
12/25/2020 5:30:00 AM 4.21 39.578 0.03 6.18 137.25 12.1
12/25/2020 5:45:00 AM 4.25 39.65 0.029 6.15 140.1 12.13
12/25/2020 6:00:00 AM 4.29 39.722 0.029 6.2 143.73 12.09
12/25/2020 6:15:00 AM 4.34 39.812 0.029 6.11 144 12.11
12/25/2020 6:30:00 AM 4.38 39.884 0.029 6.13 144.71 12.1
12/25/2020 6:45:00 AM 4.41 39.938 0.029 6.16 143.69 12.08
12/25/2020 7:00:00 AM 4.45 40.01 0.028 6.16 141.33 12.07
12/25/2020 7:15:00 AM 4.48 40.064 0.028 6.16 136.65 12.06
12/25/2020 7:30:00 AM 4.5 40.1 0.028 6.16 136.68 12.05
12/25/2020 7:45:00 AM 4.53 40.154 0.028 6.15 140.58 12.05
12/25/2020 8:00:00 AM 4.54 40.172 0.028 6.2 149.33 12.06
12/25/2020 8:15:00 AM 4.57 40.226 0.028 6.21 149.15 12.03
12/25/2020 8:30:00 AM 4.6 40.28 0.028 6.17 149.92 12.02
12/25/2020 8:45:00 AM 4.61 40.298 0.028 6.19 150.18 11.99
12/25/2020 9:00:00 AM 4.62 40.316 0.028 6.23 158.74 12
12/25/2020 9:15:00 AM 4.63 40.334 0.028 6.24 160.03 12.01
12/25/2020 9:30:00 AM 4.64 40.352 0.028 6.28 159.48 12.01
12/25/2020 9:45:00 AM 4.66 40.388 0.028 6.26 161.87 12.01
12/25/2020 10:00:00 AM 4.66 40.388 0.028 6.26 161.7 12.03
12/25/2020 10:15:00 AM 4.68 40.424 0.028 6.26 162.87 12.02
12/25/2020 10:30:00 AM 4.71 40.478 0.028 6.26 160.11 12.03
12/25/2020 10:45:00 AM 4.73 40.514 0.028 6.27 161.46 12.03
12/25/2020 11:00:00 AM 4.75 40.55 0.028 6.28 164.21 12.05
12/25/2020 11:15:00 AM 4.76 40.568 0.028 6.28 161.21 12.04
12/25/2020 11:30:00 AM 4.77 40.586 0.028 6.29 162.1 12.04
12/25/2020 11:45:00 AM 4.79 40.622 0.028 6.27 156.95 12
12/25/2020 12:00:00 PM 4.79 40.622 0.028 6.28 152.17 12.03
12/25/2020 12:15:00 PM 4.8 40.64 0.028 6.29 162.02 12.01
12/25/2020 12:30:00 PM 4.79 40.622 0.028 6.3 161.83 12.01
12/25/2020 12:45:00 PM 4.79 40.622 0.028 6.29 162.81 12.03
12/25/2020 1:00:00 PM 4.79 40.622 0.028 6.29 162.95 12.01
12/25/2020 1:15:00 PM 4.8 40.64 0.028 6.29 156.73 12.03
12/25/2020 1:30:00 PM 4.79 40.622 0.028 6.28 156.19 12.04
12/25/2020 1:45:00 PM 4.8 40.64 0.028 6.32 155.01 12.05
12/25/2020 2:00:00 PM 4.81 40.658 0.028 6.34 154.34 12.04
12/25/2020 2:15:00 PM 4.81 40.658 0.028 6.34 152.78 12.05
12/25/2020 2:30:00 PM 4.8 40.64 0.027 6.33 151.04 12.05
12/25/2020 2:45:00 PM 4.79 40.622 0.027 6.32 150.96 12.07
12/25/2020 3:00:00 PM 4.79 40.622 0.027 6.33 155.04 12.06
12/25/2020 3:15:00 PM 4.78 40.604 0.027 6.36 155.27 12.07
12/25/2020 3:30:00 PM 4.75 40.55 0.027 6.36 152.01 12.06
12/25/2020 3:45:00 PM 4.74 40.532 0.027 6.35 150.26 12.07
12/25/2020 4:00:00 PM 4.71 40.478 0.027 6.33 150.16 12.07
12/25/2020 4:15:00 PM 4.68 40.424 0.027 6.29 150.24 12.07
12/25/2020 4:30:00 PM 4.66 40.388 0.028 6.28 151.92 12.09
12/25/2020 4:45:00 PM 4.62 40.316 0.028 6.26 149.63 12.08
12/25/2020 5:00:00 PM 4.59 40.262 0.028 6.28 148.82 12.07
12/25/2020 5:15:00 PM 4.56 40.208 0.028 6.28 147.49 12.06
12/25/2020 5:30:00 PM 4.51 40.118 0.028 6.29 145.48 12.08
12/25/2020 5:45:00 PM 4.48 40.064 0.028 6.28 142.64 12.1
12/25/2020 6:00:00 PM 4.44 39.992 0.028 6.23 139.69 12.14
12/25/2020 6:15:00 PM 4.4 39.92 0.028 6.24 115.26 12.16
12/25/2020 6:30:00 PM 4.37 39.866 0.028 6.35 106.41 12.16
12/25/2020 6:45:00 PM 4.33 39.794 0.028 6.31 111.87 12.19
12/25/2020 7:00:00 PM 4.29 39.722 0.028 6.22 105.51 12.2
12/25/2020 7:15:00 PM 4.26 39.668 0.028 6.28 137.43 12.21
12/25/2020 7:30:00 PM 4.24 39.632 0.028 6.33 156.23 12.24
12/25/2020 7:45:00 PM 4.2 39.56 0.028 6.3 157.08 12.24
12/25/2020 8:00:00 PM 4.16 39.488 0.028 6.35 176.29 12.27
12/25/2020 8:15:00 PM 4.14 39.452 0.028 6.38 173.72 12.29
12/25/2020 8:30:00 PM 4.09 39.362 0.028 6.26 181.69 12.31
12/25/2020 8:45:00 PM 4.05 39.29 0.028 6.29 196.28 12.32
12/25/2020 9:00:00 PM 4.01 39.218 0.028 6.31 121.38 12.33
12/25/2020 9:15:00 PM 3.99 39.182 0.028 6.33 122.05 12.32
12/25/2020 9:30:00 PM 3.96 39.128 0.028 6.34 129.96 12.34
12/25/2020 9:45:00 PM 3.93 39.074 0.028 6.38 151.43 12.36
12/25/2020 10:00:00 PM 3.89 39.002 0.028 6.37 179.46 12.38
12/25/2020 10:15:00 PM 3.85 38.93 0.028 6.39 241.76 12.39
12/25/2020 10:30:00 PM 3.81 38.858 0.028 6.37 240.15 12.4
12/25/2020 10:45:00 PM 3.79 38.822 0.028 6.3 231.41 12.41
12/25/2020 11:00:00 PM 3.75 38.75 0.028 6.35 228.92 12.43
12/25/2020 11:15:00 PM 3.73 38.714 0.028 6.31 123.76 12.42
12/25/2020 11:30:00 PM 3.7 38.66 0.028 6.38 134.15 12.43
12/25/2020 11:45:00 PM 3.67 38.606 0.028 6.37 131.56 12.44
12/26/2020 12:00:00 AM 3.64 38.552 0.028 6.39 157.99 12.44
12/26/2020 12:15:00 AM 3.61 38.498 0.028 6.38 160.39 12.47
12/26/2020 12:30:00 AM 3.57 38.426 0.028 6.39 137.98 12.48
12/26/2020 12:45:00 AM 3.54 38.372 0.028 6.38 145.3 12.48
12/26/2020 1:00:00 AM 3.51 38.318 0.028 6.37 128.24 12.5
12/26/2020 1:15:00 AM 3.48 38.264 0.028 6.38 173.57 12.5
12/26/2020 1:30:00 AM 3.43 38.174 0.028 6.38 177.68 12.52
12/26/2020 1:45:00 AM 3.4 38.12 0.028 6.39 183.27 12.53
12/26/2020 2:00:00 AM 3.37 38.066 0.028 6.39 157.63 12.54
12/26/2020 2:15:00 AM 3.34 38.012 0.028 6.39 142.26 12.55
12/26/2020 2:30:00 AM 3.32 37.976 0.028 6.4 129.17 12.55
12/26/2020 2:45:00 AM 3.29 37.922 0.028 6.38 136.98 12.58
12/26/2020 3:00:00 AM 3.28 37.904 0.028 6.38 158.35 12.59
12/26/2020 3:15:00 AM 3.25 37.85 0.028 6.36 163.96 12.6
12/26/2020 3:30:00 AM 3.22 37.796 0.028 6.37 172.75 12.59
12/26/2020 3:45:00 AM 3.2 37.76 0.028 6.39 162.67 12.6
12/26/2020 4:00:00 AM 3.18 37.724 0.028 6.39 166.67 12.62
12/26/2020 4:15:00 AM 3.15 37.67 0.028 6.39 163.49 12.62
12/26/2020 4:30:00 AM 3.13 37.634 0.028 6.39 172.49 12.64
12/26/2020 4:45:00 AM 3.1 37.58 0.028 6.39 176.01 12.65
12/26/2020 5:00:00 AM 3.08 37.544 0.028 6.38 142.72 12.66
12/26/2020 5:15:00 AM 3.04 37.472 0.028 6.39 158.82 12.67
12/26/2020 5:30:00 AM 3.02 37.436 0.028 6.39 173.18 12.67
12/26/2020 5:45:00 AM 3 37.4 0.028 6.4 175.83 12.68
12/26/2020 6:00:00 AM 2.98 37.364 0.028 6.39 173.27 12.69
12/26/2020 6:15:00 AM 2.96 37.328 0.027 6.39 176.76 12.7
12/26/2020 6:30:00 AM 2.93 37.274 0.027 6.39 177.18 12.72
12/26/2020 6:45:00 AM 2.91 37.238 0.028 6.38 176.66 12.73
12/26/2020 7:00:00 AM 2.88 37.184 0.027 6.4 179.35 12.74
12/26/2020 7:15:00 AM 2.86 37.148 0.027 6.39 171.36 12.75
12/26/2020 7:30:00 AM 2.84 37.112 0.027 6.4 174.7 12.76
12/26/2020 7:45:00 AM 2.83 37.094 0.027 6.39 171.57 12.77
12/26/2020 8:00:00 AM 2.81 37.058 0.027 6.41 172.17 12.75
12/26/2020 8:15:00 AM 2.81 37.058 0.027 6.42 176.46 12.74
12/26/2020 8:30:00 AM 2.8 37.04 0.027 6.42 178.1 12.76
12/26/2020 8:45:00 AM 2.79 37.022 0.027 6.42 186.83 12.77
12/26/2020 9:00:00 AM 2.77 36.986 0.027 6.41 176.8 12.78
12/26/2020 9:15:00 AM 2.77 36.986 0.027 6.4 186.26 12.79
12/26/2020 9:30:00 AM 2.77 36.986 0.027 6.42 104.69 12.8
12/26/2020 9:45:00 AM 2.77 36.986 0.027 6.42 115.06 12.81
12/26/2020 10:00:00 AM 2.77 36.986 0.027 6.42 116.24 12.81
12/26/2020 10:15:00 AM 2.78 37.004 0.027 6.43 117.87 12.83
12/26/2020 10:30:00 AM 2.81 37.058 0.027 6.44 124.16 12.83
12/26/2020 10:45:00 AM 2.82 37.076 0.027 6.43 127.74 12.84
12/26/2020 11:00:00 AM 2.84 37.112 0.027 6.43 129.23 12.83
12/26/2020 11:15:00 AM 2.86 37.148 0.027 6.44 133.58 12.83
12/26/2020 11:30:00 AM 2.87 37.166 0.027 6.44 133.57 12.83
12/26/2020 11:45:00 AM 2.9 37.22 0.027 6.45 134.38 12.82
12/26/2020 12:00:00 PM 2.93 37.274 0.027 6.46 135.35 12.8
12/26/2020 12:15:00 PM 2.96 37.328 0.027 6.46 138.73 12.79
12/26/2020 12:30:00 PM 2.98 37.364 0.027 6.45 124.06 12.79
12/26/2020 12:45:00 PM 3 37.4 0.027 6.46 122.72 12.78
12/26/2020 1:00:00 PM 3.03 37.454 0.027 6.46 121.55 12.79
12/26/2020 1:15:00 PM 3.04 37.472 0.026 6.46 121.14 12.78
12/26/2020 1:30:00 PM 3.07 37.526 0.026 6.48 121.13 12.76
12/26/2020 1:45:00 PM 3.06 37.508 0.027 6.46 117.42 12.76
12/26/2020 2:00:00 PM 3.08 37.544 0.027 6.47 121.08 12.74
12/26/2020 2:15:00 PM 3.09 37.562 0.027 6.46 122.44 12.73
12/26/2020 2:30:00 PM 3.09 37.562 0.026 6.47 124.36 12.73
12/26/2020 2:45:00 PM 3.09 37.562 0.026 6.47 122.98 12.73
12/26/2020 3:00:00 PM 3.08 37.544 0.026 6.47 124.98 12.72
12/26/2020 3:15:00 PM 3.07 37.526 0.026 6.47 126.65 12.72
12/26/2020 3:30:00 PM 3.06 37.508 0.026 6.47 129.41 12.73
12/26/2020 3:45:00 PM 3.05 37.49 0.026 6.46 133.43 12.7
12/26/2020 4:00:00 PM 3.03 37.454 0.026 6.46 135.82 12.72
12/26/2020 4:15:00 PM 3.01 37.418 0.026 6.46 137.68 12.72
12/26/2020 4:30:00 PM 2.99 37.382 0.026 6.47 138.43 12.73
12/26/2020 4:45:00 PM 2.97 37.346 0.026 6.46 140.29 12.72
12/26/2020 5:00:00 PM 2.96 37.328 0.026 6.46 138.84 12.72
12/26/2020 5:15:00 PM 2.93 37.274 0.026 6.45 143.54 12.73
12/26/2020 5:30:00 PM 2.92 37.256 0.026 6.46 137.43 12.72
12/26/2020 5:45:00 PM 2.89 37.202 0.026 6.45 138.83 12.73
12/26/2020 6:00:00 PM 2.88 37.184 0.026 6.45 139.61 12.73
12/26/2020 6:15:00 PM 2.86 37.148 0.026 6.44 142.03 12.74
12/26/2020 6:30:00 PM 2.84 37.112 0.026 6.44 150.41 12.76
12/26/2020 6:45:00 PM 2.82 37.076 0.025 6.44 163.8 12.77
12/26/2020 7:00:00 PM 2.8 37.04 0.025 6.45 165.38 12.78
12/26/2020 7:15:00 PM 2.79 37.022 0.025 6.45 155.7 12.78
12/26/2020 7:30:00 PM 2.77 36.986 0.025 6.45 156.14 12.78
12/26/2020 7:45:00 PM 2.76 36.968 0.025 6.45 156.21 12.79
12/26/2020 8:00:00 PM 2.74 36.932 0.025 6.44 159.13 12.82
12/26/2020 8:15:00 PM 2.73 36.914 0.025 6.44 158.8 12.82
12/26/2020 8:30:00 PM 2.72 36.896 0.025 6.44 141.45 12.82
12/26/2020 8:45:00 PM 2.71 36.878 0.025 6.45 143.66 12.83
12/26/2020 9:00:00 PM 2.7 36.86 0.025 6.45 144 12.84
12/26/2020 9:15:00 PM 2.69 36.842 0.025 6.45 146.01 12.84
12/26/2020 9:30:00 PM 2.67 36.806 0.025 6.45 144.85 12.85
12/26/2020 9:45:00 PM 2.67 36.806 0.025 6.45 145.15 12.85
12/26/2020 10:00:00 PM 2.67 36.806 0.025 6.46 148.61 12.87
12/26/2020 10:15:00 PM 2.66 36.788 0.025 6.46 148.61 12.88
12/26/2020 10:30:00 PM 2.65 36.77 0.025 6.45 147.81 12.87
12/26/2020 10:45:00 PM 2.65 36.77 0.025 6.45 147.18 12.87
12/26/2020 11:00:00 PM 2.64 36.752 0.025 6.45 152.35 12.88
12/26/2020 11:15:00 PM 2.64 36.752 0.025 6.44 146.26 12.88
12/26/2020 11:30:00 PM 2.63 36.734 0.025 6.45 153.11 12.88
12/26/2020 11:45:00 PM 2.62 36.716 0.025 6.45 153.12 12.88
12/27/2020 12:00:00 AM 2.61 36.698 0.025 6.46 156.8 12.89
12/27/2020 12:15:00 AM 2.62 36.716 0.025 6.44 154.78 12.88
12/27/2020 12:30:00 AM 2.61 36.698 0.025 6.46 160.23 12.87
12/27/2020 12:45:00 AM 2.61 36.698 0.025 6.46 156.67 12.88
12/27/2020 1:00:00 AM 2.61 36.698 0.025 6.46 158.92 12.88
12/27/2020 1:15:00 AM 2.6 36.68 0.025 6.44 158.27 12.89
12/27/2020 1:30:00 AM 2.6 36.68 0.024 6.46 159.77 12.9
12/27/2020 1:45:00 AM 2.6 36.68 0.024 6.37 161.48 12.9
12/27/2020 2:00:00 AM 2.6 36.68 0.024 6.38 159.55 12.9
12/27/2020 2:15:00 AM 2.6 36.68 0.024 6.38 161.87 12.91
12/27/2020 2:30:00 AM 2.6 36.68 0.024 6.38 163.31 12.91
12/27/2020 2:45:00 AM 2.6 36.68 0.024 6.4 165.19 12.91
12/27/2020 3:00:00 AM 2.61 36.698 0.024 6.4 164.21 12.92
12/27/2020 3:15:00 AM 2.6 36.68 0.024 6.4 163.4 12.92
12/27/2020 3:30:00 AM 2.61 36.698 0.024 6.41 164.64 12.92
12/27/2020 3:45:00 AM 2.61 36.698 0.024 6.41 165.31 12.91
12/27/2020 4:00:00 AM 2.61 36.698 0.024 6.42 163.23 12.92
12/27/2020 4:15:00 AM 2.61 36.698 0.024 6.42 166.28 12.92
12/27/2020 4:30:00 AM 2.61 36.698 0.024 6.41 166.53 12.92
12/27/2020 4:45:00 AM 2.62 36.716 0.024 6.42 166.32 12.92
12/27/2020 5:00:00 AM 2.62 36.716 0.024 6.43 163.71 12.92
12/27/2020 5:15:00 AM 2.62 36.716 0.024 6.42 169.48 12.92
12/27/2020 5:30:00 AM 2.62 36.716 0.024 6.42 163.45 12.92
12/27/2020 5:45:00 AM 2.62 36.716 0.024 6.43 158.94 12.92
12/27/2020 6:00:00 AM 2.62 36.716 0.024 6.42 162.08 12.93
12/27/2020 6:15:00 AM 2.62 36.716 0.024 6.43 162.05 12.92
12/27/2020 6:30:00 AM 2.62 36.716 0.023 6.43 162.53 12.93
12/27/2020 6:45:00 AM 2.62 36.716 0.023 6.43 159.84 12.94
12/27/2020 7:00:00 AM 2.62 36.716 0.023 6.44 159.98 12.94
12/27/2020 7:15:00 AM 2.61 36.698 0.023 6.41 163.06 12.94
12/27/2020 7:30:00 AM 2.61 36.698 0.023 6.41 167.65 12.94
12/27/2020 7:45:00 AM 2.59 36.662 0.023 6.47 165.64 12.94
12/27/2020 8:00:00 AM 2.58 36.644 0.023 6.47 164.62 12.95
12/27/2020 8:15:00 AM 2.57 36.626 0.023 6.47 162.68 12.97
12/27/2020 8:30:00 AM 2.57 36.626 0.023 6.47 164.6 12.98
12/27/2020 8:45:00 AM 2.58 36.644 0.023 6.47 162.41 13
12/27/2020 9:00:00 AM 2.59 36.662 0.023 6.48 160.93 13.02
12/27/2020 9:15:00 AM 2.61 36.698 0.023 6.48 161.57 13.02
12/27/2020 9:30:00 AM 2.62 36.716 0.023 6.48 160.94 13.03
12/27/2020 9:45:00 AM 2.65 36.77 0.023 6.48 157.89 13.03
12/27/2020 10:00:00 AM 2.68 36.824 0.023 6.49 158.08 13.03
12/27/2020 10:15:00 AM 2.73 36.914 0.023 6.5 154.35 13.03
12/27/2020 10:30:00 AM 2.76 36.968 0.032 6.52 166.93 13.02
12/27/2020 10:45:00 AM 2.8 37.04 0.031 6.52 174.43 13.02
12/27/2020 11:00:00 AM 2.87 37.166 0.032 6.5 167.8 13.04
12/27/2020 11:15:00 AM 2.93 37.274 0.032 6.5 174.16 13.01
12/27/2020 11:30:00 AM 2.97 37.346 0.032 6.51 174.1 13.01
12/27/2020 11:45:00 AM 3.02 37.436 0.033 6.51 182.75 12.98
12/27/2020 12:00:00 PM 3.09 37.562 0.033 6.51 183.17 12.97
12/27/2020 12:15:00 PM 3.15 37.67 0.033 6.52 186.1 12.95
12/27/2020 12:30:00 PM 3.23 37.814 0.033 6.54 191.86 12.93
12/27/2020 12:45:00 PM 3.31 37.958 0.033 6.52 190.16 12.9
12/27/2020 1:00:00 PM 3.37 38.066 0.033 6.52 178.49 12.9
12/27/2020 1:15:00 PM 3.42 38.156 0.032 6.5 179.99 12.88
12/27/2020 1:30:00 PM 3.48 38.264 0.032 6.51 184.67 12.86
12/27/2020 1:45:00 PM 3.53 38.354 0.032 6.49 186.31 12.85
12/27/2020 2:00:00 PM 3.56 38.408 0.032 6.37 205.8 12.82
12/27/2020 2:15:00 PM 3.6 38.48 0.031 6.46 289.14 12.76
12/27/2020 2:30:00 PM 3.62 38.516 0.031 6.37 326.74 12.67
12/27/2020 2:45:00 PM 3.65 38.57 0.031 6.36 371.49 12.72
12/27/2020 3:00:00 PM 3.67 38.606 0.032 6.37 356.51 12.74
12/27/2020 3:15:00 PM 3.68 38.624 0.032 6.35 357.11 12.71
12/27/2020 3:30:00 PM 3.67 38.606 0.032 6.34 343.55 12.7
12/27/2020 3:45:00 PM 3.66 38.588 0.032 6.35 333.27 12.7
12/27/2020 4:00:00 PM 3.65 38.57 0.032 6.35 328.61 12.72
12/27/2020 4:15:00 PM 3.63 38.534 0.032 6.35 323.74 12.7
12/27/2020 4:30:00 PM 3.6 38.48 0.032 6.35 321.26 12.69
12/27/2020 4:45:00 PM 3.56 38.408 0.032 6.35 319.16 12.71
12/27/2020 5:00:00 PM 3.54 38.372 0.031 6.35 315.09 12.7
12/27/2020 5:15:00 PM 3.51 38.318 0.032 6.36 309.43 12.72
12/27/2020 5:30:00 PM 3.48 38.264 0.032 6.36 302.33 12.72
12/27/2020 5:45:00 PM 3.45 38.21 0.032 6.36 297.81 12.71
12/27/2020 6:00:00 PM 3.42 38.156 0.032 6.35 295.96 12.7
12/27/2020 6:15:00 PM 3.39 38.102 0.032 6.36 291.66 12.69
12/27/2020 6:30:00 PM 3.38 38.084 0.032 6.35 287 12.69
12/27/2020 6:45:00 PM 3.36 38.048 0.032 6.36 287.55 12.7
12/27/2020 7:00:00 PM 3.33 37.994 0.032 6.36 285.02 12.7
12/27/2020 7:15:00 PM 3.31 37.958 0.032 6.36 285.57 12.71
12/27/2020 7:30:00 PM 3.29 37.922 0.032 6.37 283.2 12.72
12/27/2020 7:45:00 PM 3.26 37.868 0.032 6.36 279.17 12.72
12/27/2020 8:00:00 PM 3.24 37.832 0.032 6.36 273.29 12.72
12/27/2020 8:15:00 PM 3.22 37.796 0.032 6.34 272.44 12.72
12/27/2020 8:30:00 PM 3.2 37.76 0.032 6.34 258.6 12.73
12/27/2020 8:45:00 PM 3.19 37.742 0.032 6.36 262.66 12.74
12/27/2020 9:00:00 PM 3.17 37.706 0.032 6.37 260.71 12.74
12/27/2020 9:15:00 PM 3.15 37.67 0.032 6.37 256.53 12.74
12/27/2020 9:30:00 PM 3.13 37.634 0.032 6.38 250.44 12.75
12/27/2020 9:45:00 PM 3.13 37.634 0.032 6.38 249.84 12.76
12/27/2020 10:00:00 PM 3.12 37.616 0.032 6.39 252.65 12.76
12/27/2020 10:15:00 PM 3.11 37.598 0.032 6.39 250.08 12.77
12/27/2020 10:30:00 PM 3.1 37.58 0.032 6.4 247.13 12.77
12/27/2020 10:45:00 PM 3.09 37.562 0.032 6.38 245.22 12.76
12/27/2020 11:00:00 PM 3.09 37.562 0.032 6.37 242.85 12.77
12/27/2020 11:15:00 PM 3.07 37.526 0.032 6.38 241.9 12.78
12/27/2020 11:30:00 PM 3.07 37.526 0.032 6.38 240.16 12.77
12/27/2020 11:45:00 PM 3.06 37.508 0.032 6.38 234.78 12.77
12/28/2020 12:00:00 AM 3.05 37.49 0.032 6.38 233.28 12.77
12/28/2020 12:15:00 AM 3.04 37.472 0.032 6.38 230.21 12.77
12/28/2020 12:30:00 AM 3.03 37.454 0.032 6.38 227.88 12.77
12/28/2020 12:45:00 AM 3.03 37.454 0.032 6.37 226.3 12.77
12/28/2020 1:00:00 AM 3.02 37.436 0.032 6.38 222.97 12.77
12/28/2020 1:15:00 AM 3.01 37.418 0.032 6.39 220.56 12.77
12/28/2020 1:30:00 AM 3.01 37.418 0.032 6.39 219.12 12.77
12/28/2020 1:45:00 AM 3.01 37.418 0.032 6.4 214.76 12.77
12/28/2020 2:00:00 AM 3.01 37.418 0.032 6.39 215.05 12.77
12/28/2020 2:15:00 AM 3.01 37.418 0.032 6.39 215.14 12.77
12/28/2020 2:30:00 AM 3.01 37.418 0.032 6.4 213.51 12.77
12/28/2020 2:45:00 AM 3.02 37.436 0.032 6.4 207.31 12.77
12/28/2020 3:00:00 AM 3.03 37.454 0.032 6.4 205.86 12.77
12/28/2020 3:15:00 AM 3.04 37.472 0.032 6.4 203.69 12.76
12/28/2020 3:30:00 AM 3.04 37.472 0.032 6.4 201.73 12.76
12/28/2020 3:45:00 AM 3.06 37.508 0.032 6.4 199.84 12.76
12/28/2020 4:00:00 AM 3.06 37.508 0.032 6.4 201.98 12.75
12/28/2020 4:15:00 AM 2.97 37.346 0.031 6.38 200.55 12.74
12/28/2020 4:30:00 AM 2.94 37.292 0.031 6.38 198.74 12.75
12/28/2020 4:45:00 AM 2.93 37.274 0.031 6.39 198.71 12.75
12/28/2020 5:00:00 AM 2.94 37.292 0.031 6.38 198.08 12.76
12/28/2020 5:15:00 AM 2.94 37.292 0.031 6.37 197.46 12.77
12/28/2020 5:30:00 AM 2.94 37.292 0.031 6.35 197.73 12.78
12/28/2020 5:45:00 AM 2.96 37.328 0.031 6.37 196.39 12.77
12/28/2020 6:00:00 AM 2.99 37.382 0.031 6.38 196.38 12.77
12/28/2020 6:15:00 AM 3.01 37.418 0.031 6.39 196.2 12.76
12/28/2020 6:30:00 AM 3.04 37.472 0.031 6.38 196.74 12.75
12/28/2020 6:45:00 AM 3.05 37.49 0.031 6.38 194.57 12.75
12/28/2020 7:00:00 AM 3.08 37.544 0.031 6.37 189.93 12.75
12/28/2020 7:15:00 AM 3.09 37.562 0.031 6.38 189.39 12.74
12/28/2020 7:30:00 AM 3.11 37.598 0.031 6.38 189.25 12.74
12/28/2020 7:45:00 AM 3.12 37.616 0.031 6.37 187 12.73
12/28/2020 8:00:00 AM 3.13 37.634 0.031 6.38